Darstellungsparameter: Aktuell verwendete Einstellungen:
Skalierung der Graphiken ... ?
xyx+y,   Skalierungsfaktor:      Skalierung: Modus: x, Faktor: 1
Darstellungszeitraum ... ?
Vom - - bis: - -   Zeitraum: 11.11.2009 - 10.05.2010
Min/Max/Avg-Anzeige ... ?
Zeige MMA aktuell
Zeige MMA Monat
Zeige MMA alles
Zeige --A aktuell
Zeige --A Monat
Zeige --A alles
Keine MMA-Anzeige
MMA:
Average (ber die Originaldaten)
MMA-Basis: 11.04.2020 - 13.05.2020
Quicknavigation für Darstellung... ?
Tage:      1T, 2T, 3T, 5T -1T -2T -3T -5T +1T +2T +3T +5T
Wochen: 1W, 2W, 3W -1W -2W -3W +1W +2W +3W
Monate: 1M, 3M, 6M -1M -3M -6M +1M +3M +6M
Jahre:    1J, 3J, 5J, 10J -1J -3J -5J -10J +1J +3J +5J +10J
Nutze für die Darstellung ... ?
Originaldaten oder Mittelwerte auf ...
Stundenbasis Tagesbasis Wochenbasis
Monatsbasis Jahresbasis      Datenbasis: Original-Daten
Darstellen als:
Statistik (Auto) Statistik J:M      Darstellung:
Zur Graphik,    zurück zur Übersicht aller Sensoren.
 
Tabellarische Datenbersicht: ?
 
Sensor: Nr:Datum:Temp:Abs-Feuchte:Windchill:Wind:
Aussen-T/F 1 11-11-2009 00:05:02 6.5 C 7.12 g/m*3 6.5 C 0 km/h
2 11-11-2009 00:17:02 6.5 C 7.12 g/m*3 6.5 C 0 km/h
3 11-11-2009 00:29:03 6.5 C 7.12 g/m*3 6.5 C 0 km/h
4 11-11-2009 00:41:03 6.4 C 7.08 g/m*3 6.4 C 0 km/h
5 11-11-2009 00:53:03 6.3 C 7.03 g/m*3 6.3 C 0 km/h
6 11-11-2009 01:05:03 6.3 C 7.03 g/m*3 6.3 C 0 km/h
7 11-11-2009 01:17:03 6.3 C 7.03 g/m*3 6.3 C 0 km/h
8 11-11-2009 01:29:03 6.2 C 6.99 g/m*3 6.2 C 0 km/h
9 11-11-2009 01:41:03 6.2 C 6.99 g/m*3 6.2 C 0 km/h
10 11-11-2009 01:53:03 6.2 C 6.99 g/m*3 6.2 C 0 km/h
11 11-11-2009 02:05:03 5.9 C 6.85 g/m*3 5.9 C 0 km/h
12 11-11-2009 02:17:03 5.4 C 6.63 g/m*3 5.4 C 0 km/h
13 11-11-2009 02:29:03 5.2 C 6.54 g/m*3 5.2 C 0 km/h
14 11-11-2009 02:41:03 5 C 6.46 g/m*3 5 C 0 km/h
15 11-11-2009 02:53:03 5.1 C 6.5 g/m*3 5.1 C 0 km/h
16 11-11-2009 03:05:03 5.2 C 6.54 g/m*3 5.2 C 0 km/h
17 11-11-2009 03:17:03 5.4 C 6.63 g/m*3 5.4 C 0 km/h
18 11-11-2009 03:29:03 5.4 C 6.63 g/m*3 5.4 C 0 km/h
19 11-11-2009 03:41:03 5.4 C 6.63 g/m*3 5.4 C 0 km/h
20 11-11-2009 03:53:03 5.4 C 6.63 g/m*3 5.4 C 0 km/h
21 11-11-2009 04:05:03 5.4 C 6.63 g/m*3 5.4 C 0 km/h
22 11-11-2009 04:17:04 5.4 C 6.63 g/m*3 5.4 C 0 km/h
23 11-11-2009 04:29:04 5.4 C 6.63 g/m*3 5.4 C 0 km/h
24 11-11-2009 04:41:04 5.4 C 6.63 g/m*3 5.4 C 0 km/h
25 11-11-2009 04:53:04 5.4 C 6.56 g/m*3 5.4 C 0 km/h
Sensor: Nr:Datum:Temp:Abs-Feuchte:Windchill:Wind:
Aussen-T/F 26 11-11-2009 05:05:04 5.4 C 6.49 g/m*3 5.4 C 0 km/h
27 11-11-2009 05:17:04 5.5 C 6.39 g/m*3 5.5 C 0 km/h
28 11-11-2009 05:29:04 5.5 C 6.32 g/m*3 5.5 C 0 km/h
29 11-11-2009 05:41:04 5.5 C 6.25 g/m*3 5.5 C 0 km/h
30 11-11-2009 05:53:04 5.6 C 6.15 g/m*3 5.6 C 0 km/h
31 11-11-2009 06:05:04 5.5 C 6.04 g/m*3 5.5 C 0 km/h
32 11-11-2009 06:17:04 5.6 C 6.01 g/m*3 5.6 C 0 km/h
33 11-11-2009 06:29:04 5.6 C 6.01 g/m*3 5.6 C 0 km/h
34 11-11-2009 06:41:04 5.7 C 6.05 g/m*3 5.7 C 0 km/h
35 11-11-2009 06:53:04 5.7 C 5.98 g/m*3 5.7 C 0 km/h
36 11-11-2009 07:05:02 5.7 C 5.98 g/m*3 5.7 C 0 km/h
37 11-11-2009 07:17:02 5.7 C 5.91 g/m*3 5.7 C 0 km/h
38 11-11-2009 07:29:02 5.7 C 5.91 g/m*3 5.7 C 0 km/h
39 11-11-2009 07:41:02 5.7 C 5.84 g/m*3 5.7 C 0 km/h
40 11-11-2009 07:53:02 5.7 C 5.84 g/m*3 5.7 C 0 km/h
41 11-11-2009 08:05:02 5.7 C 5.84 g/m*3 5.7 C 0 km/h
42 11-11-2009 08:17:02 5.7 C 5.84 g/m*3 5.7 C 0 km/h
43 11-11-2009 08:29:02 5.7 C 5.84 g/m*3 5.7 C 0 km/h
44 11-11-2009 08:41:02 5.7 C 5.84 g/m*3 5.7 C 0 km/h
45 11-11-2009 08:53:02 5.7 C 5.84 g/m*3 5.7 C 0 km/h
46 11-11-2009 09:05:02 5.8 C 5.87 g/m*3 5.8 C 0 km/h
47 11-11-2009 09:17:03 5.9 C 5.84 g/m*3 5.9 C 0 km/h
48 11-11-2009 09:29:03 6 C 5.81 g/m*3 6 C 0 km/h
49 11-11-2009 09:41:02 6 C 5.88 g/m*3 6 C 0 km/h
50 11-11-2009 09:53:02 6.1 C 5.92 g/m*3 6.1 C 0 km/h
Sensor: Nr:Datum:Temp:Abs-Feuchte:Windchill:Wind:
Aussen-T/F 51 11-11-2009 10:05:02 6.2 C 6.03 g/m*3 6.2 C 0 km/h
52 11-11-2009 10:17:03 6.3 C 6.07 g/m*3 6.3 C 0 km/h
53 11-11-2009 10:29:03 6.5 C 6.22 g/m*3 6.5 C 0 km/h
54 11-11-2009 10:41:02 6.5 C 6.22 g/m*3 6.5 C 0 km/h
55 11-11-2009 10:53:03 6.7 C 6.31 g/m*3 6.7 C 0 km/h
56 11-11-2009 11:05:02 6.6 C 6.27 g/m*3 6.6 C 0 km/h
57 11-11-2009 11:17:02 6.7 C 6.23 g/m*3 6.7 C 0 km/h
58 11-11-2009 11:29:02 7.1 C 6.32 g/m*3 7.1 C 0 km/h
59 11-11-2009 11:41:02 7.4 C 6.28 g/m*3 7.4 C 0 km/h
60 11-11-2009 11:53:02 7.5 C 6.16 g/m*3 7.5 C 0 km/h
61 11-11-2009 12:05:02 7.3 C 6 g/m*3 7.3 C 0 km/h
62 11-11-2009 12:17:02 7.3 C 6.16 g/m*3 7.3 C 0 km/h
63 11-11-2009 12:29:03 7.2 C 6.12 g/m*3 7.2 C 0 km/h
64 11-11-2009 12:41:02 7.3 C 6.16 g/m*3 7.3 C 0 km/h
65 11-11-2009 12:53:02 7.2 C 6.12 g/m*3 7.2 C 0 km/h
66 11-11-2009 13:05:01 7.4 C 6.28 g/m*3 7.4 C 0 km/h
67 11-11-2009 13:17:02 7.3 C 6.24 g/m*3 7.3 C 0 km/h
68 11-11-2009 13:29:02 7.5 C 6.24 g/m*3 7.5 C 0 km/h
69 11-11-2009 13:41:01 7.6 C 6.28 g/m*3 7.6 C 0 km/h
70 11-11-2009 13:53:02 7.6 C 6.2 g/m*3 7.6 C 0 km/h
71 11-11-2009 14:05:01 7.8 C 6.28 g/m*3 7.8 C 0 km/h
72 11-11-2009 14:17:01 7.7 C 6.16 g/m*3 7.7 C 0 km/h
73 11-11-2009 14:29:01 7.7 C 6.16 g/m*3 7.7 C 0 km/h
74 11-11-2009 14:41:02 7.7 C 6.16 g/m*3 7.7 C 0 km/h
75 11-11-2009 14:53:02 7.8 C 6.2 g/m*3 7.8 C 0 km/h
Sensor: Nr:Datum:Temp:Abs-Feuchte:Windchill:Wind:
Aussen-T/F 76 11-11-2009 15:05:02 7.7 C 6.16 g/m*3 7.7 C 0 km/h
77 11-11-2009 15:17:02 7.7 C 6.16 g/m*3 7.7 C 0 km/h
78 11-11-2009 15:29:02 7.6 C 6.2 g/m*3 7.6 C 0 km/h
79 11-11-2009 15:41:02 7.6 C 6.2 g/m*3 7.6 C 0 km/h
80 11-11-2009 15:53:01 7.7 C 6.24 g/m*3 7.7 C 0 km/h
81 11-11-2009 16:05:02 7.4 C 6.12 g/m*3 7.4 C 0 km/h
82 11-11-2009 16:17:01 7.1 C 6.08 g/m*3 7.1 C 0 km/h
83 11-11-2009 16:29:01 6.9 C 6.16 g/m*3 6.9 C 0 km/h
84 11-11-2009 16:41:02 6.8 C 6.19 g/m*3 6.8 C 0 km/h
85 11-11-2009 16:53:02 6.7 C 6.15 g/m*3 6.7 C 0 km/h
86 11-11-2009 17:05:02 6.7 C 6.23 g/m*3 6.7 C 0 km/h
87 11-11-2009 17:17:01 6.5 C 6.15 g/m*3 6.5 C 0 km/h
88 11-11-2009 17:29:01 6.5 C 6.15 g/m*3 6.5 C 0 km/h
89 11-11-2009 17:41:02 6.3 C 6.07 g/m*3 6.3 C 0 km/h
90 11-11-2009 17:53:02 6.4 C 6.11 g/m*3 6.4 C 0 km/h
91 11-11-2009 18:05:02 6.4 C 6.11 g/m*3 6.4 C 0 km/h
92 11-11-2009 18:17:01 6.6 C 6.19 g/m*3 6.6 C 0 km/h
93 11-11-2009 18:29:01 6.6 C 6.11 g/m*3 6.6 C 0 km/h
94 11-11-2009 18:41:02 6.6 C 6.11 g/m*3 6.6 C 0 km/h
95 11-11-2009 18:53:02 6.6 C 6.11 g/m*3 6.6 C 0 km/h
96 11-11-2009 19:05:02 6.6 C 6.04 g/m*3 6.6 C 0 km/h
97 11-11-2009 19:17:02 6.6 C 6.11 g/m*3 6.6 C 0 km/h
98 11-11-2009 19:29:02 6.6 C 6.11 g/m*3 6.6 C 0 km/h
99 11-11-2009 19:41:02 6.6 C 6.11 g/m*3 6.6 C 0 km/h
100 11-11-2009 19:53:02 6.4 C 6.04 g/m*3 6.4 C 0 km/h
Sensor: Nr:Datum:Temp:Abs-Feuchte:Windchill:Wind:
Aussen-T/F 101 11-11-2009 20:05:02 6.4 C 5.96 g/m*3 6.4 C 0 km/h
102 11-11-2009 20:17:02 6.4 C 5.89 g/m*3 6.4 C 0 km/h
103 11-11-2009 20:29:02 6.4 C 5.89 g/m*3 6.4 C 0 km/h
104 11-11-2009 20:41:02 6.4 C 5.89 g/m*3 6.4 C 0 km/h
105 11-11-2009 20:53:02 6.3 C 5.85 g/m*3 6.3 C 0 km/h
106 11-11-2009 21:05:02 6.3 C 5.77 g/m*3 6.3 C 0 km/h
107 11-11-2009 21:17:02 6.3 C 5.77 g/m*3 6.3 C 0 km/h
108 11-11-2009 21:29:02 6.3 C 5.77 g/m*3 6.3 C 0 km/h
109 11-11-2009 21:41:02 6.3 C 5.7 g/m*3 6.3 C 0 km/h
110 11-11-2009 21:53:01 6.2 C 5.66 g/m*3 6.2 C 0 km/h
111 11-11-2009 22:05:01 6.2 C 5.66 g/m*3 6.2 C 0 km/h
112 11-11-2009 22:18:03 6.2 C 5.66 g/m*3 6.2 C 0 km/h
113 11-11-2009 22:30:03 6 C 5.66 g/m*3 6 C 0 km/h
114 11-11-2009 22:42:03 5.7 C 5.62 g/m*3 5.7 C 0 km/h
115 11-11-2009 22:54:03 5.2 C 5.44 g/m*3 5.2 C 0 km/h
116 11-11-2009 23:06:03 4.8 C 5.5 g/m*3 4.8 C 0 km/h
117 11-11-2009 23:18:03 4.4 C 5.42 g/m*3 4.4 C 0 km/h
118 11-11-2009 23:30:03 4 C 5.34 g/m*3 4 C 0 km/h
119 11-11-2009 23:42:03 3.7 C 5.3 g/m*3 3.7 C 0 km/h
120 11-11-2009 23:54:03 3.5 C 5.29 g/m*3 3.5 C 0 km/h
121 12-11-2009 00:06:03 3.3 C 5.28 g/m*3 3.3 C 0 km/h
122 12-11-2009 00:18:03 3.1 C 5.21 g/m*3 3.1 C 0 km/h
123 12-11-2009 00:30:03 2.8 C 5.16 g/m*3 2.8 C 0 km/h
124 12-11-2009 00:42:03 2.6 C 5.15 g/m*3 2.6 C 0 km/h
125 12-11-2009 00:54:03 2.4 C 5.08 g/m*3 2.4 C 0 km/h
Sensor: Nr:Datum:Temp:Abs-Feuchte:Windchill:Wind:
Aussen-T/F 126 12-11-2009 01:06:03 2.1 C 4.98 g/m*3 2.1 C 0 km/h
127 12-11-2009 01:18:03 2 C 4.95 g/m*3 2 C 0 km/h
128 12-11-2009 01:30:03 1.8 C 4.93 g/m*3 1.8 C 0 km/h
129 12-11-2009 01:42:03 1.7 C 4.9 g/m*3 1.7 C 0 km/h
130 12-11-2009 01:54:03 1.7 C 4.9 g/m*3 1.7 C 0 km/h
131 12-11-2009 02:06:04 1.4 C 4.85 g/m*3 1.4 C 0 km/h
132 12-11-2009 02:18:04 1.3 C 4.82 g/m*3 1.3 C 0 km/h
133 12-11-2009 02:30:04 1.2 C 4.79 g/m*3 1.2 C 0 km/h
134 12-11-2009 02:42:04 1.2 C 4.79 g/m*3 1.2 C 0 km/h
135 12-11-2009 02:54:04 1.1 C 4.76 g/m*3 1.1 C 0 km/h
136 12-11-2009 03:06:04 1 C 4.72 g/m*3 1 C 0 km/h
137 12-11-2009 03:18:04 0.9 C 4.74 g/m*3 0.9 C 0 km/h
138 12-11-2009 03:30:04 0.8 C 4.71 g/m*3 0.8 C 0 km/h
139 12-11-2009 03:42:04 0.8 C 4.71 g/m*3 0.8 C 0 km/h
140 12-11-2009 03:54:04 1 C 4.78 g/m*3 1 C 0 km/h
141 12-11-2009 04:06:04 0.8 C 4.76 g/m*3 0.8 C 0 km/h
142 12-11-2009 04:18:04 0.6 C 4.7 g/m*3 0.6 C 0 km/h
143 12-11-2009 04:30:04 0.5 C 4.66 g/m*3 0.5 C 0 km/h
144 12-11-2009 04:42:04 0.4 C 4.63 g/m*3 0.4 C 0 km/h
145 12-11-2009 04:54:04 0.3 C 4.6 g/m*3 0.3 C 0 km/h
146 12-11-2009 05:06:04 0.2 C 4.57 g/m*3 0.2 C 0 km/h
147 12-11-2009 05:18:04 0.2 C 4.62 g/m*3 0.2 C 0 km/h
148 12-11-2009 05:30:04 0.4 C 4.68 g/m*3 0.4 C 0 km/h
149 12-11-2009 05:42:04 0.6 C 4.75 g/m*3 0.6 C 0 km/h
150 12-11-2009 05:54:05 0.7 C 4.83 g/m*3 0.7 C 0 km/h
Sensor: Nr:Datum:Temp:Abs-Feuchte:Windchill:Wind:
Aussen-T/F 151 12-11-2009 06:06:05 0.9 C 4.9 g/m*3 0.9 C 0 km/h
152 12-11-2009 06:18:03 1 C 4.93 g/m*3 1 C 0 km/h
153 12-11-2009 06:30:03 1.1 C 4.96 g/m*3 1.1 C 0 km/h
154 12-11-2009 06:42:03 1.1 C 4.96 g/m*3 1.1 C 0 km/h
155 12-11-2009 06:54:01 1.2 C 5 g/m*3 1.2 C 0 km/h
156 12-11-2009 07:06:02 1.3 C 5.03 g/m*3 1.3 C 0 km/h
157 12-11-2009 07:18:01 1.4 C 5.07 g/m*3 1.4 C 0 km/h
158 12-11-2009 07:30:01 1.4 C 5.07 g/m*3 1.4 C 0 km/h
159 12-11-2009 07:42:01 1.4 C 5.07 g/m*3 1.4 C 0 km/h
160 12-11-2009 07:54:01 1.7 C 5.17 g/m*3 1.7 C 0 km/h
161 12-11-2009 08:06:02 1.7 C 5.17 g/m*3 1.7 C 0 km/h
162 12-11-2009 08:18:01 1.9 C 5.24 g/m*3 1.9 C 0 km/h
163 12-11-2009 08:30:01 2.2 C 5.35 g/m*3 2.2 C 0 km/h
164 12-11-2009 08:42:02 2.3 C 5.39 g/m*3 2.3 C 0 km/h
165 12-11-2009 08:54:01 2.7 C 5.54 g/m*3 2.7 C 0 km/h
166 12-11-2009 09:06:02 3.1 C 5.69 g/m*3 3.1 C 0 km/h
167 12-11-2009 09:18:01 3.3 C 5.76 g/m*3 3.3 C 0 km/h
168 12-11-2009 09:30:01 3.5 C 5.84 g/m*3 3.5 C 0 km/h
169 12-11-2009 09:42:02 3.7 C 5.92 g/m*3 3.7 C 0 km/h
170 12-11-2009 09:54:01 3.7 C 5.92 g/m*3 3.7 C 0 km/h
171 12-11-2009 10:06:01 3.5 C 5.84 g/m*3 3.5 C 0 km/h
172 12-11-2009 10:18:02 3.5 C 5.84 g/m*3 3.5 C 0 km/h
173 12-11-2009 10:30:02 3.5 C 5.84 g/m*3 3.5 C 0 km/h
174 12-11-2009 10:42:01 3.7 C 5.92 g/m*3 3.7 C 0 km/h
175 12-11-2009 10:54:02 4 C 6.04 g/m*3 4 C 0 km/h
Sensor: Nr:Datum:Temp:Abs-Feuchte:Windchill:Wind:
Aussen-T/F 176 12-11-2009 11:06:02 4.2 C 6.12 g/m*3 4.2 C 0 km/h
177 12-11-2009 11:18:02 4.4 C 6.2 g/m*3 4.4 C 0 km/h
178 12-11-2009 11:30:02 4.6 C 6.29 g/m*3 4.6 C 0 km/h
179 12-11-2009 11:42:02 4.8 C 6.37 g/m*3 4.8 C 0 km/h
180 12-11-2009 11:54:02 5.1 C 6.5 g/m*3 5.1 C 0 km/h
181 12-11-2009 12:06:02 5.3 C 6.58 g/m*3 5.3 C 0 km/h
182 12-11-2009 12:18:01 5.5 C 6.6 g/m*3 5.5 C 0 km/h
183 12-11-2009 12:30:01 5.6 C 6.65 g/m*3 5.6 C 0 km/h
184 12-11-2009 12:42:02 5.7 C 6.62 g/m*3 5.7 C 0 km/h
185 12-11-2009 12:54:02 5.6 C 6.5 g/m*3 5.6 C 0 km/h
186 12-11-2009 13:06:02 5.7 C 6.55 g/m*3 5.7 C 0 km/h
187 12-11-2009 13:18:02 5.8 C 6.59 g/m*3 5.8 C 0 km/h
188 12-11-2009 13:30:02 5.9 C 6.56 g/m*3 5.9 C 0 km/h
189 12-11-2009 13:42:02 6.3 C 6.66 g/m*3 6.3 C 0 km/h
190 12-11-2009 13:54:02 6.6 C 6.72 g/m*3 6.6 C 0 km/h
191 12-11-2009 14:06:02 6.6 C 6.64 g/m*3 6.6 C 0 km/h
192 12-11-2009 14:18:02 6.8 C 6.73 g/m*3 6.8 C 0 km/h
193 12-11-2009 14:30:02 7 C 6.74 g/m*3 7 C 0 km/h
194 12-11-2009 14:42:02 7.3 C 6.79 g/m*3 7.3 C 0 km/h
195 12-11-2009 14:54:02 7.5 C 6.8 g/m*3 7.5 C 0 km/h
196 12-11-2009 15:06:02 7.4 C 6.76 g/m*3 7.4 C 0 km/h
197 12-11-2009 15:18:02 7.3 C 6.72 g/m*3 7.3 C 0 km/h
198 12-11-2009 15:30:02 7.3 C 6.79 g/m*3 7.3 C 0 km/h
199 12-11-2009 15:42:02 7.4 C 6.84 g/m*3 7.4 C 0 km/h
200 12-11-2009 15:54:02 7.4 C 6.92 g/m*3 7.4 C 0 km/h
Sensor: Nr:Datum:Temp:Abs-Feuchte:Windchill:Wind:
Aussen-T/F 201 12-11-2009 16:06:02 7.5 C 6.96 g/m*3 7.5 C 0 km/h
202 12-11-2009 16:18:03 7.5 C 6.96 g/m*3 7.5 C 0 km/h
203 12-11-2009 16:30:03 7.5 C 6.96 g/m*3 7.5 C 0 km/h
204 12-11-2009 16:42:02 7.5 C 6.96 g/m*3 7.5 C 0 km/h
205 12-11-2009 16:54:02 7.6 C 7.01 g/m*3 7.6 C 0 km/h
206 12-11-2009 17:06:02 7.7 C 7.05 g/m*3 7.7 C 0 km/h
207 12-11-2009 17:18:02 7.7 C 7.14 g/m*3 7.7 C 0 km/h
208 12-11-2009 17:30:02 7.7 C 7.14 g/m*3 7.7 C 0 km/h
209 12-11-2009 17:42:02 7.8 C 7.18 g/m*3 7.8 C 0 km/h
210 12-11-2009 17:54:02 7.9 C 7.23 g/m*3 7.9 C 0 km/h
211 12-11-2009 18:06:02 8 C 7.19 g/m*3 8 C 0 km/h
212 12-11-2009 18:18:02 8.2 C 7.29 g/m*3 8.2 C 0 km/h
213 12-11-2009 18:30:02 8.1 C 7.16 g/m*3 8.1 C 0 km/h
214 12-11-2009 18:42:02 8 C 7.11 g/m*3 8 C 0 km/h
215 12-11-2009 18:54:02 7.9 C 7.23 g/m*3 7.9 C 0 km/h
216 12-11-2009 19:06:02 7.9 C 7.23 g/m*3 7.9 C 0 km/h
217 12-11-2009 19:18:02 7.9 C 7.31 g/m*3 7.9 C 0 km/h
218 12-11-2009 19:30:03 7.9 C 7.31 g/m*3 7.9 C 0 km/h
219 12-11-2009 19:42:02 7.8 C 7.26 g/m*3 7.8 C 0 km/h
220 12-11-2009 19:54:02 7.8 C 7.26 g/m*3 7.8 C 0 km/h
221 12-11-2009 20:06:01 7.8 C 7.35 g/m*3 7.8 C 0 km/h
222 12-11-2009 20:18:02 7.8 C 7.35 g/m*3 7.8 C 0 km/h
223 12-11-2009 20:30:02 7.8 C 7.35 g/m*3 7.8 C 0 km/h
224 12-11-2009 20:42:02 7.6 C 7.33 g/m*3 7.6 C 0 km/h
225 12-11-2009 20:54:01 7.6 C 7.33 g/m*3 7.6 C 0 km/h
Sensor: Nr:Datum:Temp:Abs-Feuchte:Windchill:Wind:
Aussen-T/F 226 12-11-2009 21:06:02 7.5 C 7.28 g/m*3 7.5 C 0 km/h
227 12-11-2009 21:18:01 7.3 C 7.27 g/m*3 7.3 C 0 km/h
228 12-11-2009 21:30:01 7.1 C 7.18 g/m*3 7.1 C 0 km/h
229 12-11-2009 21:42:01 7 C 7.13 g/m*3 7 C 0 km/h
230 12-11-2009 21:54:01 7.1 C 7.25 g/m*3 7.1 C 0 km/h
231 12-11-2009 22:07:01 7.4 C 7.4 g/m*3 7.4 C 0 km/h
232 12-11-2009 22:19:01 7.5 C 7.52 g/m*3 7.5 C 0 km/h
233 12-11-2009 22:31:01 7.2 C 7.3 g/m*3 7.2 C 0 km/h
234 12-11-2009 22:43:01 7.3 C 7.35 g/m*3 7.3 C 0 km/h
235 12-11-2009 22:55:01 7.6 C 7.49 g/m*3 7.6 C 0 km/h
236 12-11-2009 23:07:01 8.1 C 7.66 g/m*3 8.1 C 0 km/h
237 12-11-2009 23:19:01 7.9 C 7.47 g/m*3 7.9 C 0 km/h
238 12-11-2009 23:31:02 8 C 7.36 g/m*3 8 C 0 km/h
239 12-11-2009 23:43:02 8.3 C 7.5 g/m*3 8.3 C 0 km/h
240 12-11-2009 23:55:02 8.6 C 7.48 g/m*3 8.6 C 0 km/h
241 13-11-2009 00:07:02 8.5 C 7.26 g/m*3 8.5 C 0 km/h
242 13-11-2009 00:19:02 8.3 C 7.16 g/m*3 8.3 C 0 km/h
243 13-11-2009 00:31:02 8.1 C 7.16 g/m*3 8.1 C 0 km/h
244 13-11-2009 00:43:02 7.5 C 6.96 g/m*3 7.5 C 0 km/h
245 13-11-2009 00:55:02 7.5 C 7.12 g/m*3 7.5 C 0 km/h
246 13-11-2009 01:07:02 7.3 C 7.03 g/m*3 7.3 C 0 km/h
247 13-11-2009 01:19:02 7.1 C 7.02 g/m*3 7.1 C 0 km/h
248 13-11-2009 01:31:02 7.3 C 7.19 g/m*3 7.3 C 0 km/h
249 13-11-2009 01:43:02 7.5 C 7.36 g/m*3 7.5 C 0 km/h
250 13-11-2009 01:55:02 7.5 C 7.36 g/m*3 7.5 C 0 km/h
Sensor: Nr:Datum:Temp:Abs-Feuchte:Windchill:Wind:
Aussen-T/F 251 13-11-2009 02:07:02 7.5 C 7.36 g/m*3 7.5 C 0 km/h
252 13-11-2009 02:19:02 7.7 C 7.54 g/m*3 7.7 C 0 km/h
253 13-11-2009 02:31:02 7.6 C 7.41 g/m*3 7.6 C 0 km/h
254 13-11-2009 02:43:02 7.5 C 7.36 g/m*3 7.5 C 0 km/h
255 13-11-2009 02:55:02 7.9 C 7.64 g/m*3 7.9 C 0 km/h
256 13-11-2009 03:07:02 8.1 C 7.66 g/m*3 8.1 C 0 km/h
257 13-11-2009 03:19:03 8.2 C 7.79 g/m*3 8.2 C 0 km/h
258 13-11-2009 03:31:03 8.5 C 7.94 g/m*3 8.5 C 0 km/h
259 13-11-2009 03:43:03 8.7 C 8.04 g/m*3 8.7 C 0 km/h
260 13-11-2009 03:55:03 8.7 C 8.04 g/m*3 8.7 C 0 km/h
261 13-11-2009 04:07:03 8.6 C 7.99 g/m*3 8.6 C 0 km/h
262 13-11-2009 04:19:03 8.6 C 7.99 g/m*3 8.6 C 0 km/h
263 13-11-2009 04:31:03 8.5 C 7.94 g/m*3 8.5 C 0 km/h
264 13-11-2009 04:43:03 8.7 C 8.13 g/m*3 8.7 C 0 km/h
265 13-11-2009 04:55:03 8.7 C 8.13 g/m*3 8.7 C 0 km/h
266 13-11-2009 05:07:03 8.6 C 8.08 g/m*3 8.6 C 0 km/h
267 13-11-2009 05:19:03 8.7 C 8.13 g/m*3 8.7 C 0 km/h
268 13-11-2009 05:31:03 9 C 8.29 g/m*3 9 C 0 km/h
269 13-11-2009 05:43:03 9.7 C 8.76 g/m*3 9.7 C 0 km/h
270 13-11-2009 05:55:03 9.9 C 8.87 g/m*3 9.9 C 0 km/h
271 13-11-2009 06:07:03 10.2 C 8.95 g/m*3 10.2 C 0 km/h
272 13-11-2009 06:19:03 10.4 C 9.06 g/m*3 10.4 C 0 km/h
273 13-11-2009 06:31:03 10 C 8.74 g/m*3 10 C 0 km/h
274 13-11-2009 06:43:03 10 C 8.74 g/m*3 10 C 0 km/h
275 13-11-2009 06:55:03 10 C 8.74 g/m*3 10 C 0 km/h
Sensor: Nr:Datum:Temp:Abs-Feuchte:Windchill:Wind:
Aussen-T/F 276 13-11-2009 07:07:01 9.8 C 8.72 g/m*3 9.8 C 0 km/h
277 13-11-2009 07:19:02 9.7 C 8.67 g/m*3 9.7 C 0 km/h
278 13-11-2009 07:31:02 10.1 C 8.89 g/m*3 10.1 C 0 km/h
279 13-11-2009 07:43:02 10.3 C 9 g/m*3 10.3 C 0 km/h
280 13-11-2009 07:55:02 10.6 C 9.17 g/m*3 10.6 C 0 km/h
281 13-11-2009 08:07:03 10.6 C 9.08 g/m*3 10.6 C 0 km/h
282 13-11-2009 08:19:02 10.7 C 9.13 g/m*3 10.7 C 0 km/h
283 13-11-2009 08:31:03 11 C 9.11 g/m*3 11 C 0 km/h
284 13-11-2009 08:43:03 11.2 C 9.02 g/m*3 11.2 C 0 km/h
285 13-11-2009 08:55:02 11.4 C 8.93 g/m*3 11.4 C 0 km/h
286 13-11-2009 09:07:03 11.5 C 8.78 g/m*3 11.5 C 0 km/h
287 13-11-2009 09:19:02 11.7 C 8.79 g/m*3 11.7 C 0 km/h
288 13-11-2009 09:31:03 11.8 C 8.74 g/m*3 11.8 C 0 km/h
289 13-11-2009 09:43:04 12 C 8.74 g/m*3 12 C 0 km/h
290 13-11-2009 09:55:02 11.9 C 8.79 g/m*3 11.9 C 0 km/h
291 13-11-2009 10:07:02 12.2 C 8.85 g/m*3 12.2 C 0 km/h
292 13-11-2009 10:19:02 12.9 C 8.9 g/m*3 12.9 C 0 km/h
293 13-11-2009 10:31:02 13.3 C 8.55 g/m*3 13.3 C 0 km/h
294 13-11-2009 10:43:02 13.5 C 8.54 g/m*3 13.5 C 0 km/h
295 13-11-2009 10:55:02 13.6 C 8.59 g/m*3 13.6 C 0 km/h
296 13-11-2009 11:07:02 13.6 C 8.47 g/m*3 13.6 C 0 km/h
297 13-11-2009 11:19:02 13.7 C 8.53 g/m*3 13.7 C 0 km/h
298 13-11-2009 11:31:02 13.8 C 8.46 g/m*3 13.8 C 0 km/h
299 13-11-2009 11:43:02 13.8 C 8.58 g/m*3 13.8 C 0 km/h
300 13-11-2009 11:55:02 13.8 C 8.58 g/m*3 13.8 C 0 km/h
Sensor: Nr:Datum:Temp:Abs-Feuchte:Windchill:Wind:
Aussen-T/F 301 13-11-2009 12:07:02 13.9 C 8.51 g/m*3 13.9 C 0 km/h
302 13-11-2009 12:19:02 14.1 C 8.25 g/m*3 14.1 C 0 km/h
303 13-11-2009 12:31:01 14.2 C 8.18 g/m*3 14.2 C 0 km/h
304 13-11-2009 12:43:01 14.2 C 8.06 g/m*3 14.2 C 0 km/h
305 13-11-2009 12:55:02 14.2 C 8.06 g/m*3 14.2 C 0 km/h
306 13-11-2009 13:07:01 14.3 C 7.99 g/m*3 14.3 C 0 km/h
307 13-11-2009 13:19:02 14.6 C 8.01 g/m*3 14.6 C 0 km/h
308 13-11-2009 13:31:02 14.9 C 8.03 g/m*3 14.9 C 0 km/h
309 13-11-2009 13:43:02 15.3 C 7.84 g/m*3 15.3 C 0 km/h
310 13-11-2009 13:55:02 16.3 C 7.91 g/m*3 16.3 C 0 km/h
311 13-11-2009 14:07:02 17.1 C 7.57 g/m*3 17.1 C 0 km/h
312 13-11-2009 14:19:02 17.4 C 7.26 g/m*3 17.4 C 0 km/h
313 13-11-2009 14:31:02 17.4 C 7.11 g/m*3 17.4 C 0 km/h
314 13-11-2009 14:43:02 17.5 C 6.86 g/m*3 17.5 C 0 km/h
315 13-11-2009 14:55:02 17.3 C 6.92 g/m*3 17.3 C 0 km/h
316 13-11-2009 15:07:02 17.3 C 7.22 g/m*3 17.3 C 0 km/h
317 13-11-2009 15:19:01 17.1 C 7.42 g/m*3 17.1 C 0 km/h
318 13-11-2009 15:31:02 16.6 C 7.35 g/m*3 16.6 C 0 km/h
319 13-11-2009 15:43:03 16.1 C 7.54 g/m*3 16.1 C 0 km/h
320 13-11-2009 15:55:02 15.6 C 7.58 g/m*3 15.6 C 0 km/h
321 13-11-2009 16:07:02 15.1 C 7.61 g/m*3 15.1 C 0 km/h
322 13-11-2009 16:19:02 14.7 C 7.55 g/m*3 14.7 C 0 km/h
323 13-11-2009 16:31:02 14.2 C 7.82 g/m*3 14.2 C 0 km/h
324 13-11-2009 16:43:02 13.6 C 8 g/m*3 13.6 C 0 km/h
325 13-11-2009 16:55:02 12.8 C 8.06 g/m*3 12.8 C 0 km/h
Sensor: Nr:Datum:Temp:Abs-Feuchte:Windchill:Wind:
Aussen-T/F 326 13-11-2009 17:07:02 12.5 C 8.14 g/m*3 12.5 C 0 km/h
327 13-11-2009 17:19:02 12.3 C 8.04 g/m*3 12.3 C 0 km/h
328 13-11-2009 17:31:02 12.1 C 8.04 g/m*3 12.1 C 0 km/h
329 13-11-2009 17:43:02 11.9 C 8.15 g/m*3 11.9 C 0 km/h
330 13-11-2009 17:55:02 11.6 C 8 g/m*3 11.6 C 0 km/h
331 13-11-2009 18:07:02 11.5 C 8.06 g/m*3 11.5 C 0 km/h
332 13-11-2009 18:19:03 11.2 C 8.01 g/m*3 11.2 C 0 km/h
333 13-11-2009 18:31:02 11.3 C 8.16 g/m*3 11.3 C 0 km/h
334 13-11-2009 18:43:02 11 C 8.01 g/m*3 11 C 0 km/h
335 13-11-2009 18:55:03 11 C 8.11 g/m*3 11 C 0 km/h
336 13-11-2009 19:07:02 11 C 8.21 g/m*3 11 C 0 km/h
337 13-11-2009 19:19:02 11.1 C 8.36 g/m*3 11.1 C 0 km/h
338 13-11-2009 19:31:02 10.8 C 8.2 g/m*3 10.8 C 0 km/h
339 13-11-2009 19:43:02 10.8 C 8.3 g/m*3 10.8 C 0 km/h
340 13-11-2009 19:55:02 10.5 C 8.15 g/m*3 10.5 C 0 km/h
341 13-11-2009 20:07:02 10.7 C 8.35 g/m*3 10.7 C 0 km/h
342 13-11-2009 20:19:02 10.5 C 8.24 g/m*3 10.5 C 0 km/h
343 13-11-2009 20:31:02 10.4 C 8.29 g/m*3 10.4 C 0 km/h
344 13-11-2009 20:43:02 10.3 C 8.24 g/m*3 10.3 C 0 km/h
345 13-11-2009 20:55:02 10.2 C 8.28 g/m*3 10.2 C 0 km/h
346 13-11-2009 21:07:02 10.4 C 8.48 g/m*3 10.4 C 0 km/h
347 13-11-2009 21:19:02 10.3 C 8.43 g/m*3 10.3 C 0 km/h
348 13-11-2009 21:31:02 10.3 C 8.43 g/m*3 10.3 C 0 km/h
349 13-11-2009 21:43:02 10.1 C 8.32 g/m*3 10.1 C 0 km/h
350 13-11-2009 21:55:01 10.2 C 8.47 g/m*3 10.2 C 0 km/h
Sensor: Nr:Datum:Temp:Abs-Feuchte:Windchill:Wind:
Aussen-T/F 351 13-11-2009 22:08:04 10.2 C 8.47 g/m*3 10.2 C 0 km/h
352 13-11-2009 22:20:04 10.1 C 8.42 g/m*3 10.1 C 0 km/h
353 13-11-2009 22:32:04 9.9 C 8.4 g/m*3 9.9 C 0 km/h
354 13-11-2009 22:44:04 9.7 C 8.3 g/m*3 9.7 C 0 km/h
355 13-11-2009 22:56:04 9.8 C 8.44 g/m*3 9.8 C 0 km/h
356 13-11-2009 23:08:04 9.7 C 8.39 g/m*3 9.7 C 0 km/h
357 13-11-2009 23:20:04 9.7 C 8.39 g/m*3 9.7 C 0 km/h
358 13-11-2009 23:32:04 9.7 C 8.48 g/m*3 9.7 C 0 km/h
359 13-11-2009 23:44:04 9.7 C 8.48 g/m*3 9.7 C 0 km/h
360 13-11-2009 23:56:04 9.7 C 8.48 g/m*3 9.7 C 0 km/h
361 14-11-2009 00:08:04 9.6 C 8.43 g/m*3 9.6 C 0 km/h
362 14-11-2009 00:20:04 9.5 C 8.37 g/m*3 9.5 C 0 km/h
363 14-11-2009 00:32:04 9.5 C 8.37 g/m*3 9.5 C 0 km/h
364 14-11-2009 00:44:05 9.4 C 8.32 g/m*3 9.4 C 0 km/h
365 14-11-2009 00:56:05 9.5 C 8.47 g/m*3 9.5 C 0 km/h
366 14-11-2009 01:08:05 9.5 C 8.47 g/m*3 9.5 C 0 km/h
367 14-11-2009 01:20:05 9.5 C 8.47 g/m*3 9.5 C 0 km/h
368 14-11-2009 01:32:05 9.4 C 8.41 g/m*3 9.4 C 0 km/h
369 14-11-2009 01:44:05 9.4 C 8.41 g/m*3 9.4 C 0 km/h
370 14-11-2009 01:56:05 9.3 C 8.36 g/m*3 9.3 C 0 km/h
371 14-11-2009 02:08:05 9.1 C 8.25 g/m*3 9.1 C 0 km/h
372 14-11-2009 02:20:05 9.1 C 8.25 g/m*3 9.1 C 0 km/h
373 14-11-2009 02:32:05 9.1 C 8.34 g/m*3 9.1 C 0 km/h
374 14-11-2009 02:44:05 9.5 C 8.56 g/m*3 9.5 C 0 km/h
375 14-11-2009 02:56:05 9.6 C 8.61 g/m*3 9.6 C 0 km/h
Sensor: Nr:Datum:Temp:Abs-Feuchte:Windchill:Wind:
Aussen-T/F 376 14-11-2009 03:08:05 9.6 C 8.61 g/m*3 9.6 C 0 km/h
377 14-11-2009 03:20:05 9.8 C 8.72 g/m*3 9.8 C 0 km/h
378 14-11-2009 03:32:05 9.9 C 8.78 g/m*3 9.9 C 0 km/h
379 14-11-2009 03:44:05 10 C 8.74 g/m*3 10 C 0 km/h
380 14-11-2009 03:56:05 10.1 C 8.79 g/m*3 10.1 C 0 km/h
381 14-11-2009 04:08:05 10.2 C 8.85 g/m*3 10.2 C 0 km/h
382 14-11-2009 04:20:05 10.4 C 8.87 g/m*3 10.4 C 0 km/h
383 14-11-2009 04:32:05 10.5 C 8.83 g/m*3 10.5 C 0 km/h
384 14-11-2009 04:44:06 10.6 C 8.88 g/m*3 10.6 C 0 km/h
385 14-11-2009 04:56:06 10.5 C 8.73 g/m*3 10.5 C 0 km/h
386 14-11-2009 05:08:06 10.6 C 8.69 g/m*3 10.6 C 0 km/h
387 14-11-2009 05:20:06 10.7 C 8.64 g/m*3 10.7 C 0 km/h
388 14-11-2009 05:32:06 10.9 C 8.55 g/m*3 10.9 C 0 km/h
389 14-11-2009 05:44:06 10.8 C 8.3 g/m*3 10.8 C 0 km/h
390 14-11-2009 05:56:06 10.7 C 8.25 g/m*3 10.7 C 0 km/h
391 14-11-2009 06:08:06 10.7 C 8.25 g/m*3 10.7 C 0 km/h
392 14-11-2009 06:20:06 11 C 8.21 g/m*3 11 C 0 km/h
393 14-11-2009 06:32:06 11 C 8.11 g/m*3 11 C 0 km/h
394 14-11-2009 06:44:06 10.8 C 8.11 g/m*3 10.8 C 0 km/h
395 14-11-2009 06:56:06 10.7 C 8.05 g/m*3 10.7 C 0 km/h
396 14-11-2009 07:08:06 10.7 C 8.05 g/m*3 10.7 C 0 km/h
397 14-11-2009 07:20:06 10.7 C 7.96 g/m*3 10.7 C 0 km/h
398 14-11-2009 07:32:06 10.7 C 7.96 g/m*3 10.7 C 0 km/h
399 14-11-2009 07:44:06 10.7 C 8.05 g/m*3 10.7 C 0 km/h
400 14-11-2009 07:56:06 10.7 C 7.96 g/m*3 10.7 C 0 km/h
Sensor: Nr:Datum:Temp:Abs-Feuchte:Windchill:Wind:
Aussen-T/F 401 14-11-2009 08:08:06 10.8 C 8.01 g/m*3 10.8 C 0 km/h
402 14-11-2009 08:20:03 10.7 C 7.86 g/m*3 10.7 C 0 km/h
403 14-11-2009 08:32:03 10.8 C 7.91 g/m*3 10.8 C 0 km/h
404 14-11-2009 08:44:03 11 C 7.91 g/m*3 11 C 0 km/h
405 14-11-2009 08:56:01 11.2 C 7.91 g/m*3 11.2 C 0 km/h
406 14-11-2009 09:08:02 11.3 C 7.85 g/m*3 11.3 C 0 km/h
407 14-11-2009 09:20:02 11.6 C 7.9 g/m*3 11.6 C 0 km/h
408 14-11-2009 09:32:01 11.8 C 7.89 g/m*3 11.8 C 0 km/h
409 14-11-2009 09:44:01 12 C 7.78 g/m*3 12 C 0 km/h
410 14-11-2009 09:56:01 12.9 C 7.78 g/m*3 12.9 C 0 km/h
411 14-11-2009 10:08:02 13.2 C 7.46 g/m*3 13.2 C 0 km/h
412 14-11-2009 10:20:02 14 C 7.36 g/m*3 14 C 0 km/h
413 14-11-2009 10:32:01 14.6 C 7.13 g/m*3 14.6 C 0 km/h
414 14-11-2009 10:44:01 14.7 C 7.05 g/m*3 14.7 C 0 km/h
415 14-11-2009 10:56:01 14.7 C 7.05 g/m*3 14.7 C 0 km/h
416 14-11-2009 11:08:01 14.6 C 7.01 g/m*3 14.6 C 0 km/h
417 14-11-2009 11:20:02 14.6 C 7.01 g/m*3 14.6 C 0 km/h
418 14-11-2009 11:32:01 14.6 C 7.26 g/m*3 14.6 C 0 km/h
419 14-11-2009 11:44:01 14.8 C 6.97 g/m*3 14.8 C 0 km/h
420 14-11-2009 11:56:03 14.9 C 7.14 g/m*3 14.9 C 0 km/h
421 14-11-2009 12:08:02 15.2 C 7.01 g/m*3 15.2 C 0 km/h
422 14-11-2009 12:20:02 15.4 C 6.96 g/m*3 15.4 C 0 km/h
423 14-11-2009 12:32:02 14.9 C 7.39 g/m*3 14.9 C 0 km/h
424 14-11-2009 12:44:02 14 C 7.48 g/m*3 14 C 0 km/h
425 14-11-2009 12:56:02 13.5 C 8.07 g/m*3 13.5 C 0 km/h
Sensor: Nr:Datum:Temp:Abs-Feuchte:Windchill:Wind:
Aussen-T/F 426 14-11-2009 13:08:02 13.1 C 8.44 g/m*3 13.1 C 0 km/h
427 14-11-2009 13:20:02 13.1 C 8.67 g/m*3 13.1 C 0 km/h
428 14-11-2009 13:32:02 13.1 C 9.01 g/m*3 13.1 C 0 km/h
429 14-11-2009 13:44:02 12.9 C 9.13 g/m*3 12.9 C 0 km/h
430 14-11-2009 13:56:02 13.1 C 8.9 g/m*3 13.1 C 0 km/h
431 14-11-2009 14:08:01 13.6 C 8.47 g/m*3 13.6 C 0 km/h
432 14-11-2009 14:20:01 13.6 C 8.24 g/m*3 13.6 C 0 km/h
433 14-11-2009 14:32:02 13.4 C 8.14 g/m*3 13.4 C 0 km/h
434 14-11-2009 14:44:02 13.2 C 8.04 g/m*3 13.2 C 0 km/h
435 14-11-2009 14:56:02 13.2 C 7.92 g/m*3 13.2 C 0 km/h
436 14-11-2009 15:08:02 13.1 C 7.76 g/m*3 13.1 C 0 km/h
437 14-11-2009 15:20:01 13.2 C 7.81 g/m*3 13.2 C 0 km/h
438 14-11-2009 15:32:02 13.2 C 7.81 g/m*3 13.2 C 0 km/h
439 14-11-2009 15:44:02 13.3 C 7.74 g/m*3 13.3 C 0 km/h
440 14-11-2009 15:56:02 13 C 7.6 g/m*3 13 C 0 km/h
441 14-11-2009 16:08:02 12.8 C 7.62 g/m*3 12.8 C 0 km/h
442 14-11-2009 16:20:02 12.8 C 7.5 g/m*3 12.8 C 0 km/h
443 14-11-2009 16:32:02 12.6 C 7.3 g/m*3 12.6 C 0 km/h
444 14-11-2009 16:44:02 12.5 C 7.26 g/m*3 12.5 C 0 km/h
445 14-11-2009 16:56:02 12.5 C 7.15 g/m*3 12.5 C 0 km/h
446 14-11-2009 17:08:02 12.3 C 7.17 g/m*3 12.3 C 0 km/h
447 14-11-2009 17:20:02 12.3 C 7.17 g/m*3 12.3 C 0 km/h
448 14-11-2009 17:32:02 11.8 C 7.26 g/m*3 11.8 C 0 km/h
449 14-11-2009 17:44:02 11.5 C 7.23 g/m*3 11.5 C 0 km/h
450 14-11-2009 17:56:02 11.4 C 7.39 g/m*3 11.4 C 0 km/h
Sensor: Nr:Datum:Temp:Abs-Feuchte:Windchill:Wind:
Aussen-T/F 451 14-11-2009 18:08:02 11.2 C 7.4 g/m*3 11.2 C 0 km/h
452 14-11-2009 18:20:03 11.2 C 7.4 g/m*3 11.2 C 0 km/h
453 14-11-2009 18:32:02 11.3 C 7.45 g/m*3 11.3 C 0 km/h
454 14-11-2009 18:44:02 11.1 C 7.35 g/m*3 11.1 C 0 km/h
455 14-11-2009 18:56:02 10.8 C 7.31 g/m*3 10.8 C 0 km/h
456 14-11-2009 19:08:02 10.4 C 7.23 g/m*3 10.4 C 0 km/h
457 14-11-2009 19:20:02 10.2 C 7.33 g/m*3 10.2 C 0 km/h
458 14-11-2009 19:32:02 10.3 C 7.47 g/m*3 10.3 C 0 km/h
459 14-11-2009 19:44:02 10.7 C 7.46 g/m*3 10.7 C 0 km/h
460 14-11-2009 19:56:02 10.7 C 7.56 g/m*3 10.7 C 0 km/h
461 14-11-2009 20:08:02 10.8 C 7.61 g/m*3 10.8 C 0 km/h
462 14-11-2009 20:20:02 10.8 C 7.51 g/m*3 10.8 C 0 km/h
463 14-11-2009 20:32:02 10.7 C 7.37 g/m*3 10.7 C 0 km/h
464 14-11-2009 20:44:02 11 C 7.41 g/m*3 11 C 0 km/h
465 14-11-2009 20:56:02 11.1 C 7.35 g/m*3 11.1 C 0 km/h
466 14-11-2009 21:08:02 11.5 C 7.33 g/m*3 11.5 C 0 km/h
467 14-11-2009 21:20:02 11.7 C 7.22 g/m*3 11.7 C 0 km/h
468 14-11-2009 21:32:02 11.6 C 7.07 g/m*3 11.6 C 0 km/h
469 14-11-2009 21:44:02 11.4 C 7.19 g/m*3 11.4 C 0 km/h
470 14-11-2009 21:56:02 11.9 C 7.1 g/m*3 11.9 C 0 km/h
471 14-11-2009 22:08:03 12.2 C 7.01 g/m*3 12.2 C 0 km/h
472 14-11-2009 22:20:02 12.6 C 6.97 g/m*3 12.6 C 0 km/h
473 14-11-2009 22:32:02 12.9 C 6.88 g/m*3 12.9 C 0 km/h
474 14-11-2009 22:44:02 13 C 6.69 g/m*3 13 C 0 km/h
475 14-11-2009 22:57:03 13.1 C 6.62 g/m*3 13.1 C 0 km/h
Sensor: Nr:Datum:Temp:Abs-Feuchte:Windchill:Wind:
Aussen-T/F 476 14-11-2009 23:09:03 13.2 C 6.54 g/m*3 13.2 C 0 km/h
477 14-11-2009 23:21:03 13.2 C 6.54 g/m*3 13.2 C 0 km/h
478 14-11-2009 23:33:03 13 C 6.58 g/m*3 13 C 0 km/h
479 14-11-2009 23:45:03 12.8 C 6.72 g/m*3 12.8 C 0 km/h
480 14-11-2009 23:57:03 12.7 C 6.68 g/m*3 12.7 C 0 km/h
481 15-11-2009 00:09:04 12.6 C 6.75 g/m*3 12.6 C 0 km/h
482 15-11-2009 00:21:04 12.6 C 6.75 g/m*3 12.6 C 0 km/h
483 15-11-2009 00:33:04 12.5 C 6.82 g/m*3 12.5 C 0 km/h
484 15-11-2009 00:45:04 12.3 C 6.95 g/m*3 12.3 C 0 km/h
485 15-11-2009 00:57:04 12.3 C 7.06 g/m*3 12.3 C 0 km/h
486 15-11-2009 01:09:04 12.2 C 7.01 g/m*3 12.2 C 0 km/h
487 15-11-2009 01:21:04 12.2 C 6.91 g/m*3 12.2 C 0 km/h
488 15-11-2009 01:33:04 12.1 C 6.86 g/m*3 12.1 C 0 km/h
489 15-11-2009 01:45:04 12.2 C 6.8 g/m*3 12.2 C 0 km/h
490 15-11-2009 01:57:04 12 C 6.82 g/m*3 12 C 0 km/h
491 15-11-2009 02:09:04 11.8 C 6.84 g/m*3 11.8 C 0 km/h
492 15-11-2009 02:21:04 11.7 C 6.9 g/m*3 11.7 C 0 km/h
493 15-11-2009 02:33:04 11.5 C 6.82 g/m*3 11.5 C 0 km/h
494 15-11-2009 02:45:04 11.5 C 6.82 g/m*3 11.5 C 0 km/h
495 15-11-2009 02:57:04 11.4 C 6.77 g/m*3 11.4 C 0 km/h
496 15-11-2009 03:09:04 11.5 C 6.82 g/m*3 11.5 C 0 km/h
497 15-11-2009 03:21:04 11.4 C 6.77 g/m*3 11.4 C 0 km/h
498 15-11-2009 03:33:04 11.2 C 6.79 g/m*3 11.2 C 0 km/h
499 15-11-2009 03:45:04 11.4 C 6.77 g/m*3 11.4 C 0 km/h
500 15-11-2009 03:57:04 11.4 C 6.77 g/m*3 11.4 C 0 km/h
Sensor: Nr:Datum:Temp:Abs-Feuchte:Windchill:Wind:
Aussen-T/F 501 15-11-2009 04:09:05 11.5 C 6.82 g/m*3 11.5 C 0 km/h
502 15-11-2009 04:21:05 11.3 C 6.83 g/m*3 11.3 C 0 km/h
503 15-11-2009 04:33:05 11.2 C 6.79 g/m*3 11.2 C 0 km/h
504 15-11-2009 04:45:05 11.2 C 6.79 g/m*3 11.2 C 0 km/h
505 15-11-2009 04:57:05 10.8 C 6.72 g/m*3 10.8 C 0 km/h
506 15-11-2009 05:09:05 10.3 C 6.7 g/m*3 10.3 C 0 km/h
507 15-11-2009 05:21:05 10.2 C 6.85 g/m*3 10.2 C 0 km/h
508 15-11-2009 05:33:05 10 C 6.77 g/m*3 10 C 0 km/h
509 15-11-2009 05:45:05 9.8 C 6.87 g/m*3 9.8 C 0 km/h
510 15-11-2009 05:57:05 9.7 C 6.82 g/m*3 9.7 C 0 km/h
511 15-11-2009 06:09:05 9.5 C 6.83 g/m*3 9.5 C 0 km/h
512 15-11-2009 06:21:05 9.3 C 6.83 g/m*3 9.3 C 0 km/h
513 15-11-2009 06:33:05 9.1 C 6.83 g/m*3 9.1 C 0 km/h
514 15-11-2009 06:45:05 9.5 C 7.01 g/m*3 9.5 C 0 km/h
515 15-11-2009 06:57:05 9.2 C 6.88 g/m*3 9.2 C 0 km/h
516 15-11-2009 07:09:05 9.2 C 6.97 g/m*3 9.2 C 0 km/h
517 15-11-2009 07:21:05 9.3 C 7.01 g/m*3 9.3 C 0 km/h
518 15-11-2009 07:33:03 9.6 C 7.15 g/m*3 9.6 C 0 km/h
519 15-11-2009 07:45:02 9.8 C 7.14 g/m*3 9.8 C 0 km/h
520 15-11-2009 07:57:02 10 C 6.95 g/m*3 10 C 0 km/h
521 15-11-2009 08:09:01 10.2 C 7.04 g/m*3 10.2 C 0 km/h
522 15-11-2009 08:21:01 10.4 C 7.04 g/m*3 10.4 C 0 km/h
523 15-11-2009 08:33:02 10.6 C 7.03 g/m*3 10.6 C 0 km/h
524 15-11-2009 08:45:02 10.8 C 7.02 g/m*3 10.8 C 0 km/h
525 15-11-2009 08:57:02 11 C 7.01 g/m*3 11 C 0 km/h
Sensor: Nr:Datum:Temp:Abs-Feuchte:Windchill:Wind:
Aussen-T/F 526 15-11-2009 09:09:02 11.1 C 7.15 g/m*3 11.1 C 0 km/h
527 15-11-2009 09:21:02 11.3 C 7.24 g/m*3 11.3 C 0 km/h
528 15-11-2009 09:33:02 11.3 C 7.24 g/m*3 11.3 C 0 km/h
529 15-11-2009 09:45:02 11.5 C 7.23 g/m*3 11.5 C 0 km/h
530 15-11-2009 09:57:02 11.7 C 7.32 g/m*3 11.7 C 0 km/h
531 15-11-2009 10:09:02 11.8 C 7.26 g/m*3 11.8 C 0 km/h
532 15-11-2009 10:21:02 11.9 C 7.31 g/m*3 11.9 C 0 km/h
533 15-11-2009 10:33:02 12 C 7.25 g/m*3 12 C 0 km/h
534 15-11-2009 10:45:02 11.9 C 7.2 g/m*3 11.9 C 0 km/h
535 15-11-2009 10:57:02 12 C 7.25 g/m*3 12 C 0 km/h
536 15-11-2009 11:09:02 12.1 C 7.29 g/m*3 12.1 C 0 km/h
537 15-11-2009 11:21:03 12.2 C 7.23 g/m*3 12.2 C 0 km/h
538 15-11-2009 11:33:02 12.3 C 7.28 g/m*3 12.3 C 0 km/h
539 15-11-2009 11:45:03 12.4 C 7.21 g/m*3 12.4 C 0 km/h
540 15-11-2009 11:57:03 12.8 C 7.5 g/m*3 12.8 C 0 km/h
541 15-11-2009 12:09:02 13.1 C 7.42 g/m*3 13.1 C 0 km/h
542 15-11-2009 12:21:02 13.2 C 7.35 g/m*3 13.2 C 0 km/h
543 15-11-2009 12:33:02 13 C 7.26 g/m*3 13 C 0 km/h
544 15-11-2009 12:45:02 12.9 C 7.33 g/m*3 12.9 C 0 km/h
545 15-11-2009 12:57:02 13.2 C 7.23 g/m*3 13.2 C 0 km/h
546 15-11-2009 13:09:02 13.1 C 7.19 g/m*3 13.1 C 0 km/h
547 15-11-2009 13:21:02 13.2 C 7.23 g/m*3 13.2 C 0 km/h
548 15-11-2009 13:33:02 13.5 C 7.37 g/m*3 13.5 C 0 km/h
549 15-11-2009 13:45:02 13.6 C 7.3 g/m*3 13.6 C 0 km/h
550 15-11-2009 13:57:02 13.4 C 7.09 g/m*3 13.4 C 0 km/h
Sensor: Nr:Datum:Temp:Abs-Feuchte:Windchill:Wind:
Aussen-T/F 551 15-11-2009 14:09:01 12.9 C 7.1 g/m*3 12.9 C 0 km/h
552 15-11-2009 14:21:02 13.2 C 7 g/m*3 13.2 C 0 km/h
553 15-11-2009 14:33:02 13.2 C 6.66 g/m*3 13.2 C 0 km/h
554 15-11-2009 14:45:02 13.6 C 6.59 g/m*3 13.6 C 0 km/h
555 15-11-2009 14:57:02 14 C 6.63 g/m*3 14 C 0 km/h
556 15-11-2009 15:09:02 14.3 C 6.39 g/m*3 14.3 C 0 km/h
557 15-11-2009 15:21:02 14.1 C 6.31 g/m*3 14.1 C 0 km/h
558 15-11-2009 15:33:03 13.8 C 6.2 g/m*3 13.8 C 0 km/h
559 15-11-2009 15:45:02 13.8 C 6.2 g/m*3 13.8 C 0 km/h
560 15-11-2009 15:57:02 13.5 C 6.2 g/m*3 13.5 C 0 km/h
561 15-11-2009 16:09:02 13.1 C 6.28 g/m*3 13.1 C 0 km/h
562 15-11-2009 16:21:01 13 C 6.35 g/m*3 13 C 0 km/h
563 15-11-2009 16:33:02 12.8 C 6.5 g/m*3 12.8 C 0 km/h
564 15-11-2009 16:45:02 12.7 C 6.35 g/m*3 12.7 C 0 km/h
565 15-11-2009 16:57:02 12.3 C 6.41 g/m*3 12.3 C 0 km/h
566 15-11-2009 17:09:02 12.3 C 6.41 g/m*3 12.3 C 0 km/h
567 15-11-2009 17:21:02 12.1 C 6.33 g/m*3 12.1 C 0 km/h
568 15-11-2009 17:33:02 11.8 C 6.53 g/m*3 11.8 C 0 km/h
569 15-11-2009 17:45:02 11.5 C 6.51 g/m*3 11.5 C 0 km/h
570 15-11-2009 17:57:02 11.5 C 6.51 g/m*3 11.5 C 0 km/h
571 15-11-2009 18:09:02 11.2 C 6.49 g/m*3 11.2 C 0 km/h
572 15-11-2009 18:21:02 10.9 C 6.56 g/m*3 10.9 C 0 km/h
573 15-11-2009 18:33:02 10.8 C 6.62 g/m*3 10.8 C 0 km/h
574 15-11-2009 18:45:02 11.1 C 6.55 g/m*3 11.1 C 0 km/h
575 15-11-2009 18:57:02 11.4 C 6.47 g/m*3 11.4 C 0 km/h
Sensor: Nr:Datum:Temp:Abs-Feuchte:Windchill:Wind:
Aussen-T/F 576 15-11-2009 19:09:02 11.2 C 6.49 g/m*3 11.2 C 0 km/h
577 15-11-2009 19:21:02 10.8 C 6.52 g/m*3 10.8 C 0 km/h
578 15-11-2009 19:33:02 10.6 C 6.64 g/m*3 10.6 C 0 km/h
579 15-11-2009 19:45:01 10.4 C 6.65 g/m*3 10.4 C 0 km/h
580 15-11-2009 19:57:01 10.1 C 6.62 g/m*3 10.1 C 0 km/h
581 15-11-2009 20:09:01 9.9 C 6.82 g/m*3 9.9 C 0 km/h
582 15-11-2009 20:21:02 9.8 C 6.77 g/m*3 9.8 C 0 km/h
583 15-11-2009 20:33:01 9.6 C 6.78 g/m*3 9.6 C 0 km/h
584 15-11-2009 20:45:03 9.6 C 6.78 g/m*3 9.6 C 0 km/h
585 15-11-2009 20:57:03 9.4 C 6.69 g/m*3 9.4 C 0 km/h
586 15-11-2009 21:09:03 9.3 C 6.74 g/m*3 9.3 C 0 km/h
587 15-11-2009 21:21:02 9.2 C 6.79 g/m*3 9.2 C 0 km/h
588 15-11-2009 21:33:02 9.1 C 6.74 g/m*3 9.1 C 0 km/h
589 15-11-2009 21:46:03 9.1 C 6.83 g/m*3 9.1 C 0 km/h
590 15-11-2009 21:58:03 8.7 C 6.83 g/m*3 8.7 C 0 km/h
591 15-11-2009 22:10:03 8.6 C 6.79 g/m*3 8.6 C 0 km/h
592 15-11-2009 22:22:03 8.5 C 6.83 g/m*3 8.5 C 0 km/h
593 15-11-2009 22:34:03 8.5 C 6.83 g/m*3 8.5 C 0 km/h
594 15-11-2009 22:46:03 8.5 C 6.92 g/m*3 8.5 C 0 km/h
595 15-11-2009 22:58:03 8.3 C 6.83 g/m*3 8.3 C 0 km/h
596 15-11-2009 23:10:03 8.1 C 6.74 g/m*3 8.1 C 0 km/h
597 15-11-2009 23:22:03 8 C 6.7 g/m*3 8 C 0 km/h
598 15-11-2009 23:34:04 7.9 C 6.82 g/m*3 7.9 C 0 km/h
599 15-11-2009 23:46:04 7.8 C 6.77 g/m*3 7.8 C 0 km/h
600 15-11-2009 23:58:04 7.8 C 6.77 g/m*3 7.8 C 0 km/h
Sensor: Nr:Datum:Temp:Abs-Feuchte:Windchill:Wind:
Aussen-T/F 601 16-11-2009 00:10:04 7.7 C 6.73 g/m*3 7.7 C 0 km/h
602 16-11-2009 00:22:04 7.7 C 6.73 g/m*3 7.7 C 0 km/h
603 16-11-2009 00:34:04 7.5 C 6.72 g/m*3 7.5 C 0 km/h
604 16-11-2009 00:46:04 7.5 C 6.72 g/m*3 7.5 C 0 km/h
605 16-11-2009 00:58:04 7.4 C 6.68 g/m*3 7.4 C 0 km/h
606 16-11-2009 01:10:04 7.3 C 6.64 g/m*3 7.3 C 0 km/h
607 16-11-2009 01:22:04 7.3 C 6.64 g/m*3 7.3 C 0 km/h
608 16-11-2009 01:34:04 7.3 C 6.72 g/m*3 7.3 C 0 km/h
609 16-11-2009 01:46:04 7.1 C 6.63 g/m*3 7.1 C 0 km/h
610 16-11-2009 01:58:04 7 C 6.59 g/m*3 7 C 0 km/h
611 16-11-2009 02:10:04 7.1 C 6.71 g/m*3 7.1 C 0 km/h
612 16-11-2009 02:22:04 7.1 C 6.71 g/m*3 7.1 C 0 km/h
613 16-11-2009 02:34:04 7.1 C 6.71 g/m*3 7.1 C 0 km/h
614 16-11-2009 02:46:04 7.1 C 6.71 g/m*3 7.1 C 0 km/h
615 16-11-2009 02:58:04 7.1 C 6.79 g/m*3 7.1 C 0 km/h
616 16-11-2009 03:10:04 7 C 6.74 g/m*3 7 C 0 km/h
617 16-11-2009 03:22:04 7 C 6.74 g/m*3 7 C 0 km/h
618 16-11-2009 03:34:05 7 C 6.82 g/m*3 7 C 0 km/h
619 16-11-2009 03:46:05 7.1 C 6.86 g/m*3 7.1 C 0 km/h
620 16-11-2009 03:58:05 7.1 C 6.86 g/m*3 7.1 C 0 km/h
621 16-11-2009 04:10:05 7.3 C 6.95 g/m*3 7.3 C 0 km/h
622 16-11-2009 04:22:05 7.4 C 7 g/m*3 7.4 C 0 km/h
623 16-11-2009 04:34:05 7.5 C 7.04 g/m*3 7.5 C 0 km/h
624 16-11-2009 04:46:05 7.5 C 7.04 g/m*3 7.5 C 0 km/h
625 16-11-2009 04:58:05 7.5 C 6.96 g/m*3 7.5 C 0 km/h
Sensor: Nr:Datum:Temp:Abs-Feuchte:Windchill:Wind:
Aussen-T/F 626 16-11-2009 05:10:05 7.5 C 6.96 g/m*3 7.5 C 0 km/h
627 16-11-2009 05:22:05 7.5 C 6.96 g/m*3 7.5 C 0 km/h
628 16-11-2009 05:34:05 7.6 C 7.01 g/m*3 7.6 C 0 km/h
629 16-11-2009 05:46:05 7.6 C 7.01 g/m*3 7.6 C 0 km/h
630 16-11-2009 05:58:05 7.6 C 7.01 g/m*3 7.6 C 0 km/h
631 16-11-2009 06:10:05 7.8 C 7.18 g/m*3 7.8 C 0 km/h
632 16-11-2009 06:22:05 7.9 C 7.23 g/m*3 7.9 C 0 km/h
633 16-11-2009 06:34:05 8 C 7.19 g/m*3 8 C 0 km/h
634 16-11-2009 06:46:05 7.9 C 7.23 g/m*3 7.9 C 0 km/h
635 16-11-2009 06:58:05 7.9 C 7.23 g/m*3 7.9 C 0 km/h
636 16-11-2009 07:10:04 7.9 C 7.23 g/m*3 7.9 C 0 km/h
637 16-11-2009 07:22:03 7.9 C 7.31 g/m*3 7.9 C 0 km/h
638 16-11-2009 07:34:04 8 C 7.28 g/m*3 8 C 0 km/h
639 16-11-2009 07:46:02 8.1 C 7.41 g/m*3 8.1 C 0 km/h
640 16-11-2009 07:58:02 8.1 C 7.41 g/m*3 8.1 C 0 km/h
641 16-11-2009 08:10:02 8.2 C 7.45 g/m*3 8.2 C 0 km/h
642 16-11-2009 08:22:02 8.2 C 7.45 g/m*3 8.2 C 0 km/h
643 16-11-2009 08:34:02 8.3 C 7.59 g/m*3 8.3 C 0 km/h
644 16-11-2009 08:46:02 8.4 C 7.72 g/m*3 8.4 C 0 km/h
645 16-11-2009 08:58:02 8.6 C 7.82 g/m*3 8.6 C 0 km/h
646 16-11-2009 09:10:03 8.9 C 7.97 g/m*3 8.9 C 0 km/h
647 16-11-2009 09:22:02 8.9 C 8.06 g/m*3 8.9 C 0 km/h
648 16-11-2009 09:34:02 8.9 C 8.06 g/m*3 8.9 C 0 km/h
649 16-11-2009 09:46:01 9.1 C 8.16 g/m*3 9.1 C 0 km/h
650 16-11-2009 09:58:01 9.2 C 8.3 g/m*3 9.2 C 0 km/h
Sensor: Nr:Datum:Temp:Abs-Feuchte:Windchill:Wind:
Aussen-T/F 651 16-11-2009 10:10:01 9.6 C 8.61 g/m*3 9.6 C 0 km/h
652 16-11-2009 10:22:02 9.9 C 8.78 g/m*3 9.9 C 0 km/h
653 16-11-2009 10:34:02 9.8 C 8.72 g/m*3 9.8 C 0 km/h
654 16-11-2009 10:46:02 10 C 8.74 g/m*3 10 C 0 km/h
655 16-11-2009 10:58:03 10 C 8.74 g/m*3 10 C 0 km/h
656 16-11-2009 11:10:02 10.1 C 8.79 g/m*3 10.1 C 0 km/h
657 16-11-2009 11:22:02 10.2 C 8.95 g/m*3 10.2 C 0 km/h
658 16-11-2009 11:34:02 10.2 C 8.95 g/m*3 10.2 C 0 km/h
659 16-11-2009 11:46:02 10.3 C 9 g/m*3 10.3 C 0 km/h
660 16-11-2009 11:58:02 10.5 C 9.12 g/m*3 10.5 C 0 km/h
661 16-11-2009 12:10:02 10.6 C 9.17 g/m*3 10.6 C 0 km/h
662 16-11-2009 12:22:01 10.9 C 9.35 g/m*3 10.9 C 0 km/h
663 16-11-2009 12:34:02 11.4 C 9.65 g/m*3 11.4 C 0 km/h
664 16-11-2009 12:46:02 11.6 C 9.87 g/m*3 11.6 C 0 km/h
665 16-11-2009 12:58:02 11.8 C 10 g/m*3 11.8 C 0 km/h
666 16-11-2009 13:10:02 12 C 10.02 g/m*3 12 C 0 km/h
667 16-11-2009 13:22:02 12.4 C 10.38 g/m*3 12.4 C 0 km/h
668 16-11-2009 13:34:02 12.5 C 10.33 g/m*3 12.5 C 0 km/h
669 16-11-2009 13:46:02 12.6 C 10.4 g/m*3 12.6 C 0 km/h
670 16-11-2009 13:58:02 12.7 C 10.46 g/m*3 12.7 C 0 km/h
671 16-11-2009 14:10:02 12.8 C 10.53 g/m*3 12.8 C 0 km/h
672 16-11-2009 14:22:02 13 C 10.55 g/m*3 13 C 0 km/h
673 16-11-2009 14:34:02 13.4 C 10.69 g/m*3 13.4 C 0 km/h
674 16-11-2009 14:46:02 13.7 C 10.66 g/m*3 13.7 C 0 km/h
675 16-11-2009 14:58:02 13.9 C 10.67 g/m*3 13.9 C 0 km/h
Sensor: Nr:Datum:Temp:Abs-Feuchte:Windchill:Wind:
Aussen-T/F 676 16-11-2009 15:10:02 14 C 10.49 g/m*3 14 C 0 km/h
677 16-11-2009 15:22:02 14 C 10.25 g/m*3 14 C 0 km/h
678 16-11-2009 15:34:02 14 C 10.37 g/m*3 14 C 0 km/h
679 16-11-2009 15:46:02 13.9 C 10.43 g/m*3 13.9 C 0 km/h
680 16-11-2009 15:58:02 14.1 C 10.44 g/m*3 14.1 C 0 km/h
681 16-11-2009 16:10:02 14.1 C 10.44 g/m*3 14.1 C 0 km/h
682 16-11-2009 16:22:03 14.2 C 10.26 g/m*3 14.2 C 0 km/h
683 16-11-2009 16:34:02 14.2 C 10.26 g/m*3 14.2 C 0 km/h
684 16-11-2009 16:46:02 14.4 C 10.14 g/m*3 14.4 C 0 km/h
685 16-11-2009 16:58:02 14.3 C 9.95 g/m*3 14.3 C 0 km/h
686 16-11-2009 17:10:02 14.4 C 10.01 g/m*3 14.4 C 0 km/h
687 16-11-2009 17:22:02 14.5 C 9.83 g/m*3 14.5 C 0 km/h
688 16-11-2009 17:34:02 14.4 C 9.77 g/m*3 14.4 C 0 km/h
689 16-11-2009 17:46:02 14.4 C 9.77 g/m*3 14.4 C 0 km/h
690 16-11-2009 17:58:02 14.3 C 9.71 g/m*3 14.3 C 0 km/h
691 16-11-2009 18:10:02 14.1 C 9.71 g/m*3 14.1 C 0 km/h
692 16-11-2009 18:22:02 14.2 C 9.65 g/m*3 14.2 C 0 km/h
693 16-11-2009 18:34:01 14.3 C 9.58 g/m*3 14.3 C 0 km/h
694 16-11-2009 18:46:02 14.5 C 9.58 g/m*3 14.5 C 0 km/h
695 16-11-2009 18:58:02 14.8 C 9.37 g/m*3 14.8 C 0 km/h
696 16-11-2009 19:10:01 14.8 C 9.25 g/m*3 14.8 C 0 km/h
697 16-11-2009 19:22:02 14.8 C 9.25 g/m*3 14.8 C 0 km/h
698 16-11-2009 19:34:01 14.8 C 9.25 g/m*3 14.8 C 0 km/h
699 16-11-2009 19:46:02 14.7 C 9.32 g/m*3 14.7 C 0 km/h
700 16-11-2009 19:58:02 14.6 C 9.26 g/m*3 14.6 C 0 km/h
Sensor: Nr:Datum:Temp:Abs-Feuchte:Windchill:Wind:
Aussen-T/F 701 16-11-2009 20:10:02 14.5 C 9.2 g/m*3 14.5 C 0 km/h
702 16-11-2009 20:22:02 14.5 C 9.33 g/m*3 14.5 C 0 km/h
703 16-11-2009 20:34:03 14.4 C 9.27 g/m*3 14.4 C 0 km/h
704 16-11-2009 20:46:02 14.5 C 9.2 g/m*3 14.5 C 0 km/h
705 16-11-2009 20:58:03 14.6 C 9.01 g/m*3 14.6 C 0 km/h
706 16-11-2009 21:10:01 14.5 C 9.08 g/m*3 14.5 C 0 km/h
707 16-11-2009 21:22:02 14.6 C 9.13 g/m*3 14.6 C 0 km/h
708 16-11-2009 21:34:02 14 C 9.41 g/m*3 14 C 0 km/h
709 16-11-2009 21:46:02 13.6 C 9.53 g/m*3 13.6 C 0 km/h
710 16-11-2009 21:58:02 13.7 C 9.71 g/m*3 13.7 C 0 km/h
711 16-11-2009 22:10:03 13.6 C 9.77 g/m*3 13.6 C 0 km/h
712 16-11-2009 22:22:02 13.7 C 9.71 g/m*3 13.7 C 0 km/h
713 16-11-2009 22:35:02 13.6 C 9.65 g/m*3 13.6 C 0 km/h
714 16-11-2009 22:47:02 13.8 C 9.65 g/m*3 13.8 C 0 km/h
715 16-11-2009 22:59:02 14 C 9.53 g/m*3 14 C 0 km/h
716 16-11-2009 23:11:02 14 C 9.41 g/m*3 14 C 0 km/h
717 16-11-2009 23:23:02 13.9 C 9.47 g/m*3 13.9 C 0 km/h
718 16-11-2009 23:35:02 13.8 C 9.53 g/m*3 13.8 C 0 km/h
719 16-11-2009 23:47:02 13.7 C 9.47 g/m*3 13.7 C 0 km/h
720 16-11-2009 23:59:02 13.8 C 9.53 g/m*3 13.8 C 0 km/h
721 17-11-2009 00:11:02 14 C 9.29 g/m*3 14 C 0 km/h
722 17-11-2009 00:23:02 14 C 9.17 g/m*3 14 C 0 km/h
723 17-11-2009 00:35:02 13.8 C 9.17 g/m*3 13.8 C 0 km/h
724 17-11-2009 00:47:02 13.8 C 9.17 g/m*3 13.8 C 0 km/h
725 17-11-2009 00:59:02 13.8 C 9.06 g/m*3 13.8 C 0 km/h
Sensor: Nr:Datum:Temp:Abs-Feuchte:Windchill:Wind:
Aussen-T/F 726 17-11-2009 01:11:02 13.9 C 8.87 g/m*3 13.9 C 0 km/h
727 17-11-2009 01:23:02 14 C 8.81 g/m*3 14 C 0 km/h
728 17-11-2009 01:35:02 13.8 C 8.82 g/m*3 13.8 C 0 km/h
729 17-11-2009 01:47:02 13.7 C 8.88 g/m*3 13.7 C 0 km/h
730 17-11-2009 01:59:02 13.6 C 8.83 g/m*3 13.6 C 0 km/h
731 17-11-2009 02:11:02 13.8 C 8.94 g/m*3 13.8 C 0 km/h
732 17-11-2009 02:23:02 13.7 C 8.76 g/m*3 13.7 C 0 km/h
733 17-11-2009 02:35:03 13.4 C 8.72 g/m*3 13.4 C 0 km/h
734 17-11-2009 02:47:03 13.2 C 8.73 g/m*3 13.2 C 0 km/h
735 17-11-2009 02:59:03 13 C 8.85 g/m*3 13 C 0 km/h
736 17-11-2009 03:11:03 12.8 C 9.07 g/m*3 12.8 C 0 km/h
737 17-11-2009 03:23:03 12.8 C 9.18 g/m*3 12.8 C 0 km/h
738 17-11-2009 03:35:03 12.8 C 9.18 g/m*3 12.8 C 0 km/h
739 17-11-2009 03:47:03 12.7 C 9.13 g/m*3 12.7 C 0 km/h
740 17-11-2009 03:59:03 12.8 C 9.3 g/m*3 12.8 C 0 km/h
741 17-11-2009 04:11:03 12.9 C 9.24 g/m*3 12.9 C 0 km/h
742 17-11-2009 04:23:03 12.8 C 9.18 g/m*3 12.8 C 0 km/h
743 17-11-2009 04:35:03 12.6 C 9.18 g/m*3 12.6 C 0 km/h
744 17-11-2009 04:47:03 12.5 C 9.13 g/m*3 12.5 C 0 km/h
745 17-11-2009 04:59:03 12.5 C 9.24 g/m*3 12.5 C 0 km/h
746 17-11-2009 05:11:03 12.4 C 9.29 g/m*3 12.4 C 0 km/h
747 17-11-2009 05:23:03 12.3 C 9.23 g/m*3 12.3 C 0 km/h
748 17-11-2009 05:35:03 12.2 C 9.28 g/m*3 12.2 C 0 km/h
749 17-11-2009 05:47:03 12.3 C 9.34 g/m*3 12.3 C 0 km/h
750 17-11-2009 05:59:03 12.4 C 9.29 g/m*3 12.4 C 0 km/h
Sensor: Nr:Datum:Temp:Abs-Feuchte:Windchill:Wind:
Aussen-T/F 751 17-11-2009 06:11:03 12.4 C 9.29 g/m*3 12.4 C 0 km/h
752 17-11-2009 06:23:03 12.2 C 9.17 g/m*3 12.2 C 0 km/h
753 17-11-2009 06:35:03 12.1 C 9.12 g/m*3 12.1 C 0 km/h
754 17-11-2009 06:47:04 12 C 9.17 g/m*3 12 C 0 km/h
755 17-11-2009 06:59:04 12 C 9.27 g/m*3 12 C 0 km/h
756 17-11-2009 07:11:02 11.9 C 9.43 g/m*3 11.9 C 0 km/h
757 17-11-2009 07:23:02 11.8 C 9.47 g/m*3 11.8 C 0 km/h
758 17-11-2009 07:35:02 11.6 C 9.35 g/m*3 11.6 C 0 km/h
759 17-11-2009 07:47:02 11.2 C 9.02 g/m*3 11.2 C 0 km/h
760 17-11-2009 07:59:03 11 C 8.81 g/m*3 11 C 0 km/h
761 17-11-2009 08:11:01 10.8 C 8.8 g/m*3 10.8 C 0 km/h
762 17-11-2009 08:23:01 10.8 C 8.8 g/m*3 10.8 C 0 km/h
763 17-11-2009 08:35:02 10.8 C 8.8 g/m*3 10.8 C 0 km/h
764 17-11-2009 08:47:02 10.8 C 8.9 g/m*3 10.8 C 0 km/h
765 17-11-2009 08:59:02 10.8 C 8.9 g/m*3 10.8 C 0 km/h
766 17-11-2009 09:11:02 10.9 C 8.95 g/m*3 10.9 C 0 km/h
767 17-11-2009 09:23:02 10 C 8.27 g/m*3 10 C 0 km/h
768 17-11-2009 09:35:02 9.8 C 8.26 g/m*3 9.8 C 0 km/h
769 17-11-2009 09:47:02 9.5 C 8.19 g/m*3 9.5 C 0 km/h
770 17-11-2009 09:59:02 9.4 C 8.23 g/m*3 9.4 C 0 km/h
771 17-11-2009 10:11:02 9.6 C 8.43 g/m*3 9.6 C 0 km/h
772 17-11-2009 10:23:03 9.7 C 8.48 g/m*3 9.7 C 0 km/h
773 17-11-2009 10:35:02 9.5 C 8.37 g/m*3 9.5 C 0 km/h
774 17-11-2009 10:47:02 9.7 C 8.57 g/m*3 9.7 C 0 km/h
775 17-11-2009 10:59:02 9.7 C 8.57 g/m*3 9.7 C 0 km/h
Sensor: Nr:Datum:Temp:Abs-Feuchte:Windchill:Wind:
Aussen-T/F 776 17-11-2009 11:11:02 9.8 C 8.72 g/m*3 9.8 C 0 km/h
777 17-11-2009 11:23:02 10.1 C 8.79 g/m*3 10.1 C 0 km/h
778 17-11-2009 11:35:02 10.1 C 8.79 g/m*3 10.1 C 0 km/h
779 17-11-2009 11:47:02 10.2 C 8.85 g/m*3 10.2 C 0 km/h
780 17-11-2009 11:59:02 10.1 C 8.79 g/m*3 10.1 C 0 km/h
781 17-11-2009 12:11:02 10.1 C 8.79 g/m*3 10.1 C 0 km/h
782 17-11-2009 12:23:02 10.2 C 8.85 g/m*3 10.2 C 0 km/h
783 17-11-2009 12:35:02 10.2 C 8.85 g/m*3 10.2 C 0 km/h
784 17-11-2009 12:47:02 10.3 C 8.91 g/m*3 10.3 C 0 km/h
785 17-11-2009 12:59:02 10.3 C 8.91 g/m*3 10.3 C 0 km/h
786 17-11-2009 13:11:01 10.2 C 8.76 g/m*3 10.2 C 0 km/h
787 17-11-2009 13:23:02 10.4 C 8.87 g/m*3 10.4 C 0 km/h
788 17-11-2009 13:35:01 10.1 C 8.7 g/m*3 10.1 C 0 km/h
789 17-11-2009 13:47:02 10.3 C 8.81 g/m*3 10.3 C 0 km/h
790 17-11-2009 13:59:02 10.1 C 8.61 g/m*3 10.1 C 0 km/h
791 17-11-2009 14:11:01 10.2 C 8.66 g/m*3 10.2 C 0 km/h
792 17-11-2009 14:23:02 10.3 C 8.62 g/m*3 10.3 C 0 km/h
793 17-11-2009 14:35:01 10.4 C 8.67 g/m*3 10.4 C 0 km/h
794 17-11-2009 14:47:03 10.6 C 8.88 g/m*3 10.6 C 0 km/h
795 17-11-2009 14:59:03 10.6 C 8.88 g/m*3 10.6 C 0 km/h
796 17-11-2009 15:11:02 10.4 C 8.67 g/m*3 10.4 C 0 km/h
797 17-11-2009 15:23:02 10.4 C 8.67 g/m*3 10.4 C 0 km/h
798 17-11-2009 15:35:02 10.2 C 8.47 g/m*3 10.2 C 0 km/h
799 17-11-2009 15:47:02 10.1 C 8.42 g/m*3 10.1 C 0 km/h
800 17-11-2009 15:59:02 10 C 8.27 g/m*3 10 C 0 km/h
Sensor: Nr:Datum:Temp:Abs-Feuchte:Windchill:Wind:
Aussen-T/F 801 17-11-2009 16:11:02 9.8 C 8.26 g/m*3 9.8 C 0 km/h
802 17-11-2009 16:23:02 9.7 C 8.11 g/m*3 9.7 C 0 km/h
803 17-11-2009 16:35:01 9.6 C 8.06 g/m*3 9.6 C 0 km/h
804 17-11-2009 16:47:02 9.6 C 8.06 g/m*3 9.6 C 0 km/h
805 17-11-2009 16:59:02 9.6 C 8.06 g/m*3 9.6 C 0 km/h
806 17-11-2009 17:11:01 9.5 C 8.1 g/m*3 9.5 C 0 km/h
807 17-11-2009 17:23:02 9.5 C 8.1 g/m*3 9.5 C 0 km/h
808 17-11-2009 17:35:01 9.5 C 8.1 g/m*3 9.5 C 0 km/h
809 17-11-2009 17:47:02 9.5 C 8.1 g/m*3 9.5 C 0 km/h
810 17-11-2009 17:59:02 9.5 C 8.1 g/m*3 9.5 C 0 km/h
811 17-11-2009 18:11:02 9.4 C 7.96 g/m*3 9.4 C 0 km/h
812 17-11-2009 18:23:02 9.5 C 8.01 g/m*3 9.5 C 0 km/h
813 17-11-2009 18:35:03 9.5 C 7.92 g/m*3 9.5 C 0 km/h
814 17-11-2009 18:47:02 9.6 C 7.97 g/m*3 9.6 C 0 km/h
815 17-11-2009 18:59:02 9.6 C 7.88 g/m*3 9.6 C 0 km/h
816 17-11-2009 19:11:01 9.8 C 7.7 g/m*3 9.8 C 0 km/h
817 17-11-2009 19:23:02 9.9 C 7.66 g/m*3 9.9 C 0 km/h
818 17-11-2009 19:35:02 9.8 C 7.7 g/m*3 9.8 C 0 km/h
819 17-11-2009 19:47:02 9.7 C 7.65 g/m*3 9.7 C 0 km/h
820 17-11-2009 19:59:02 9.7 C 7.65 g/m*3 9.7 C 0 km/h
821 17-11-2009 20:11:02 9.8 C 7.61 g/m*3 9.8 C 0 km/h
822 17-11-2009 20:23:02 9.8 C 7.61 g/m*3 9.8 C 0 km/h
823 17-11-2009 20:35:02 9.8 C 7.52 g/m*3 9.8 C 0 km/h
824 17-11-2009 20:47:01 9.8 C 7.52 g/m*3 9.8 C 0 km/h
825 17-11-2009 20:59:01 9.9 C 7.56 g/m*3 9.9 C 0 km/h
Sensor: Nr:Datum:Temp:Abs-Feuchte:Windchill:Wind:
Aussen-T/F 826 17-11-2009 21:11:02 9.7 C 7.47 g/m*3 9.7 C 0 km/h
827 17-11-2009 21:23:01 9.8 C 7.52 g/m*3 9.8 C 0 km/h
828 17-11-2009 21:35:01 9.6 C 7.42 g/m*3 9.6 C 0 km/h
829 17-11-2009 21:48:02 9.5 C 7.28 g/m*3 9.5 C 0 km/h
830 17-11-2009 22:00:02 9.5 C 7.37 g/m*3 9.5 C 0 km/h
831 17-11-2009 22:12:02 9.6 C 7.33 g/m*3 9.6 C 0 km/h
832 17-11-2009 22:24:02 9.5 C 7.19 g/m*3 9.5 C 0 km/h
833 17-11-2009 22:36:02 9.4 C 7.15 g/m*3 9.4 C 0 km/h
834 17-11-2009 22:48:02 9.2 C 7.05 g/m*3 9.2 C 0 km/h
835 17-11-2009 23:00:02 9.5 C 7.28 g/m*3 9.5 C 0 km/h
836 17-11-2009 23:12:02 9.7 C 7.19 g/m*3 9.7 C 0 km/h
837 17-11-2009 23:24:03 9.6 C 7.15 g/m*3 9.6 C 0 km/h
838 17-11-2009 23:36:03 9.6 C 7.15 g/m*3 9.6 C 0 km/h
839 17-11-2009 23:48:03 9.4 C 7.05 g/m*3 9.4 C 0 km/h
840 18-11-2009 00:00:03 9.4 C 7.05 g/m*3 9.4 C 0 km/h
841 18-11-2009 00:12:03 9.5 C 7.1 g/m*3 9.5 C 0 km/h
842 18-11-2009 00:24:03 9.6 C 7.05 g/m*3 9.6 C 0 km/h
843 18-11-2009 00:36:03 9.5 C 7.01 g/m*3 9.5 C 0 km/h
844 18-11-2009 00:48:03 9.5 C 7.1 g/m*3 9.5 C 0 km/h
845 18-11-2009 01:00:03 9.4 C 7.05 g/m*3 9.4 C 0 km/h
846 18-11-2009 01:12:03 9.3 C 7.01 g/m*3 9.3 C 0 km/h
847 18-11-2009 01:24:03 9.4 C 7.05 g/m*3 9.4 C 0 km/h
848 18-11-2009 01:36:03 9.3 C 6.92 g/m*3 9.3 C 0 km/h
849 18-11-2009 01:48:03 9.2 C 6.97 g/m*3 9.2 C 0 km/h
850 18-11-2009 02:00:03 9 C 6.88 g/m*3 9 C 0 km/h
Sensor: Nr:Datum:Temp:Abs-Feuchte:Windchill:Wind:
Aussen-T/F 851 18-11-2009 02:12:03 9.2 C 7.05 g/m*3 9.2 C 0 km/h
852 18-11-2009 02:24:03 9.3 C 6.92 g/m*3 9.3 C 0 km/h
853 18-11-2009 02:36:03 9.2 C 6.88 g/m*3 9.2 C 0 km/h
854 18-11-2009 02:48:03 9.1 C 6.83 g/m*3 9.1 C 0 km/h
855 18-11-2009 03:00:03 9.1 C 6.83 g/m*3 9.1 C 0 km/h
856 18-11-2009 03:12:04 8.9 C 6.92 g/m*3 8.9 C 0 km/h
857 18-11-2009 03:24:04 9 C 6.88 g/m*3 9 C 0 km/h
858 18-11-2009 03:36:04 8.8 C 6.88 g/m*3 8.8 C 0 km/h
859 18-11-2009 03:48:04 8.6 C 6.96 g/m*3 8.6 C 0 km/h
860 18-11-2009 04:00:04 8.7 C 7.01 g/m*3 8.7 C 0 km/h
861 18-11-2009 04:12:04 8.8 C 7.05 g/m*3 8.8 C 0 km/h
862 18-11-2009 04:24:04 8.7 C 7.01 g/m*3 8.7 C 0 km/h
863 18-11-2009 04:36:04 8.6 C 7.05 g/m*3 8.6 C 0 km/h
864 18-11-2009 04:48:04 8.5 C 7 g/m*3 8.5 C 0 km/h
865 18-11-2009 05:00:04 8.5 C 7.09 g/m*3 8.5 C 0 km/h
866 18-11-2009 05:12:04 8.8 C 7.14 g/m*3 8.8 C 0 km/h
867 18-11-2009 05:24:04 9 C 7.05 g/m*3 9 C 0 km/h
868 18-11-2009 05:36:04 8.9 C 6.92 g/m*3 8.9 C 0 km/h
869 18-11-2009 05:48:04 8.9 C 6.92 g/m*3 8.9 C 0 km/h
870 18-11-2009 06:00:04 9 C 6.79 g/m*3 9 C 0 km/h
871 18-11-2009 06:12:03 9 C 6.79 g/m*3 9 C 0 km/h
872 18-11-2009 06:24:03 8.8 C 6.79 g/m*3 8.8 C 0 km/h
873 18-11-2009 06:36:03 8.7 C 6.83 g/m*3 8.7 C 0 km/h
874 18-11-2009 06:48:02 8.7 C 6.75 g/m*3 8.7 C 0 km/h
875 18-11-2009 07:00:02 8.4 C 6.62 g/m*3 8.4 C 0 km/h
Sensor: Nr:Datum:Temp:Abs-Feuchte:Windchill:Wind:
Aussen-T/F 876 18-11-2009 07:12:03 8.3 C 6.66 g/m*3 8.3 C 0 km/h
877 18-11-2009 07:24:02 8 C 6.7 g/m*3 8 C 0 km/h
878 18-11-2009 07:36:02 8.4 C 6.96 g/m*3 8.4 C 0 km/h
879 18-11-2009 07:48:01 8.3 C 6.74 g/m*3 8.3 C 0 km/h
880 18-11-2009 08:00:01 8.5 C 6.66 g/m*3 8.5 C 0 km/h
881 18-11-2009 08:12:02 8.8 C 6.61 g/m*3 8.8 C 0 km/h
882 18-11-2009 08:24:01 9 C 6.52 g/m*3 9 C 0 km/h
883 18-11-2009 08:36:02 9.1 C 6.39 g/m*3 9.1 C 0 km/h
884 18-11-2009 08:48:02 9.4 C 6.51 g/m*3 9.4 C 0 km/h
885 18-11-2009 09:00:02 9.7 C 6.36 g/m*3 9.7 C 0 km/h
886 18-11-2009 09:12:02 9.7 C 6.18 g/m*3 9.7 C 0 km/h
887 18-11-2009 09:24:01 9.7 C 5.9 g/m*3 9.7 C 0 km/h
888 18-11-2009 09:36:02 9.6 C 5.86 g/m*3 9.6 C 0 km/h
889 18-11-2009 09:48:01 9.6 C 5.86 g/m*3 9.6 C 0 km/h
890 18-11-2009 10:00:01 9.9 C 6.07 g/m*3 9.9 C 0 km/h
891 18-11-2009 10:12:02 10.4 C 5.98 g/m*3 10.4 C 0 km/h
892 18-11-2009 10:24:02 10.6 C 5.95 g/m*3 10.6 C 0 km/h
893 18-11-2009 10:36:02 10.7 C 5.8 g/m*3 10.7 C 0 km/h
894 18-11-2009 10:48:02 10.9 C 5.67 g/m*3 10.9 C 0 km/h
895 18-11-2009 11:00:02 11 C 5.71 g/m*3 11 C 0 km/h
896 18-11-2009 11:12:02 11.1 C 5.74 g/m*3 11.1 C 0 km/h
897 18-11-2009 11:24:02 11.2 C 5.68 g/m*3 11.2 C 0 km/h
898 18-11-2009 11:36:02 11.2 C 5.57 g/m*3 11.2 C 0 km/h
899 18-11-2009 11:48:01 11.4 C 5.44 g/m*3 11.4 C 0 km/h
900 18-11-2009 12:00:01 11.7 C 5.44 g/m*3 11.7 C 0 km/h
Sensor: Nr:Datum:Temp:Abs-Feuchte:Windchill:Wind:
Aussen-T/F 901 18-11-2009 12:12:02 11.9 C 5.51 g/m*3 11.9 C 0 km/h
902 18-11-2009 12:24:01 11.8 C 5.16 g/m*3 11.8 C 0 km/h
903 18-11-2009 12:36:01 11.8 C 5.37 g/m*3 11.8 C 0 km/h
904 18-11-2009 12:48:01 11.7 C 5.23 g/m*3 11.7 C 0 km/h
905 18-11-2009 13:00:01 11.9 C 5.19 g/m*3 11.9 C 0 km/h
906 18-11-2009 13:12:02 12.3 C 5.21 g/m*3 12.3 C 0 km/h
907 18-11-2009 13:24:01 12.2 C 5.29 g/m*3 12.2 C 0 km/h
908 18-11-2009 13:36:02 12 C 5.12 g/m*3 12 C 0 km/h
909 18-11-2009 13:48:01 11.9 C 5.3 g/m*3 11.9 C 0 km/h
910 18-11-2009 14:00:01 11.9 C 5.4 g/m*3 11.9 C 0 km/h
911 18-11-2009 14:12:02 11.9 C 5.3 g/m*3 11.9 C 0 km/h
912 18-11-2009 14:24:01 11.9 C 5.3 g/m*3 11.9 C 0 km/h
913 18-11-2009 14:36:02 11.8 C 5.37 g/m*3 11.8 C 0 km/h
914 18-11-2009 14:48:01 11.8 C 5.26 g/m*3 11.8 C 0 km/h
915 18-11-2009 15:00:01 11.8 C 5.37 g/m*3 11.8 C 0 km/h
916 18-11-2009 15:12:02 11.7 C 5.33 g/m*3 11.7 C 0 km/h
917 18-11-2009 15:24:01 11.6 C 5.3 g/m*3 11.6 C 0 km/h
918 18-11-2009 15:36:02 11.5 C 5.27 g/m*3 11.5 C 0 km/h
919 18-11-2009 15:48:01 11.4 C 5.23 g/m*3 11.4 C 0 km/h
920 18-11-2009 16:00:01 11.3 C 5.41 g/m*3 11.3 C 0 km/h
921 18-11-2009 16:12:02 10.9 C 5.47 g/m*3 10.9 C 0 km/h
922 18-11-2009 16:24:02 10.9 C 5.47 g/m*3 10.9 C 0 km/h
923 18-11-2009 16:36:02 11.1 C 5.44 g/m*3 11.1 C 0 km/h
924 18-11-2009 16:48:01 11.1 C 5.44 g/m*3 11.1 C 0 km/h
925 18-11-2009 17:00:01 11.1 C 5.44 g/m*3 11.1 C 0 km/h
Sensor: Nr:Datum:Temp:Abs-Feuchte:Windchill:Wind:
Aussen-T/F 926 18-11-2009 17:12:02 11.1 C 5.44 g/m*3 11.1 C 0 km/h
927 18-11-2009 17:24:02 11.2 C 5.47 g/m*3 11.2 C 0 km/h
928 18-11-2009 17:36:01 11.2 C 5.57 g/m*3 11.2 C 0 km/h
929 18-11-2009 17:48:01 11.4 C 5.65 g/m*3 11.4 C 0 km/h
930 18-11-2009 18:00:01 11 C 5.61 g/m*3 11 C 0 km/h
931 18-11-2009 18:12:02 11 C 5.71 g/m*3 11 C 0 km/h
932 18-11-2009 18:24:02 10.9 C 5.87 g/m*3 10.9 C 0 km/h
933 18-11-2009 18:36:01 11 C 5.81 g/m*3 11 C 0 km/h
934 18-11-2009 18:48:02 11.1 C 5.84 g/m*3 11.1 C 0 km/h
935 18-11-2009 19:00:02 11.4 C 5.95 g/m*3 11.4 C 0 km/h
936 18-11-2009 19:12:01 11.4 C 5.95 g/m*3 11.4 C 0 km/h
937 18-11-2009 19:24:02 11.3 C 5.92 g/m*3 11.3 C 0 km/h
938 18-11-2009 19:36:01 11.3 C 5.92 g/m*3 11.3 C 0 km/h
939 18-11-2009 19:48:03 11.3 C 5.92 g/m*3 11.3 C 0 km/h
940 18-11-2009 20:00:03 11.3 C 5.92 g/m*3 11.3 C 0 km/h
941 18-11-2009 20:12:02 11.3 C 6.02 g/m*3 11.3 C 0 km/h
942 18-11-2009 20:24:02 11.3 C 6.02 g/m*3 11.3 C 0 km/h
943 18-11-2009 20:36:02 11.1 C 6.04 g/m*3 11.1 C 0 km/h
944 18-11-2009 20:48:02 10.9 C 6.07 g/m*3 10.9 C 0 km/h
945 18-11-2009 21:00:02 11 C 6.11 g/m*3 11 C 0 km/h
946 18-11-2009 21:12:02 11 C 6.11 g/m*3 11 C 0 km/h
947 18-11-2009 21:24:02 10.8 C 6.13 g/m*3 10.8 C 0 km/h
948 18-11-2009 21:36:02 10.6 C 6.15 g/m*3 10.6 C 0 km/h
949 18-11-2009 21:48:02 10.3 C 6.13 g/m*3 10.3 C 0 km/h
950 18-11-2009 22:00:02 10.3 C 6.22 g/m*3 10.3 C 0 km/h
Sensor: Nr:Datum:Temp:Abs-Feuchte:Windchill:Wind:
Aussen-T/F 951 18-11-2009 22:13:02 10.1 C 6.24 g/m*3 10.1 C 0 km/h
952 18-11-2009 22:25:02 10.2 C 6.28 g/m*3 10.2 C 0 km/h
953 18-11-2009 22:37:02 10.1 C 6.24 g/m*3 10.1 C 0 km/h
954 18-11-2009 22:49:02 10 C 6.3 g/m*3 10 C 0 km/h
955 18-11-2009 23:01:02 9.9 C 6.44 g/m*3 9.9 C 0 km/h
956 18-11-2009 23:13:02 10.1 C 6.43 g/m*3 10.1 C 0 km/h
957 18-11-2009 23:25:02 10.2 C 6.47 g/m*3 10.2 C 0 km/h
958 18-11-2009 23:37:02 10.3 C 6.42 g/m*3 10.3 C 0 km/h
959 18-11-2009 23:49:02 10.3 C 6.42 g/m*3 10.3 C 0 km/h
960 19-11-2009 00:01:02 10.1 C 6.43 g/m*3 10.1 C 0 km/h
961 19-11-2009 00:13:03 10 C 6.48 g/m*3 10 C 0 km/h
962 19-11-2009 00:25:03 9.9 C 6.63 g/m*3 9.9 C 0 km/h
963 19-11-2009 00:37:03 9.7 C 6.64 g/m*3 9.7 C 0 km/h
964 19-11-2009 00:49:03 9.5 C 6.64 g/m*3 9.5 C 0 km/h
965 19-11-2009 01:01:03 9.9 C 6.82 g/m*3 9.9 C 0 km/h
966 19-11-2009 01:13:03 10 C 6.77 g/m*3 10 C 0 km/h
967 19-11-2009 01:25:03 9.9 C 6.82 g/m*3 9.9 C 0 km/h
968 19-11-2009 01:37:03 9.9 C 6.82 g/m*3 9.9 C 0 km/h
969 19-11-2009 01:49:03 9.6 C 6.78 g/m*3 9.6 C 0 km/h
970 19-11-2009 02:01:03 9.7 C 6.91 g/m*3 9.7 C 0 km/h
971 19-11-2009 02:13:03 10.2 C 6.95 g/m*3 10.2 C 0 km/h
972 19-11-2009 02:25:03 10.4 C 6.84 g/m*3 10.4 C 0 km/h
973 19-11-2009 02:37:03 10.6 C 6.93 g/m*3 10.6 C 0 km/h
974 19-11-2009 02:49:03 10.6 C 6.83 g/m*3 10.6 C 0 km/h
975 19-11-2009 03:01:03 10.4 C 6.84 g/m*3 10.4 C 0 km/h
Sensor: Nr:Datum:Temp:Abs-Feuchte:Windchill:Wind:
Aussen-T/F 976 19-11-2009 03:13:03 10.5 C 6.89 g/m*3 10.5 C 0 km/h
977 19-11-2009 03:25:03 10.6 C 6.93 g/m*3 10.6 C 0 km/h
978 19-11-2009 03:37:03 10.6 C 6.83 g/m*3 10.6 C 0 km/h
979 19-11-2009 03:49:03 10.6 C 6.83 g/m*3 10.6 C 0 km/h
980 19-11-2009 04:01:04 10.4 C 6.75 g/m*3 10.4 C 0 km/h
981 19-11-2009 04:13:04 10 C 6.67 g/m*3 10 C 0 km/h
982 19-11-2009 04:25:04 9.8 C 6.87 g/m*3 9.8 C 0 km/h
983 19-11-2009 04:37:04 9.7 C 6.82 g/m*3 9.7 C 0 km/h
984 19-11-2009 04:49:04 9.3 C 6.74 g/m*3 9.3 C 0 km/h
985 19-11-2009 05:01:04 9.3 C 6.92 g/m*3 9.3 C 0 km/h
986 19-11-2009 05:13:04 9.2 C 6.88 g/m*3 9.2 C 0 km/h
987 19-11-2009 05:25:04 9.1 C 6.83 g/m*3 9.1 C 0 km/h
988 19-11-2009 05:37:04 9.2 C 6.88 g/m*3 9.2 C 0 km/h
989 19-11-2009 05:49:04 9.3 C 6.92 g/m*3 9.3 C 0 km/h
990 19-11-2009 06:01:04 9.4 C 6.96 g/m*3 9.4 C 0 km/h
991 19-11-2009 06:13:04 9.4 C 6.96 g/m*3 9.4 C 0 km/h
992 19-11-2009 06:25:04 9.6 C 7.05 g/m*3 9.6 C 0 km/h
993 19-11-2009 06:37:04 9.7 C 7.01 g/m*3 9.7 C 0 km/h
994 19-11-2009 06:49:04 9.7 C 7.01 g/m*3 9.7 C 0 km/h
995 19-11-2009 07:01:03 9.8 C 6.96 g/m*3 9.8 C 0 km/h
996 19-11-2009 07:13:03 9.7 C 6.91 g/m*3 9.7 C 0 km/h
997 19-11-2009 07:25:02 9.8 C 6.87 g/m*3 9.8 C 0 km/h
998 19-11-2009 07:37:02 9.7 C 6.82 g/m*3 9.7 C 0 km/h
999 19-11-2009 07:49:02 9.8 C 6.87 g/m*3 9.8 C 0 km/h
1000 19-11-2009 08:01:02 9.7 C 6.82 g/m*3 9.7 C 0 km/h
Sensor: Nr:Datum:Temp:Abs-Feuchte:Windchill:Wind:
Aussen-T/F 1001 19-11-2009 08:13:02 9.8 C 6.87 g/m*3 9.8 C 0 km/h
1002 19-11-2009 08:25:01 9.9 C 6.82 g/m*3 9.9 C 0 km/h
1003 19-11-2009 08:37:02 9.9 C 6.72 g/m*3 9.9 C 0 km/h
1004 19-11-2009 08:49:02 9.9 C 6.72 g/m*3 9.9 C 0 km/h
1005 19-11-2009 09:01:02 10 C 6.67 g/m*3 10 C 0 km/h
1006 19-11-2009 09:13:02 10.1 C 6.62 g/m*3 10.1 C 0 km/h
1007 19-11-2009 09:25:02 10 C 6.58 g/m*3 10 C 0 km/h
1008 19-11-2009 09:37:02 9.8 C 6.68 g/m*3 9.8 C 0 km/h
1009 19-11-2009 09:49:02 9.7 C 6.64 g/m*3 9.7 C 0 km/h
1010 19-11-2009 10:01:02 9.6 C 6.6 g/m*3 9.6 C 0 km/h
1011 19-11-2009 10:13:02 9.8 C 6.59 g/m*3 9.8 C 0 km/h
1012 19-11-2009 10:25:03 9.8 C 6.49 g/m*3 9.8 C 0 km/h
1013 19-11-2009 10:37:02 9.9 C 6.35 g/m*3 9.9 C 0 km/h
1014 19-11-2009 10:49:02 10 C 6.3 g/m*3 10 C 0 km/h
1015 19-11-2009 11:01:02 10.1 C 6.24 g/m*3 10.1 C 0 km/h
1016 19-11-2009 11:13:02 10.2 C 6.19 g/m*3 10.2 C 0 km/h
1017 19-11-2009 11:25:03 10.5 C 6.21 g/m*3 10.5 C 0 km/h
1018 19-11-2009 11:37:02 10.8 C 6.23 g/m*3 10.8 C 0 km/h
1019 19-11-2009 11:49:03 10.9 C 6.27 g/m*3 10.9 C 0 km/h
1020 19-11-2009 12:01:02 11 C 6.31 g/m*3 11 C 0 km/h
1021 19-11-2009 12:13:02 11.5 C 6.4 g/m*3 11.5 C 0 km/h
1022 19-11-2009 12:25:02 12.2 C 5.94 g/m*3 12.2 C 0 km/h
1023 19-11-2009 12:37:02 12.6 C 5.97 g/m*3 12.6 C 0 km/h
1024 19-11-2009 12:49:02 12.8 C 5.94 g/m*3 12.8 C 0 km/h
1025 19-11-2009 13:01:02 13.2 C 5.74 g/m*3 13.2 C 0 km/h
Sensor: Nr:Datum:Temp:Abs-Feuchte:Windchill:Wind:
Aussen-T/F 1026 19-11-2009 13:13:02 13.5 C 5.85 g/m*3 13.5 C 0 km/h
1027 19-11-2009 13:25:02 14 C 5.67 g/m*3 14 C 0 km/h
1028 19-11-2009 13:37:02 14.2 C 5.62 g/m*3 14.2 C 0 km/h
1029 19-11-2009 13:49:02 14.7 C 5.79 g/m*3 14.7 C 0 km/h
1030 19-11-2009 14:01:01 14.9 C 5.86 g/m*3 14.9 C 0 km/h
1031 19-11-2009 14:13:01 15.2 C 5.97 g/m*3 15.2 C 0 km/h
1032 19-11-2009 14:25:02 15.4 C 6.04 g/m*3 15.4 C 0 km/h
1033 19-11-2009 14:37:01 14.8 C 5.83 g/m*3 14.8 C 0 km/h
1034 19-11-2009 14:49:02 13.9 C 5.99 g/m*3 13.9 C 0 km/h
1035 19-11-2009 15:01:01 13.3 C 6.12 g/m*3 13.3 C 0 km/h
1036 19-11-2009 15:13:01 12.7 C 6.23 g/m*3 12.7 C 0 km/h
1037 19-11-2009 15:25:02 12.3 C 6.3 g/m*3 12.3 C 0 km/h
1038 19-11-2009 15:37:01 12.1 C 6.33 g/m*3 12.1 C 0 km/h
1039 19-11-2009 15:49:02 11.9 C 6.35 g/m*3 11.9 C 0 km/h
1040 19-11-2009 16:01:02 11.5 C 6.51 g/m*3 11.5 C 0 km/h
1041 19-11-2009 16:13:02 11.1 C 6.45 g/m*3 11.1 C 0 km/h
1042 19-11-2009 16:25:02 11 C 6.41 g/m*3 11 C 0 km/h
1043 19-11-2009 16:37:03 10.6 C 6.44 g/m*3 10.6 C 0 km/h
1044 19-11-2009 16:49:02 10.2 C 6.47 g/m*3 10.2 C 0 km/h
1045 19-11-2009 17:01:01 10 C 6.39 g/m*3 10 C 0 km/h
1046 19-11-2009 17:13:01 9.7 C 6.45 g/m*3 9.7 C 0 km/h
1047 19-11-2009 17:25:02 9.6 C 6.41 g/m*3 9.6 C 0 km/h
1048 19-11-2009 17:37:02 9.2 C 6.43 g/m*3 9.2 C 0 km/h
1049 19-11-2009 17:49:02 9 C 6.44 g/m*3 9 C 0 km/h
1050 19-11-2009 18:01:03 9 C 6.52 g/m*3 9 C 0 km/h
Sensor: Nr:Datum:Temp:Abs-Feuchte:Windchill:Wind:
Aussen-T/F 1051 19-11-2009 18:13:03 8.7 C 6.49 g/m*3 8.7 C 0 km/h
1052 19-11-2009 18:25:02 8.6 C 6.44 g/m*3 8.6 C 0 km/h
1053 19-11-2009 18:37:02 8.2 C 6.36 g/m*3 8.2 C 0 km/h
1054 19-11-2009 18:49:02 8.2 C 6.45 g/m*3 8.2 C 0 km/h
1055 19-11-2009 19:01:02 8.1 C 6.49 g/m*3 8.1 C 0 km/h
1056 19-11-2009 19:13:02 7.9 C 6.49 g/m*3 7.9 C 0 km/h
1057 19-11-2009 19:25:01 7.8 C 6.53 g/m*3 7.8 C 0 km/h
1058 19-11-2009 19:37:02 7.6 C 6.44 g/m*3 7.6 C 0 km/h
1059 19-11-2009 19:49:02 7.9 C 6.65 g/m*3 7.9 C 0 km/h
1060 19-11-2009 20:01:02 8.2 C 6.53 g/m*3 8.2 C 0 km/h
1061 19-11-2009 20:13:02 8.1 C 6.49 g/m*3 8.1 C 0 km/h
1062 19-11-2009 20:25:02 7.8 C 6.45 g/m*3 7.8 C 0 km/h
1063 19-11-2009 20:37:02 7.4 C 6.36 g/m*3 7.4 C 0 km/h
1064 19-11-2009 20:49:02 7.2 C 6.36 g/m*3 7.2 C 0 km/h
1065 19-11-2009 21:01:03 6.8 C 6.27 g/m*3 6.8 C 0 km/h
1066 19-11-2009 21:13:03 6.6 C 6.27 g/m*3 6.6 C 0 km/h
1067 19-11-2009 21:25:02 6.4 C 6.26 g/m*3 6.4 C 0 km/h
1068 19-11-2009 21:37:02 6.4 C 6.41 g/m*3 6.4 C 0 km/h
1069 19-11-2009 21:49:02 6.3 C 6.37 g/m*3 6.3 C 0 km/h
1070 19-11-2009 22:01:02 6.3 C 6.37 g/m*3 6.3 C 0 km/h
1071 19-11-2009 22:13:03 6 C 6.24 g/m*3 6 C 0 km/h
1072 19-11-2009 22:25:01 6 C 6.24 g/m*3 6 C 0 km/h
1073 19-11-2009 22:37:02 5.7 C 6.19 g/m*3 5.7 C 0 km/h
1074 19-11-2009 22:50:01 5.8 C 6.3 g/m*3 5.8 C 0 km/h
1075 19-11-2009 23:02:01 5.6 C 6.22 g/m*3 5.6 C 0 km/h
Sensor: Nr:Datum:Temp:Abs-Feuchte:Windchill:Wind:
Aussen-T/F 1076 19-11-2009 23:14:01 5.6 C 6.22 g/m*3 5.6 C 0 km/h
1077 19-11-2009 23:26:01 5.5 C 6.25 g/m*3 5.5 C 0 km/h
1078 19-11-2009 23:38:01 5.2 C 6.13 g/m*3 5.2 C 0 km/h
1079 19-11-2009 23:50:01 5.2 C 6.13 g/m*3 5.2 C 0 km/h
1080 20-11-2009 00:02:01 5.1 C 6.09 g/m*3 5.1 C 0 km/h
1081 20-11-2009 00:14:01 5 C 6.05 g/m*3 5 C 0 km/h
1082 20-11-2009 00:26:02 4.9 C 6.08 g/m*3 4.9 C 0 km/h
1083 20-11-2009 00:38:02 4.8 C 6.04 g/m*3 4.8 C 0 km/h
1084 20-11-2009 00:50:02 4.8 C 6.1 g/m*3 4.8 C 0 km/h
1085 20-11-2009 01:02:02 4.7 C 6.06 g/m*3 4.7 C 0 km/h
1086 20-11-2009 01:14:02 4.7 C 6.06 g/m*3 4.7 C 0 km/h
1087 20-11-2009 01:26:02 4.6 C 6.02 g/m*3 4.6 C 0 km/h
1088 20-11-2009 01:38:02 4.5 C 5.98 g/m*3 4.5 C 0 km/h
1089 20-11-2009 01:50:02 4.4 C 5.94 g/m*3 4.4 C 0 km/h
1090 20-11-2009 02:02:02 4.3 C 5.9 g/m*3 4.3 C 0 km/h
1091 20-11-2009 02:14:02 4.2 C 5.86 g/m*3 4.2 C 0 km/h
1092 20-11-2009 02:26:02 4.2 C 5.86 g/m*3 4.2 C 0 km/h
1093 20-11-2009 02:38:02 4.2 C 5.93 g/m*3 4.2 C 0 km/h
1094 20-11-2009 02:50:02 4.2 C 5.93 g/m*3 4.2 C 0 km/h
1095 20-11-2009 03:02:02 4 C 5.85 g/m*3 4 C 0 km/h
1096 20-11-2009 03:14:02 4 C 5.85 g/m*3 4 C 0 km/h
1097 20-11-2009 03:26:02 3.9 C 5.87 g/m*3 3.9 C 0 km/h
1098 20-11-2009 03:38:02 3.8 C 5.83 g/m*3 3.8 C 0 km/h
1099 20-11-2009 03:50:02 3.7 C 5.8 g/m*3 3.7 C 0 km/h
1100 20-11-2009 04:02:02 3.8 C 5.83 g/m*3 3.8 C 0 km/h
Sensor: Nr:Datum:Temp:Abs-Feuchte:Windchill:Wind:
Aussen-T/F 1101 20-11-2009 04:14:02 3.6 C 5.76 g/m*3 3.6 C 0 km/h
1102 20-11-2009 04:26:03 3.4 C 5.68 g/m*3 3.4 C 0 km/h
1103 20-11-2009 04:38:03 3.5 C 5.72 g/m*3 3.5 C 0 km/h
1104 20-11-2009 04:50:03 3.6 C 5.76 g/m*3 3.6 C 0 km/h
1105 20-11-2009 05:02:03 3.5 C 5.72 g/m*3 3.5 C 0 km/h
1106 20-11-2009 05:14:03 3.5 C 5.78 g/m*3 3.5 C 0 km/h
1107 20-11-2009 05:26:03 3.4 C 5.74 g/m*3 3.4 C 0 km/h
1108 20-11-2009 05:38:03 3.3 C 5.7 g/m*3 3.3 C 0 km/h
1109 20-11-2009 05:50:03 3.4 C 5.74 g/m*3 3.4 C 0 km/h
1110 20-11-2009 06:02:03 3.2 C 5.66 g/m*3 3.2 C 0 km/h
1111 20-11-2009 06:14:03 3.1 C 5.63 g/m*3 3.1 C 0 km/h
1112 20-11-2009 06:26:03 3.1 C 5.63 g/m*3 3.1 C 0 km/h
1113 20-11-2009 06:38:03 3 C 5.59 g/m*3 3 C 0 km/h
1114 20-11-2009 06:50:03 3 C 5.59 g/m*3 3 C 0 km/h
1115 20-11-2009 07:02:02 3.1 C 5.69 g/m*3 3.1 C 0 km/h
1116 20-11-2009 07:14:02 3.1 C 5.69 g/m*3 3.1 C 0 km/h
1117 20-11-2009 07:26:01 3.1 C 5.69 g/m*3 3.1 C 0 km/h
1118 20-11-2009 07:38:02 3 C 5.65 g/m*3 3 C 0 km/h
1119 20-11-2009 07:50:02 2.8 C 5.57 g/m*3 2.8 C 0 km/h
1120 20-11-2009 08:02:02 2.8 C 5.57 g/m*3 2.8 C 0 km/h
1121 20-11-2009 08:14:02 2.8 C 5.57 g/m*3 2.8 C 0 km/h
1122 20-11-2009 08:26:02 2.8 C 5.57 g/m*3 2.8 C 0 km/h
1123 20-11-2009 08:38:02 2.9 C 5.61 g/m*3 2.9 C 0 km/h
1124 20-11-2009 08:50:02 3 C 5.65 g/m*3 3 C 0 km/h
1125 20-11-2009 09:02:02 3.1 C 5.69 g/m*3 3.1 C 0 km/h
Sensor: Nr:Datum:Temp:Abs-Feuchte:Windchill:Wind:
Aussen-T/F 1126 20-11-2009 09:14:03 3.2 C 5.72 g/m*3 3.2 C 0 km/h
1127 20-11-2009 09:26:02 3.4 C 5.8 g/m*3 3.4 C 0 km/h
1128 20-11-2009 09:38:02 3.6 C 5.88 g/m*3 3.6 C 0 km/h
1129 20-11-2009 09:50:01 3.9 C 6 g/m*3 3.9 C 0 km/h
1130 20-11-2009 10:02:01 4.3 C 6.16 g/m*3 4.3 C 0 km/h
1131 20-11-2009 10:14:01 4.3 C 6.16 g/m*3 4.3 C 0 km/h
1132 20-11-2009 10:26:02 4.6 C 6.29 g/m*3 4.6 C 0 km/h
1133 20-11-2009 10:38:01 5.4 C 6.63 g/m*3 5.4 C 0 km/h
1134 20-11-2009 10:50:02 5.7 C 6.76 g/m*3 5.7 C 0 km/h
1135 20-11-2009 11:02:02 5.6 C 6.72 g/m*3 5.6 C 0 km/h
1136 20-11-2009 11:14:02 5.7 C 6.76 g/m*3 5.7 C 0 km/h
1137 20-11-2009 11:26:02 5.9 C 6.85 g/m*3 5.9 C 0 km/h
1138 20-11-2009 11:38:02 6.5 C 7.12 g/m*3 6.5 C 0 km/h
1139 20-11-2009 11:50:02 7.1 C 7.33 g/m*3 7.1 C 0 km/h
1140 20-11-2009 12:02:02 7.7 C 7.7 g/m*3 7.7 C 0 km/h
1141 20-11-2009 12:14:02 8.5 C 8.03 g/m*3 8.5 C 0 km/h
1142 20-11-2009 12:26:02 9.2 C 8.39 g/m*3 9.2 C 0 km/h
1143 20-11-2009 12:38:01 10.1 C 8.79 g/m*3 10.1 C 0 km/h
1144 20-11-2009 12:50:02 10.8 C 9.09 g/m*3 10.8 C 0 km/h
1145 20-11-2009 13:02:01 11.4 C 9.24 g/m*3 11.4 C 0 km/h
1146 20-11-2009 13:14:01 12.1 C 8.9 g/m*3 12.1 C 0 km/h
1147 20-11-2009 13:26:02 13.9 C 7.55 g/m*3 13.9 C 0 km/h
1148 20-11-2009 13:38:02 15 C 6.67 g/m*3 15 C 0 km/h
1149 20-11-2009 13:50:02 15.3 C 6.53 g/m*3 15.3 C 0 km/h
1150 20-11-2009 14:02:03 15.5 C 6.34 g/m*3 15.5 C 0 km/h
Sensor: Nr:Datum:Temp:Abs-Feuchte:Windchill:Wind:
Aussen-T/F 1151 20-11-2009 14:14:03 15.4 C 6.44 g/m*3 15.4 C 0 km/h
1152 20-11-2009 14:26:02 15.2 C 6.49 g/m*3 15.2 C 0 km/h
1153 20-11-2009 14:38:02 15.2 C 6.62 g/m*3 15.2 C 0 km/h
1154 20-11-2009 14:50:01 14.8 C 6.71 g/m*3 14.8 C 0 km/h
1155 20-11-2009 15:02:02 14.6 C 6.76 g/m*3 14.6 C 0 km/h
1156 20-11-2009 15:14:02 14.6 C 6.76 g/m*3 14.6 C 0 km/h
1157 20-11-2009 15:26:01 14.8 C 6.71 g/m*3 14.8 C 0 km/h
1158 20-11-2009 15:38:02 14.5 C 6.84 g/m*3 14.5 C 0 km/h
1159 20-11-2009 15:50:02 13.9 C 7.07 g/m*3 13.9 C 0 km/h
1160 20-11-2009 16:02:02 13.5 C 7.25 g/m*3 13.5 C 0 km/h
1161 20-11-2009 16:14:02 13 C 7.26 g/m*3 13 C 0 km/h
1162 20-11-2009 16:26:02 12.6 C 7.41 g/m*3 12.6 C 0 km/h
1163 20-11-2009 16:38:02 12.3 C 7.38 g/m*3 12.3 C 0 km/h
1164 20-11-2009 16:50:02 12.1 C 7.4 g/m*3 12.1 C 0 km/h
1165 20-11-2009 17:02:02 12 C 7.46 g/m*3 12 C 0 km/h
1166 20-11-2009 17:14:02 11.7 C 7.43 g/m*3 11.7 C 0 km/h
1167 20-11-2009 17:26:02 11.7 C 7.64 g/m*3 11.7 C 0 km/h
1168 20-11-2009 17:38:02 11.7 C 7.64 g/m*3 11.7 C 0 km/h
1169 20-11-2009 17:50:02 11.7 C 7.64 g/m*3 11.7 C 0 km/h
1170 20-11-2009 18:02:02 11.6 C 7.69 g/m*3 11.6 C 0 km/h
1171 20-11-2009 18:14:02 11.6 C 7.8 g/m*3 11.6 C 0 km/h
1172 20-11-2009 18:26:02 11.5 C 7.75 g/m*3 11.5 C 0 km/h
1173 20-11-2009 18:38:02 11.6 C 7.8 g/m*3 11.6 C 0 km/h
1174 20-11-2009 18:50:01 11.1 C 7.66 g/m*3 11.1 C 0 km/h
1175 20-11-2009 19:02:01 11.2 C 7.8 g/m*3 11.2 C 0 km/h
Sensor: Nr:Datum:Temp:Abs-Feuchte:Windchill:Wind:
Aussen-T/F 1176 20-11-2009 19:14:01 11.1 C 7.76 g/m*3 11.1 C 0 km/h
1177 20-11-2009 19:26:02 11.1 C 7.76 g/m*3 11.1 C 0 km/h
1178 20-11-2009 19:38:01 10.9 C 7.66 g/m*3 10.9 C 0 km/h
1179 20-11-2009 19:50:01 10.9 C 7.76 g/m*3 10.9 C 0 km/h
1180 20-11-2009 20:02:01 10.8 C 7.71 g/m*3 10.8 C 0 km/h
1181 20-11-2009 20:14:01 10.5 C 7.57 g/m*3 10.5 C 0 km/h
1182 20-11-2009 20:26:02 10.5 C 7.66 g/m*3 10.5 C 0 km/h
1183 20-11-2009 20:38:01 10.5 C 7.66 g/m*3 10.5 C 0 km/h
1184 20-11-2009 20:50:03 10.5 C 7.76 g/m*3 10.5 C 0 km/h
1185 20-11-2009 21:02:02 10.6 C 7.71 g/m*3 10.6 C 0 km/h
1186 20-11-2009 21:14:02 10.6 C 7.81 g/m*3 10.6 C 0 km/h
1187 20-11-2009 21:26:02 10.6 C 7.81 g/m*3 10.6 C 0 km/h
1188 20-11-2009 21:38:02 10.6 C 7.71 g/m*3 10.6 C 0 km/h
1189 20-11-2009 21:50:01 10.4 C 7.61 g/m*3 10.4 C 0 km/h
1190 20-11-2009 22:02:02 10.4 C 7.71 g/m*3 10.4 C 0 km/h
1191 20-11-2009 22:14:02 10.5 C 7.86 g/m*3 10.5 C 0 km/h
1192 20-11-2009 22:26:01 10.4 C 7.81 g/m*3 10.4 C 0 km/h
1193 20-11-2009 22:38:01 10.4 C 7.81 g/m*3 10.4 C 0 km/h
1194 20-11-2009 22:50:01 10.2 C 7.71 g/m*3 10.2 C 0 km/h
1195 20-11-2009 23:02:02 10.2 C 7.71 g/m*3 10.2 C 0 km/h
1196 20-11-2009 23:14:02 10.1 C 7.75 g/m*3 10.1 C 0 km/h
1197 20-11-2009 23:26:01 10.1 C 7.75 g/m*3 10.1 C 0 km/h
1198 20-11-2009 23:38:02 10 C 7.71 g/m*3 10 C 0 km/h
1199 20-11-2009 23:51:03 10.1 C 7.75 g/m*3 10.1 C 0 km/h
1200 21-11-2009 00:03:03 10 C 7.71 g/m*3 10 C 0 km/h
Sensor: Nr:Datum:Temp:Abs-Feuchte:Windchill:Wind:
Aussen-T/F 1201 21-11-2009 00:15:03 9.8 C 7.79 g/m*3 9.8 C 0 km/h
1202 21-11-2009 00:27:03 10.1 C 7.85 g/m*3 10.1 C 0 km/h
1203 21-11-2009 00:39:03 10.2 C 7.8 g/m*3 10.2 C 0 km/h
1204 21-11-2009 00:51:03 10.1 C 7.75 g/m*3 10.1 C 0 km/h
1205 21-11-2009 01:03:03 10.2 C 7.8 g/m*3 10.2 C 0 km/h
1206 21-11-2009 01:15:03 10.4 C 7.9 g/m*3 10.4 C 0 km/h
1207 21-11-2009 01:27:03 10.2 C 7.71 g/m*3 10.2 C 0 km/h
1208 21-11-2009 01:39:03 10.1 C 7.75 g/m*3 10.1 C 0 km/h
1209 21-11-2009 01:51:03 10.2 C 7.8 g/m*3 10.2 C 0 km/h
1210 21-11-2009 02:03:03 10 C 7.8 g/m*3 10 C 0 km/h
1211 21-11-2009 02:15:04 10 C 7.8 g/m*3 10 C 0 km/h
1212 21-11-2009 02:27:04 10.1 C 7.85 g/m*3 10.1 C 0 km/h
1213 21-11-2009 02:39:04 10 C 7.8 g/m*3 10 C 0 km/h
1214 21-11-2009 02:51:04 10.1 C 7.85 g/m*3 10.1 C 0 km/h
1215 21-11-2009 03:03:04 10.2 C 7.9 g/m*3 10.2 C 0 km/h
1216 21-11-2009 03:15:04 10.2 C 7.9 g/m*3 10.2 C 0 km/h
1217 21-11-2009 03:27:04 10.1 C 7.75 g/m*3 10.1 C 0 km/h
1218 21-11-2009 03:39:04 10 C 7.71 g/m*3 10 C 0 km/h
1219 21-11-2009 03:51:04 10 C 7.8 g/m*3 10 C 0 km/h
1220 21-11-2009 04:03:04 10.1 C 7.85 g/m*3 10.1 C 0 km/h
1221 21-11-2009 04:15:04 10.1 C 7.85 g/m*3 10.1 C 0 km/h
1222 21-11-2009 04:27:04 10.1 C 7.85 g/m*3 10.1 C 0 km/h
1223 21-11-2009 04:39:04 9.9 C 7.84 g/m*3 9.9 C 0 km/h
1224 21-11-2009 04:51:04 9.8 C 7.79 g/m*3 9.8 C 0 km/h
1225 21-11-2009 05:03:04 9.7 C 7.74 g/m*3 9.7 C 0 km/h
Sensor: Nr:Datum:Temp:Abs-Feuchte:Windchill:Wind:
Aussen-T/F 1226 21-11-2009 05:15:04 9.6 C 7.69 g/m*3 9.6 C 0 km/h
1227 21-11-2009 05:27:04 9.5 C 7.74 g/m*3 9.5 C 0 km/h
1228 21-11-2009 05:39:04 9.3 C 7.64 g/m*3 9.3 C 0 km/h
1229 21-11-2009 05:51:04 9.3 C 7.64 g/m*3 9.3 C 0 km/h
1230 21-11-2009 06:03:05 9.4 C 7.78 g/m*3 9.4 C 0 km/h
1231 21-11-2009 06:15:05 9.4 C 7.78 g/m*3 9.4 C 0 km/h
1232 21-11-2009 06:27:05 9.3 C 7.73 g/m*3 9.3 C 0 km/h
1233 21-11-2009 06:39:05 9.3 C 7.73 g/m*3 9.3 C 0 km/h
1234 21-11-2009 06:51:05 9.3 C 7.73 g/m*3 9.3 C 0 km/h
1235 21-11-2009 07:03:05 9.3 C 7.82 g/m*3 9.3 C 0 km/h
1236 21-11-2009 07:15:05 9.5 C 7.92 g/m*3 9.5 C 0 km/h
1237 21-11-2009 07:27:05 9.5 C 8.01 g/m*3 9.5 C 0 km/h
1238 21-11-2009 07:39:03 9.3 C 7.91 g/m*3 9.3 C 0 km/h
1239 21-11-2009 07:51:02 9.3 C 8 g/m*3 9.3 C 0 km/h
1240 21-11-2009 08:03:02 9.4 C 8.05 g/m*3 9.4 C 0 km/h
1241 21-11-2009 08:15:02 9.3 C 8 g/m*3 9.3 C 0 km/h
1242 21-11-2009 08:27:02 9.4 C 8.14 g/m*3 9.4 C 0 km/h
1243 21-11-2009 08:39:02 9.5 C 8.19 g/m*3 9.5 C 0 km/h
1244 21-11-2009 08:51:02 9.5 C 8.19 g/m*3 9.5 C 0 km/h
1245 21-11-2009 09:03:02 9.6 C 8.24 g/m*3 9.6 C 0 km/h
1246 21-11-2009 09:15:02 9.7 C 8.3 g/m*3 9.7 C 0 km/h
1247 21-11-2009 09:27:02 9.8 C 8.35 g/m*3 9.8 C 0 km/h
1248 21-11-2009 09:39:02 10 C 8.36 g/m*3 10 C 0 km/h
1249 21-11-2009 09:51:02 10 C 8.27 g/m*3 10 C 0 km/h
1250 21-11-2009 10:03:02 10.1 C 8.32 g/m*3 10.1 C 0 km/h
Sensor: Nr:Datum:Temp:Abs-Feuchte:Windchill:Wind:
Aussen-T/F 1251 21-11-2009 10:15:02 10.3 C 8.43 g/m*3 10.3 C 0 km/h
1252 21-11-2009 10:27:02 10.4 C 8.48 g/m*3 10.4 C 0 km/h
1253 21-11-2009 10:39:02 10.5 C 8.53 g/m*3 10.5 C 0 km/h
1254 21-11-2009 10:51:01 10.7 C 8.64 g/m*3 10.7 C 0 km/h
1255 21-11-2009 11:03:01 11.2 C 8.92 g/m*3 11.2 C 0 km/h
1256 21-11-2009 11:15:01 11.7 C 8.99 g/m*3 11.7 C 0 km/h
1257 21-11-2009 11:27:01 12.2 C 9.17 g/m*3 12.2 C 0 km/h
1258 21-11-2009 11:39:01 12.7 C 9.02 g/m*3 12.7 C 0 km/h
1259 21-11-2009 11:51:01 13 C 8.85 g/m*3 13 C 0 km/h
1260 21-11-2009 12:03:01 13.2 C 8.5 g/m*3 13.2 C 0 km/h
1261 21-11-2009 12:15:02 13.8 C 8.46 g/m*3 13.8 C 0 km/h
1262 21-11-2009 12:27:02 14 C 8.32 g/m*3 14 C 0 km/h
1263 21-11-2009 12:39:01 14.2 C 8.43 g/m*3 14.2 C 0 km/h
1264 21-11-2009 12:51:01 14.2 C 8.3 g/m*3 14.2 C 0 km/h
1265 21-11-2009 13:03:01 14.3 C 8.48 g/m*3 14.3 C 0 km/h
1266 21-11-2009 13:15:02 14.3 C 8.35 g/m*3 14.3 C 0 km/h
1267 21-11-2009 13:27:02 14.4 C 8.53 g/m*3 14.4 C 0 km/h
1268 21-11-2009 13:39:01 14.6 C 8.76 g/m*3 14.6 C 0 km/h
1269 21-11-2009 13:51:03 14.5 C 8.71 g/m*3 14.5 C 0 km/h
1270 21-11-2009 14:03:02 14.5 C 8.46 g/m*3 14.5 C 0 km/h
1271 21-11-2009 14:15:02 14.9 C 7.9 g/m*3 14.9 C 0 km/h
1272 21-11-2009 14:27:02 15.6 C 7.58 g/m*3 15.6 C 0 km/h
1273 21-11-2009 14:39:02 15.6 C 7.05 g/m*3 15.6 C 0 km/h
1274 21-11-2009 14:51:02 15.4 C 7.49 g/m*3 15.4 C 0 km/h
1275 21-11-2009 15:03:02 15.3 C 7.84 g/m*3 15.3 C 0 km/h
Sensor: Nr:Datum:Temp:Abs-Feuchte:Windchill:Wind:
Aussen-T/F 1276 21-11-2009 15:15:02 15.1 C 7.74 g/m*3 15.1 C 0 km/h
1277 21-11-2009 15:27:03 15.1 C 7.61 g/m*3 15.1 C 0 km/h
1278 21-11-2009 15:39:02 14.9 C 7.77 g/m*3 14.9 C 0 km/h
1279 21-11-2009 15:51:02 14.6 C 7.76 g/m*3 14.6 C 0 km/h
1280 21-11-2009 16:03:01 14.4 C 7.66 g/m*3 14.4 C 0 km/h
1281 21-11-2009 16:15:02 14.3 C 7.49 g/m*3 14.3 C 0 km/h
1282 21-11-2009 16:27:02 14.3 C 7.25 g/m*3 14.3 C 0 km/h
1283 21-11-2009 16:39:02 14.1 C 7.16 g/m*3 14.1 C 0 km/h
1284 21-11-2009 16:51:02 14 C 7.24 g/m*3 14 C 0 km/h
1285 21-11-2009 17:03:02 14 C 7.12 g/m*3 14 C 0 km/h
1286 21-11-2009 17:15:02 13.7 C 7.22 g/m*3 13.7 C 0 km/h
1287 21-11-2009 17:27:02 13.3 C 7.16 g/m*3 13.3 C 0 km/h
1288 21-11-2009 17:39:03 13.1 C 7.19 g/m*3 13.1 C 0 km/h
1289 21-11-2009 17:51:02 13 C 7.14 g/m*3 13 C 0 km/h
1290 21-11-2009 18:03:02 12.9 C 7.21 g/m*3 12.9 C 0 km/h
1291 21-11-2009 18:15:02 12.6 C 7.19 g/m*3 12.6 C 0 km/h
1292 21-11-2009 18:27:02 12.5 C 7.15 g/m*3 12.5 C 0 km/h
1293 21-11-2009 18:39:02 12.4 C 7.21 g/m*3 12.4 C 0 km/h
1294 21-11-2009 18:51:02 12.4 C 7.21 g/m*3 12.4 C 0 km/h
1295 21-11-2009 19:03:02 12.6 C 7.3 g/m*3 12.6 C 0 km/h
1296 21-11-2009 19:15:02 12.5 C 7.26 g/m*3 12.5 C 0 km/h
1297 21-11-2009 19:27:02 12.4 C 7.21 g/m*3 12.4 C 0 km/h
1298 21-11-2009 19:39:02 12.3 C 7.28 g/m*3 12.3 C 0 km/h
1299 21-11-2009 19:51:01 12.1 C 7.29 g/m*3 12.1 C 0 km/h
1300 21-11-2009 20:03:02 12.1 C 7.18 g/m*3 12.1 C 0 km/h
Sensor: Nr:Datum:Temp:Abs-Feuchte:Windchill:Wind:
Aussen-T/F 1301 21-11-2009 20:15:01 12.2 C 7.12 g/m*3 12.2 C 0 km/h
1302 21-11-2009 20:27:01 12.2 C 7.12 g/m*3 12.2 C 0 km/h
1303 21-11-2009 20:39:02 12.2 C 7.01 g/m*3 12.2 C 0 km/h
1304 21-11-2009 20:51:02 12.2 C 7.01 g/m*3 12.2 C 0 km/h
1305 21-11-2009 21:03:02 12.1 C 6.97 g/m*3 12.1 C 0 km/h
1306 21-11-2009 21:15:02 12.2 C 6.91 g/m*3 12.2 C 0 km/h
1307 21-11-2009 21:27:02 12.2 C 6.91 g/m*3 12.2 C 0 km/h
1308 21-11-2009 21:39:01 12.1 C 6.86 g/m*3 12.1 C 0 km/h
1309 21-11-2009 21:51:01 12.1 C 6.97 g/m*3 12.1 C 0 km/h
1310 21-11-2009 22:03:02 12.5 C 6.82 g/m*3 12.5 C 0 km/h
1311 21-11-2009 22:16:03 12.7 C 6.68 g/m*3 12.7 C 0 km/h
1312 21-11-2009 22:28:03 12.4 C 6.77 g/m*3 12.4 C 0 km/h
1313 21-11-2009 22:40:03 12.2 C 6.91 g/m*3 12.2 C 0 km/h
1314 21-11-2009 22:52:03 12 C 6.93 g/m*3 12 C 0 km/h
1315 21-11-2009 23:04:03 11.9 C 7.1 g/m*3 11.9 C 0 km/h
1316 21-11-2009 23:16:03 11.9 C 7.1 g/m*3 11.9 C 0 km/h
1317 21-11-2009 23:28:03 12 C 6.93 g/m*3 12 C 0 km/h
1318 21-11-2009 23:40:03 12.1 C 6.86 g/m*3 12.1 C 0 km/h
1319 21-11-2009 23:52:03 12.1 C 7.08 g/m*3 12.1 C 0 km/h
1320 22-11-2009 00:04:03 11.8 C 7.16 g/m*3 11.8 C 0 km/h
1321 22-11-2009 00:16:03 11.7 C 7.22 g/m*3 11.7 C 0 km/h
1322 22-11-2009 00:28:03 11.7 C 7.32 g/m*3 11.7 C 0 km/h
1323 22-11-2009 00:40:03 11.6 C 7.28 g/m*3 11.6 C 0 km/h
1324 22-11-2009 00:52:03 11.3 C 7.24 g/m*3 11.3 C 0 km/h
1325 22-11-2009 01:04:03 11.3 C 7.45 g/m*3 11.3 C 0 km/h
Sensor: Nr:Datum:Temp:Abs-Feuchte:Windchill:Wind:
Aussen-T/F 1326 22-11-2009 01:16:03 11.1 C 7.45 g/m*3 11.1 C 0 km/h
1327 22-11-2009 01:28:03 11 C 7.51 g/m*3 11 C 0 km/h
1328 22-11-2009 01:40:03 10.9 C 7.66 g/m*3 10.9 C 0 km/h
1329 22-11-2009 01:52:03 10.8 C 7.61 g/m*3 10.8 C 0 km/h
1330 22-11-2009 02:04:03 10.7 C 7.66 g/m*3 10.7 C 0 km/h
1331 22-11-2009 02:16:04 10.6 C 7.61 g/m*3 10.6 C 0 km/h
1332 22-11-2009 02:28:04 10.6 C 7.52 g/m*3 10.6 C 0 km/h
1333 22-11-2009 02:40:04 10.7 C 7.46 g/m*3 10.7 C 0 km/h
1334 22-11-2009 02:52:04 11.4 C 6.98 g/m*3 11.4 C 0 km/h
1335 22-11-2009 03:04:04 11.8 C 6.74 g/m*3 11.8 C 0 km/h
1336 22-11-2009 03:16:04 11.8 C 6.63 g/m*3 11.8 C 0 km/h
1337 22-11-2009 03:28:04 11.3 C 6.83 g/m*3 11.3 C 0 km/h
1338 22-11-2009 03:40:04 11 C 6.91 g/m*3 11 C 0 km/h
1339 22-11-2009 03:52:04 10.9 C 6.96 g/m*3 10.9 C 0 km/h
1340 22-11-2009 04:04:04 10.8 C 7.02 g/m*3 10.8 C 0 km/h
1341 22-11-2009 04:16:04 10.6 C 7.03 g/m*3 10.6 C 0 km/h
1342 22-11-2009 04:28:04 10.4 C 7.04 g/m*3 10.4 C 0 km/h
1343 22-11-2009 04:40:04 10.4 C 7.13 g/m*3 10.4 C 0 km/h
1344 22-11-2009 04:52:04 10.3 C 7.09 g/m*3 10.3 C 0 km/h
1345 22-11-2009 05:04:04 10.3 C 7.09 g/m*3 10.3 C 0 km/h
1346 22-11-2009 05:16:04 10.2 C 7.04 g/m*3 10.2 C 0 km/h
1347 22-11-2009 05:28:04 10.2 C 7.04 g/m*3 10.2 C 0 km/h
1348 22-11-2009 05:40:04 10.1 C 7.09 g/m*3 10.1 C 0 km/h
1349 22-11-2009 05:52:04 10.1 C 7.09 g/m*3 10.1 C 0 km/h
1350 22-11-2009 06:04:04 10.1 C 7.19 g/m*3 10.1 C 0 km/h
Sensor: Nr:Datum:Temp:Abs-Feuchte:Windchill:Wind:
Aussen-T/F 1351 22-11-2009 06:16:05 10 C 7.24 g/m*3 10 C 0 km/h
1352 22-11-2009 06:28:05 10 C 7.24 g/m*3 10 C 0 km/h
1353 22-11-2009 06:40:05 9.9 C 7.38 g/m*3 9.9 C 0 km/h
1354 22-11-2009 06:52:05 9.9 C 7.38 g/m*3 9.9 C 0 km/h
1355 22-11-2009 07:04:05 9.9 C 7.28 g/m*3 9.9 C 0 km/h
1356 22-11-2009 07:16:05 9.9 C 7.28 g/m*3 9.9 C 0 km/h
1357 22-11-2009 07:28:05 9.7 C 7.28 g/m*3 9.7 C 0 km/h
1358 22-11-2009 07:40:05 9.8 C 7.33 g/m*3 9.8 C 0 km/h
1359 22-11-2009 07:52:05 9.8 C 7.33 g/m*3 9.8 C 0 km/h
1360 22-11-2009 08:04:02 10.2 C 7.52 g/m*3 10.2 C 0 km/h
1361 22-11-2009 08:16:03 11 C 7.41 g/m*3 11 C 0 km/h
1362 22-11-2009 08:28:03 11.5 C 7.44 g/m*3 11.5 C 0 km/h
1363 22-11-2009 08:40:02 12.3 C 7.38 g/m*3 12.3 C 0 km/h
1364 22-11-2009 08:52:02 13.5 C 7.37 g/m*3 13.5 C 0 km/h
1365 22-11-2009 09:04:02 14.1 C 7.16 g/m*3 14.1 C 0 km/h
1366 22-11-2009 09:16:03 14 C 7.24 g/m*3 14 C 0 km/h
1367 22-11-2009 09:28:03 13.9 C 7.31 g/m*3 13.9 C 0 km/h
1368 22-11-2009 09:40:02 13.9 C 7.43 g/m*3 13.9 C 0 km/h
1369 22-11-2009 09:52:03 13.7 C 7.22 g/m*3 13.7 C 0 km/h
1370 22-11-2009 10:04:02 13.6 C 7.18 g/m*3 13.6 C 0 km/h
1371 22-11-2009 10:16:02 13.7 C 6.87 g/m*3 13.7 C 0 km/h
1372 22-11-2009 10:28:02 14 C 6.51 g/m*3 14 C 0 km/h
1373 22-11-2009 10:40:02 14.1 C 6.19 g/m*3 14.1 C 0 km/h
1374 22-11-2009 10:52:01 14.1 C 6.07 g/m*3 14.1 C 0 km/h
1375 22-11-2009 11:04:02 14 C 6.03 g/m*3 14 C 0 km/h
Sensor: Nr:Datum:Temp:Abs-Feuchte:Windchill:Wind:
Aussen-T/F 1376 22-11-2009 11:16:01 13.9 C 6.11 g/m*3 13.9 C 0 km/h
1377 22-11-2009 11:28:01 13.9 C 5.99 g/m*3 13.9 C 0 km/h
1378 22-11-2009 11:40:01 14 C 5.91 g/m*3 14 C 0 km/h
1379 22-11-2009 11:52:01 13.6 C 6 g/m*3 13.6 C 0 km/h
1380 22-11-2009 12:04:02 13.6 C 6 g/m*3 13.6 C 0 km/h
1381 22-11-2009 12:16:01 13.7 C 6.04 g/m*3 13.7 C 0 km/h
1382 22-11-2009 12:28:01 13.8 C 6.08 g/m*3 13.8 C 0 km/h
1383 22-11-2009 12:40:02 13.7 C 6.04 g/m*3 13.7 C 0 km/h
1384 22-11-2009 12:52:01 13.8 C 6.2 g/m*3 13.8 C 0 km/h
1385 22-11-2009 13:04:02 13.7 C 6.04 g/m*3 13.7 C 0 km/h
1386 22-11-2009 13:16:02 13.8 C 6.08 g/m*3 13.8 C 0 km/h
1387 22-11-2009 13:28:02 13.8 C 5.96 g/m*3 13.8 C 0 km/h
1388 22-11-2009 13:40:01 13.8 C 5.96 g/m*3 13.8 C 0 km/h
1389 22-11-2009 13:52:01 14 C 5.79 g/m*3 14 C 0 km/h
1390 22-11-2009 14:04:02 13.9 C 5.75 g/m*3 13.9 C 0 km/h
1391 22-11-2009 14:16:02 14 C 5.67 g/m*3 14 C 0 km/h
1392 22-11-2009 14:28:02 14 C 5.67 g/m*3 14 C 0 km/h
1393 22-11-2009 14:40:01 14.1 C 5.58 g/m*3 14.1 C 0 km/h
1394 22-11-2009 14:52:01 14 C 5.55 g/m*3 14 C 0 km/h
1395 22-11-2009 15:04:01 13.6 C 5.41 g/m*3 13.6 C 0 km/h
1396 22-11-2009 15:16:02 13.3 C 5.55 g/m*3 13.3 C 0 km/h
1397 22-11-2009 15:28:02 13.3 C 5.55 g/m*3 13.3 C 0 km/h
1398 22-11-2009 15:40:01 13.2 C 5.4 g/m*3 13.2 C 0 km/h
1399 22-11-2009 15:52:02 13 C 5.44 g/m*3 13 C 0 km/h
1400 22-11-2009 16:04:01 12.9 C 5.52 g/m*3 12.9 C 0 km/h
Sensor: Nr:Datum:Temp:Abs-Feuchte:Windchill:Wind:
Aussen-T/F 1401 22-11-2009 16:16:02 13 C 5.56 g/m*3 13 C 0 km/h
1402 22-11-2009 16:28:02 12.9 C 5.64 g/m*3 12.9 C 0 km/h
1403 22-11-2009 16:40:01 12.5 C 5.61 g/m*3 12.5 C 0 km/h
1404 22-11-2009 16:52:02 12 C 5.54 g/m*3 12 C 0 km/h
1405 22-11-2009 17:04:02 11.7 C 5.65 g/m*3 11.7 C 0 km/h
1406 22-11-2009 17:16:02 11.6 C 5.72 g/m*3 11.6 C 0 km/h
1407 22-11-2009 17:28:02 11.5 C 5.68 g/m*3 11.5 C 0 km/h
1408 22-11-2009 17:40:02 11.5 C 5.68 g/m*3 11.5 C 0 km/h
1409 22-11-2009 17:52:02 11.6 C 5.72 g/m*3 11.6 C 0 km/h
1410 22-11-2009 18:04:02 11.5 C 5.68 g/m*3 11.5 C 0 km/h
1411 22-11-2009 18:16:02 11.5 C 5.58 g/m*3 11.5 C 0 km/h
1412 22-11-2009 18:28:02 11.8 C 5.58 g/m*3 11.8 C 0 km/h
1413 22-11-2009 18:40:02 11.8 C 5.58 g/m*3 11.8 C 0 km/h
1414 22-11-2009 18:52:01 11.8 C 5.47 g/m*3 11.8 C 0 km/h
1415 22-11-2009 19:04:02 11.8 C 5.37 g/m*3 11.8 C 0 km/h
1416 22-11-2009 19:16:02 12 C 5.44 g/m*3 12 C 0 km/h
1417 22-11-2009 19:28:02 11.8 C 5.47 g/m*3 11.8 C 0 km/h
1418 22-11-2009 19:40:02 12.2 C 5.5 g/m*3 12.2 C 0 km/h
1419 22-11-2009 19:52:02 12.7 C 5.57 g/m*3 12.7 C 0 km/h
1420 22-11-2009 20:04:02 12.4 C 6.12 g/m*3 12.4 C 0 km/h
1421 22-11-2009 20:16:02 10.8 C 6.92 g/m*3 10.8 C 0 km/h
1422 22-11-2009 20:28:02 10.5 C 6.89 g/m*3 10.5 C 0 km/h
1423 22-11-2009 20:40:01 10.7 C 6.68 g/m*3 10.7 C 0 km/h
1424 22-11-2009 20:52:02 10.7 C 6.58 g/m*3 10.7 C 0 km/h
1425 22-11-2009 21:04:02 10.7 C 6.38 g/m*3 10.7 C 0 km/h
Sensor: Nr:Datum:Temp:Abs-Feuchte:Windchill:Wind:
Aussen-T/F 1426 22-11-2009 21:16:02 10.8 C 6.13 g/m*3 10.8 C 0 km/h
1427 22-11-2009 21:28:02 11 C 5.71 g/m*3 11 C 0 km/h
1428 22-11-2009 21:40:01 10.7 C 5.7 g/m*3 10.7 C 0 km/h
1429 22-11-2009 21:52:02 10.9 C 5.77 g/m*3 10.9 C 0 km/h
1430 22-11-2009 22:04:01 10.8 C 5.54 g/m*3 10.8 C 0 km/h
1431 22-11-2009 22:17:02 10.8 C 5.44 g/m*3 10.8 C 0 km/h
1432 22-11-2009 22:29:02 10.6 C 5.27 g/m*3 10.6 C 0 km/h
1433 22-11-2009 22:41:02 10.7 C 5.3 g/m*3 10.7 C 0 km/h
1434 22-11-2009 22:53:02 9.9 C 5.98 g/m*3 9.9 C 0 km/h
1435 22-11-2009 23:05:02 9.8 C 6.03 g/m*3 9.8 C 0 km/h
1436 22-11-2009 23:17:02 10.3 C 5.75 g/m*3 10.3 C 0 km/h
1437 22-11-2009 23:29:02 10.7 C 5.5 g/m*3 10.7 C 0 km/h
1438 22-11-2009 23:41:02 10.4 C 5.49 g/m*3 10.4 C 0 km/h
1439 22-11-2009 23:53:02 10.2 C 5.52 g/m*3 10.2 C 0 km/h
1440 23-11-2009 00:05:02 10.1 C 5.39 g/m*3 10.1 C 0 km/h
1441 23-11-2009 00:17:02 10.3 C 5.36 g/m*3 10.3 C 0 km/h
1442 23-11-2009 00:29:02 10.4 C 5.4 g/m*3 10.4 C 0 km/h
1443 23-11-2009 00:41:02 10.3 C 5.36 g/m*3 10.3 C 0 km/h
1444 23-11-2009 00:53:02 10.5 C 5.53 g/m*3 10.5 C 0 km/h
1445 23-11-2009 01:05:03 8.9 C 6.48 g/m*3 8.9 C 0 km/h
1446 23-11-2009 01:17:03 8.3 C 6.66 g/m*3 8.3 C 0 km/h
1447 23-11-2009 01:29:03 8.4 C 6.62 g/m*3 8.4 C 0 km/h
1448 23-11-2009 01:41:03 9.1 C 6.39 g/m*3 9.1 C 0 km/h
1449 23-11-2009 01:53:03 9.1 C 6.21 g/m*3 9.1 C 0 km/h
1450 23-11-2009 02:05:03 9 C 6.17 g/m*3 9 C 0 km/h
Sensor: Nr:Datum:Temp:Abs-Feuchte:Windchill:Wind:
Aussen-T/F 1451 23-11-2009 02:17:03 9.1 C 6.21 g/m*3 9.1 C 0 km/h
1452 23-11-2009 02:29:03 8.5 C 6.4 g/m*3 8.5 C 0 km/h
1453 23-11-2009 02:41:03 8.2 C 6.28 g/m*3 8.2 C 0 km/h
1454 23-11-2009 02:53:03 8.3 C 6.15 g/m*3 8.3 C 0 km/h
1455 23-11-2009 03:05:03 8.5 C 6.06 g/m*3 8.5 C 0 km/h
1456 23-11-2009 03:17:03 8.6 C 6.1 g/m*3 8.6 C 0 km/h
1457 23-11-2009 03:29:03 8.5 C 6.06 g/m*3 8.5 C 0 km/h
1458 23-11-2009 03:41:03 8.5 C 6.15 g/m*3 8.5 C 0 km/h
1459 23-11-2009 03:53:03 8.5 C 5.98 g/m*3 8.5 C 0 km/h
1460 23-11-2009 04:05:03 8.6 C 5.76 g/m*3 8.6 C 0 km/h
1461 23-11-2009 04:17:03 8.7 C 5.79 g/m*3 8.7 C 0 km/h
1462 23-11-2009 04:29:03 8.7 C 5.88 g/m*3 8.7 C 0 km/h
1463 23-11-2009 04:41:03 8.6 C 5.93 g/m*3 8.6 C 0 km/h
1464 23-11-2009 04:53:03 8.9 C 5.87 g/m*3 8.9 C 0 km/h
1465 23-11-2009 05:05:04 8.9 C 5.87 g/m*3 8.9 C 0 km/h
1466 23-11-2009 05:17:04 8.6 C 5.93 g/m*3 8.6 C 0 km/h
1467 23-11-2009 05:29:04 8.8 C 5.92 g/m*3 8.8 C 0 km/h
1468 23-11-2009 05:41:04 8.8 C 5.92 g/m*3 8.8 C 0 km/h
1469 23-11-2009 05:53:04 8.7 C 6.05 g/m*3 8.7 C 0 km/h
1470 23-11-2009 06:05:04 8.9 C 6.04 g/m*3 8.9 C 0 km/h
1471 23-11-2009 06:17:04 8.9 C 5.96 g/m*3 8.9 C 0 km/h
1472 23-11-2009 06:29:04 9.1 C 5.86 g/m*3 9.1 C 0 km/h
1473 23-11-2009 06:41:04 9.1 C 5.86 g/m*3 9.1 C 0 km/h
1474 23-11-2009 06:53:04 9.2 C 5.8 g/m*3 9.2 C 0 km/h
1475 23-11-2009 07:05:02 9 C 5.99 g/m*3 9 C 0 km/h
Sensor: Nr:Datum:Temp:Abs-Feuchte:Windchill:Wind:
Aussen-T/F 1476 23-11-2009 07:17:01 8.8 C 6.18 g/m*3 8.8 C 0 km/h
1477 23-11-2009 07:29:01 8.8 C 6.18 g/m*3 8.8 C 0 km/h
1478 23-11-2009 07:41:01 8.9 C 6.22 g/m*3 8.9 C 0 km/h
1479 23-11-2009 07:53:01 9.2 C 6.16 g/m*3 9.2 C 0 km/h
1480 23-11-2009 08:05:02 9.1 C 6.21 g/m*3 9.1 C 0 km/h
1481 23-11-2009 08:17:01 9.3 C 6.11 g/m*3 9.3 C 0 km/h
1482 23-11-2009 08:29:01 9.5 C 6.01 g/m*3 9.5 C 0 km/h
1483 23-11-2009 08:41:01 9.6 C 5.95 g/m*3 9.6 C 0 km/h
1484 23-11-2009 08:53:01 9.9 C 5.98 g/m*3 9.9 C 0 km/h
1485 23-11-2009 09:05:02 9.7 C 6.08 g/m*3 9.7 C 0 km/h
1486 23-11-2009 09:17:02 9.8 C 6.22 g/m*3 9.8 C 0 km/h
1487 23-11-2009 09:29:02 9.8 C 6.31 g/m*3 9.8 C 0 km/h
1488 23-11-2009 09:41:01 10.1 C 6.15 g/m*3 10.1 C 0 km/h
1489 23-11-2009 09:53:01 10.3 C 6.13 g/m*3 10.3 C 0 km/h
1490 23-11-2009 10:05:02 10.5 C 6.11 g/m*3 10.5 C 0 km/h
1491 23-11-2009 10:17:01 10.5 C 6.11 g/m*3 10.5 C 0 km/h
1492 23-11-2009 10:29:01 10.5 C 6.01 g/m*3 10.5 C 0 km/h
1493 23-11-2009 10:41:02 10.4 C 6.26 g/m*3 10.4 C 0 km/h
1494 23-11-2009 10:53:02 10.1 C 6.43 g/m*3 10.1 C 0 km/h
1495 23-11-2009 11:05:02 10.5 C 6.5 g/m*3 10.5 C 0 km/h
1496 23-11-2009 11:17:01 10.7 C 6.48 g/m*3 10.7 C 0 km/h
1497 23-11-2009 11:29:01 10.9 C 6.47 g/m*3 10.9 C 0 km/h
1498 23-11-2009 11:41:02 11 C 6.51 g/m*3 11 C 0 km/h
1499 23-11-2009 11:53:02 11 C 6.51 g/m*3 11 C 0 km/h
1500 23-11-2009 12:05:02 11.1 C 6.65 g/m*3 11.1 C 0 km/h
Sensor: Nr:Datum:Temp:Abs-Feuchte:Windchill:Wind:
Aussen-T/F 1501 23-11-2009 12:17:01 11.3 C 6.73 g/m*3 11.3 C 0 km/h
1502 23-11-2009 12:29:01 11.2 C 6.69 g/m*3 11.2 C 0 km/h
1503 23-11-2009 12:41:02 11.3 C 6.73 g/m*3 11.3 C 0 km/h
1504 23-11-2009 12:53:02 11.2 C 6.89 g/m*3 11.2 C 0 km/h
1505 23-11-2009 13:05:02 10.8 C 7.12 g/m*3 10.8 C 0 km/h
1506 23-11-2009 13:17:02 10.4 C 7.42 g/m*3 10.4 C 0 km/h
1507 23-11-2009 13:29:02 10.4 C 7.61 g/m*3 10.4 C 0 km/h
1508 23-11-2009 13:41:02 10.6 C 7.52 g/m*3 10.6 C 0 km/h
1509 23-11-2009 13:53:01 10.7 C 7.56 g/m*3 10.7 C 0 km/h
1510 23-11-2009 14:05:02 10.7 C 7.76 g/m*3 10.7 C 0 km/h
1511 23-11-2009 14:17:02 11 C 7.71 g/m*3 11 C 0 km/h
1512 23-11-2009 14:29:02 11.1 C 7.76 g/m*3 11.1 C 0 km/h
1513 23-11-2009 14:41:02 11.3 C 7.75 g/m*3 11.3 C 0 km/h
1514 23-11-2009 14:53:02 11.5 C 7.85 g/m*3 11.5 C 0 km/h
1515 23-11-2009 15:05:02 11.5 C 7.85 g/m*3 11.5 C 0 km/h
1516 23-11-2009 15:17:02 11.4 C 8.01 g/m*3 11.4 C 0 km/h
1517 23-11-2009 15:29:03 11.5 C 8.06 g/m*3 11.5 C 0 km/h
1518 23-11-2009 15:41:01 11.1 C 7.96 g/m*3 11.1 C 0 km/h
1519 23-11-2009 15:53:02 11.1 C 8.16 g/m*3 11.1 C 0 km/h
1520 23-11-2009 16:05:01 11.2 C 8.11 g/m*3 11.2 C 0 km/h
1521 23-11-2009 16:17:02 11.3 C 8.06 g/m*3 11.3 C 0 km/h
1522 23-11-2009 16:29:02 11.1 C 8.06 g/m*3 11.1 C 0 km/h
1523 23-11-2009 16:41:02 11.2 C 8.11 g/m*3 11.2 C 0 km/h
1524 23-11-2009 16:53:02 11.2 C 8.11 g/m*3 11.2 C 0 km/h
1525 23-11-2009 17:05:02 11.1 C 8.16 g/m*3 11.1 C 0 km/h
Sensor: Nr:Datum:Temp:Abs-Feuchte:Windchill:Wind:
Aussen-T/F 1526 23-11-2009 17:17:02 11 C 8.21 g/m*3 11 C 0 km/h
1527 23-11-2009 17:29:02 10.8 C 8.2 g/m*3 10.8 C 0 km/h
1528 23-11-2009 17:41:03 10.9 C 8.26 g/m*3 10.9 C 0 km/h
1529 23-11-2009 17:53:02 11.1 C 8.16 g/m*3 11.1 C 0 km/h
1530 23-11-2009 18:05:02 11.5 C 8.16 g/m*3 11.5 C 0 km/h
1531 23-11-2009 18:17:01 11.6 C 8 g/m*3 11.6 C 0 km/h
1532 23-11-2009 18:29:01 11.7 C 7.84 g/m*3 11.7 C 0 km/h
1533 23-11-2009 18:41:02 11.8 C 7.79 g/m*3 11.8 C 0 km/h
1534 23-11-2009 18:53:02 11.9 C 7.73 g/m*3 11.9 C 0 km/h
1535 23-11-2009 19:05:02 11.7 C 7.84 g/m*3 11.7 C 0 km/h
1536 23-11-2009 19:17:02 11.7 C 7.84 g/m*3 11.7 C 0 km/h
1537 23-11-2009 19:29:02 11.8 C 7.89 g/m*3 11.8 C 0 km/h
1538 23-11-2009 19:41:02 11.7 C 7.74 g/m*3 11.7 C 0 km/h
1539 23-11-2009 19:53:02 11.7 C 7.84 g/m*3 11.7 C 0 km/h
1540 23-11-2009 20:05:02 11.9 C 7.84 g/m*3 11.9 C 0 km/h
1541 23-11-2009 20:17:02 11.8 C 7.89 g/m*3 11.8 C 0 km/h
1542 23-11-2009 20:29:02 11.9 C 7.94 g/m*3 11.9 C 0 km/h
1543 23-11-2009 20:41:02 11.6 C 8 g/m*3 11.6 C 0 km/h
1544 23-11-2009 20:53:01 11.5 C 8.06 g/m*3 11.5 C 0 km/h
1545 23-11-2009 21:05:02 11.4 C 8.21 g/m*3 11.4 C 0 km/h
1546 23-11-2009 21:17:01 11.4 C 8.31 g/m*3 11.4 C 0 km/h
1547 23-11-2009 21:29:01 11.4 C 8.42 g/m*3 11.4 C 0 km/h
1548 23-11-2009 21:41:02 11.5 C 8.37 g/m*3 11.5 C 0 km/h
1549 23-11-2009 21:53:02 11.5 C 8.26 g/m*3 11.5 C 0 km/h
1550 23-11-2009 22:06:04 11.8 C 8.1 g/m*3 11.8 C 0 km/h
Sensor: Nr:Datum:Temp:Abs-Feuchte:Windchill:Wind:
Aussen-T/F 1551 23-11-2009 22:18:04 12 C 7.99 g/m*3 12 C 0 km/h
1552 23-11-2009 22:30:04 12.2 C 7.99 g/m*3 12.2 C 0 km/h
1553 23-11-2009 22:42:04 12.1 C 8.04 g/m*3 12.1 C 0 km/h
1554 23-11-2009 22:54:04 11.8 C 8.1 g/m*3 11.8 C 0 km/h
1555 23-11-2009 23:06:04 11.2 C 8.31 g/m*3 11.2 C 0 km/h
1556 23-11-2009 23:18:04 10.6 C 8.1 g/m*3 10.6 C 0 km/h
1557 23-11-2009 23:30:04 10.3 C 7.95 g/m*3 10.3 C 0 km/h
1558 23-11-2009 23:42:04 10.5 C 7.66 g/m*3 10.5 C 0 km/h
1559 23-11-2009 23:54:04 11 C 7.01 g/m*3 11 C 0 km/h
1560 24-11-2009 00:06:04 11.1 C 6.45 g/m*3 11.1 C 0 km/h
1561 24-11-2009 00:18:04 10.8 C 6.52 g/m*3 10.8 C 0 km/h
1562 24-11-2009 00:30:04 11 C 6.31 g/m*3 11 C 0 km/h
1563 24-11-2009 00:42:04 11.3 C 6.12 g/m*3 11.3 C 0 km/h
1564 24-11-2009 00:54:04 11.5 C 6.2 g/m*3 11.5 C 0 km/h
1565 24-11-2009 01:06:04 11.2 C 6.28 g/m*3 11.2 C 0 km/h
1566 24-11-2009 01:18:04 11.1 C 6.25 g/m*3 11.1 C 0 km/h
1567 24-11-2009 01:30:05 11 C 6.41 g/m*3 11 C 0 km/h
1568 24-11-2009 01:42:05 11.1 C 6.55 g/m*3 11.1 C 0 km/h
1569 24-11-2009 01:54:05 11.1 C 6.45 g/m*3 11.1 C 0 km/h
1570 24-11-2009 02:06:05 11.2 C 6.28 g/m*3 11.2 C 0 km/h
1571 24-11-2009 02:18:05 11.2 C 6.28 g/m*3 11.2 C 0 km/h
1572 24-11-2009 02:30:05 11 C 6.21 g/m*3 11 C 0 km/h
1573 24-11-2009 02:42:05 11 C 6.11 g/m*3 11 C 0 km/h
1574 24-11-2009 02:54:05 11 C 6.11 g/m*3 11 C 0 km/h
1575 24-11-2009 03:06:05 10.9 C 6.17 g/m*3 10.9 C 0 km/h
Sensor: Nr:Datum:Temp:Abs-Feuchte:Windchill:Wind:
Aussen-T/F 1576 24-11-2009 03:18:05 10.8 C 6.23 g/m*3 10.8 C 0 km/h
1577 24-11-2009 03:30:05 10.7 C 6.29 g/m*3 10.7 C 0 km/h
1578 24-11-2009 03:42:05 10.7 C 6.19 g/m*3 10.7 C 0 km/h
1579 24-11-2009 03:54:05 10.7 C 6.19 g/m*3 10.7 C 0 km/h
1580 24-11-2009 04:06:05 10.7 C 6.29 g/m*3 10.7 C 0 km/h
1581 24-11-2009 04:18:05 10.6 C 6.25 g/m*3 10.6 C 0 km/h
1582 24-11-2009 04:30:05 10.5 C 6.3 g/m*3 10.5 C 0 km/h
1583 24-11-2009 04:42:05 10.5 C 6.3 g/m*3 10.5 C 0 km/h
1584 24-11-2009 04:54:05 10.4 C 6.36 g/m*3 10.4 C 0 km/h
1585 24-11-2009 05:06:05 10.5 C 6.4 g/m*3 10.5 C 0 km/h
1586 24-11-2009 05:18:05 10.5 C 6.4 g/m*3 10.5 C 0 km/h
1587 24-11-2009 05:30:06 10.6 C 6.34 g/m*3 10.6 C 0 km/h
1588 24-11-2009 05:42:06 10.6 C 6.44 g/m*3 10.6 C 0 km/h
1589 24-11-2009 05:54:06 10.4 C 6.46 g/m*3 10.4 C 0 km/h
1590 24-11-2009 06:06:06 10.5 C 6.5 g/m*3 10.5 C 0 km/h
1591 24-11-2009 06:18:06 10.4 C 6.55 g/m*3 10.4 C 0 km/h
1592 24-11-2009 06:30:06 10.4 C 6.55 g/m*3 10.4 C 0 km/h
1593 24-11-2009 06:42:06 10.4 C 6.55 g/m*3 10.4 C 0 km/h
1594 24-11-2009 06:54:02 10.3 C 6.51 g/m*3 10.3 C 0 km/h
1595 24-11-2009 07:06:02 10.5 C 6.5 g/m*3 10.5 C 0 km/h
1596 24-11-2009 07:18:02 10.5 C 6.4 g/m*3 10.5 C 0 km/h
1597 24-11-2009 07:30:02 10.3 C 6.32 g/m*3 10.3 C 0 km/h
1598 24-11-2009 07:42:02 9.9 C 6.35 g/m*3 9.9 C 0 km/h
1599 24-11-2009 07:54:02 9.8 C 6.31 g/m*3 9.8 C 0 km/h
1600 24-11-2009 08:06:01 9.7 C 6.36 g/m*3 9.7 C 0 km/h
Sensor: Nr:Datum:Temp:Abs-Feuchte:Windchill:Wind:
Aussen-T/F 1601 24-11-2009 08:18:02 9.5 C 6.28 g/m*3 9.5 C 0 km/h
1602 24-11-2009 08:30:02 9.5 C 6.37 g/m*3 9.5 C 0 km/h
1603 24-11-2009 08:42:02 9.4 C 6.33 g/m*3 9.4 C 0 km/h
1604 24-11-2009 08:54:02 9.4 C 6.42 g/m*3 9.4 C 0 km/h
1605 24-11-2009 09:06:03 9.8 C 6.49 g/m*3 9.8 C 0 km/h
1606 24-11-2009 09:18:02 10 C 6.39 g/m*3 10 C 0 km/h
1607 24-11-2009 09:30:02 10 C 6.48 g/m*3 10 C 0 km/h
1608 24-11-2009 09:42:02 10.1 C 6.62 g/m*3 10.1 C 0 km/h
1609 24-11-2009 09:54:01 10.2 C 6.66 g/m*3 10.2 C 0 km/h
1610 24-11-2009 10:06:01 10.4 C 6.84 g/m*3 10.4 C 0 km/h
1611 24-11-2009 10:18:01 10.5 C 6.98 g/m*3 10.5 C 0 km/h
1612 24-11-2009 10:30:01 10.3 C 6.99 g/m*3 10.3 C 0 km/h
1613 24-11-2009 10:42:02 10.3 C 7.37 g/m*3 10.3 C 0 km/h
1614 24-11-2009 10:54:02 10.6 C 7.61 g/m*3 10.6 C 0 km/h
1615 24-11-2009 11:06:02 11 C 7.71 g/m*3 11 C 0 km/h
1616 24-11-2009 11:18:02 11.1 C 7.76 g/m*3 11.1 C 0 km/h
1617 24-11-2009 11:30:02 11.4 C 7.9 g/m*3 11.4 C 0 km/h
1618 24-11-2009 11:42:02 11.5 C 8.06 g/m*3 11.5 C 0 km/h
1619 24-11-2009 11:54:01 11.4 C 8.21 g/m*3 11.4 C 0 km/h
1620 24-11-2009 12:06:02 11.5 C 8.37 g/m*3 11.5 C 0 km/h
1621 24-11-2009 12:18:01 11.7 C 8.58 g/m*3 11.7 C 0 km/h
1622 24-11-2009 12:30:01 11.9 C 8.79 g/m*3 11.9 C 0 km/h
1623 24-11-2009 12:42:02 12.2 C 8.96 g/m*3 12.2 C 0 km/h
1624 24-11-2009 12:54:02 12.3 C 9.01 g/m*3 12.3 C 0 km/h
1625 24-11-2009 13:06:02 12.5 C 9.24 g/m*3 12.5 C 0 km/h
Sensor: Nr:Datum:Temp:Abs-Feuchte:Windchill:Wind:
Aussen-T/F 1626 24-11-2009 13:18:01 12.8 C 9.3 g/m*3 12.8 C 0 km/h
1627 24-11-2009 13:30:01 13.3 C 9.24 g/m*3 13.3 C 0 km/h
1628 24-11-2009 13:42:02 13.3 C 9.24 g/m*3 13.3 C 0 km/h
1629 24-11-2009 13:54:02 13.7 C 9.35 g/m*3 13.7 C 0 km/h
1630 24-11-2009 14:06:02 13.9 C 9.23 g/m*3 13.9 C 0 km/h
1631 24-11-2009 14:18:01 14.1 C 8.86 g/m*3 14.1 C 0 km/h
1632 24-11-2009 14:30:01 14.2 C 8.43 g/m*3 14.2 C 0 km/h
1633 24-11-2009 14:42:02 14.4 C 8.03 g/m*3 14.4 C 0 km/h
1634 24-11-2009 14:54:02 14.4 C 7.91 g/m*3 14.4 C 0 km/h
1635 24-11-2009 15:06:02 14.2 C 8.06 g/m*3 14.2 C 0 km/h
1636 24-11-2009 15:18:02 13.9 C 8.39 g/m*3 13.9 C 0 km/h
1637 24-11-2009 15:30:02 13.7 C 8.41 g/m*3 13.7 C 0 km/h
1638 24-11-2009 15:42:02 13.6 C 8.47 g/m*3 13.6 C 0 km/h
1639 24-11-2009 15:54:02 13.5 C 8.54 g/m*3 13.5 C 0 km/h
1640 24-11-2009 16:06:02 13.5 C 8.42 g/m*3 13.5 C 0 km/h
1641 24-11-2009 16:18:02 13.4 C 8.25 g/m*3 13.4 C 0 km/h
1642 24-11-2009 16:30:02 13.3 C 8.2 g/m*3 13.3 C 0 km/h
1643 24-11-2009 16:42:02 13.3 C 8.2 g/m*3 13.3 C 0 km/h
1644 24-11-2009 16:54:01 13.2 C 8.15 g/m*3 13.2 C 0 km/h
1645 24-11-2009 17:06:02 13.4 C 8.25 g/m*3 13.4 C 0 km/h
1646 24-11-2009 17:18:02 13.2 C 8.15 g/m*3 13.2 C 0 km/h
1647 24-11-2009 17:30:02 13.3 C 8.2 g/m*3 13.3 C 0 km/h
1648 24-11-2009 17:42:02 13.2 C 8.15 g/m*3 13.2 C 0 km/h
1649 24-11-2009 17:54:02 13.2 C 8.27 g/m*3 13.2 C 0 km/h
1650 24-11-2009 18:06:02 13.1 C 8.22 g/m*3 13.1 C 0 km/h
Sensor: Nr:Datum:Temp:Abs-Feuchte:Windchill:Wind:
Aussen-T/F 1651 24-11-2009 18:18:02 13.1 C 8.33 g/m*3 13.1 C 0 km/h
1652 24-11-2009 18:30:03 13.1 C 8.33 g/m*3 13.1 C 0 km/h
1653 24-11-2009 18:42:01 13 C 8.28 g/m*3 13 C 0 km/h
1654 24-11-2009 18:54:02 13 C 8.28 g/m*3 13 C 0 km/h
1655 24-11-2009 19:06:01 13.1 C 8.22 g/m*3 13.1 C 0 km/h
1656 24-11-2009 19:18:02 13.1 C 8.1 g/m*3 13.1 C 0 km/h
1657 24-11-2009 19:30:02 13 C 8.05 g/m*3 13 C 0 km/h
1658 24-11-2009 19:42:02 13 C 8.05 g/m*3 13 C 0 km/h
1659 24-11-2009 19:54:02 13 C 7.94 g/m*3 13 C 0 km/h
1660 24-11-2009 20:06:02 13 C 7.94 g/m*3 13 C 0 km/h
1661 24-11-2009 20:18:02 13.1 C 7.87 g/m*3 13.1 C 0 km/h
1662 24-11-2009 20:30:02 13.1 C 7.87 g/m*3 13.1 C 0 km/h
1663 24-11-2009 20:42:02 13.1 C 7.76 g/m*3 13.1 C 0 km/h
1664 24-11-2009 20:54:02 13.2 C 7.81 g/m*3 13.2 C 0 km/h
1665 24-11-2009 21:06:01 13.3 C 7.74 g/m*3 13.3 C 0 km/h
1666 24-11-2009 21:18:02 13.4 C 7.67 g/m*3 13.4 C 0 km/h
1667 24-11-2009 21:30:02 13.3 C 7.63 g/m*3 13.3 C 0 km/h
1668 24-11-2009 21:42:01 13.3 C 7.63 g/m*3 13.3 C 0 km/h
1669 24-11-2009 21:54:02 13.1 C 7.53 g/m*3 13.1 C 0 km/h
1670 24-11-2009 22:06:01 13.3 C 7.51 g/m*3 13.3 C 0 km/h
1671 24-11-2009 22:18:02 13.3 C 7.39 g/m*3 13.3 C 0 km/h
1672 24-11-2009 22:30:02 13.4 C 7.32 g/m*3 13.4 C 0 km/h
1673 24-11-2009 22:42:01 13.3 C 7.28 g/m*3 13.3 C 0 km/h
1674 24-11-2009 22:55:03 13.3 C 7.28 g/m*3 13.3 C 0 km/h
1675 24-11-2009 23:07:03 13.2 C 7.12 g/m*3 13.2 C 0 km/h
Sensor: Nr:Datum:Temp:Abs-Feuchte:Windchill:Wind:
Aussen-T/F 1676 24-11-2009 23:19:03 13.2 C 7 g/m*3 13.2 C 0 km/h
1677 24-11-2009 23:31:03 13.2 C 6.89 g/m*3 13.2 C 0 km/h
1678 24-11-2009 23:43:03 13.2 C 6.77 g/m*3 13.2 C 0 km/h
1679 24-11-2009 23:55:03 13.1 C 6.62 g/m*3 13.1 C 0 km/h
1680 25-11-2009 00:07:03 13.2 C 6.54 g/m*3 13.2 C 0 km/h
1681 25-11-2009 00:19:03 13.2 C 6.54 g/m*3 13.2 C 0 km/h
1682 25-11-2009 00:31:03 13.2 C 6.54 g/m*3 13.2 C 0 km/h
1683 25-11-2009 00:43:03 13.2 C 6.54 g/m*3 13.2 C 0 km/h
1684 25-11-2009 00:55:03 13.1 C 6.5 g/m*3 13.1 C 0 km/h
1685 25-11-2009 01:07:03 13.1 C 6.62 g/m*3 13.1 C 0 km/h
1686 25-11-2009 01:19:03 13.1 C 6.73 g/m*3 13.1 C 0 km/h
1687 25-11-2009 01:31:03 12.9 C 6.88 g/m*3 12.9 C 0 km/h
1688 25-11-2009 01:43:04 13 C 6.8 g/m*3 13 C 0 km/h
1689 25-11-2009 01:55:04 13.1 C 6.85 g/m*3 13.1 C 0 km/h
1690 25-11-2009 02:07:04 13 C 7.03 g/m*3 13 C 0 km/h
1691 25-11-2009 02:19:04 12.9 C 7.1 g/m*3 12.9 C 0 km/h
1692 25-11-2009 02:31:04 12.8 C 7.06 g/m*3 12.8 C 0 km/h
1693 25-11-2009 02:43:04 12.9 C 6.99 g/m*3 12.9 C 0 km/h
1694 25-11-2009 02:55:04 12.9 C 6.76 g/m*3 12.9 C 0 km/h
1695 25-11-2009 03:07:04 12.9 C 6.76 g/m*3 12.9 C 0 km/h
1696 25-11-2009 03:19:04 13 C 6.58 g/m*3 13 C 0 km/h
1697 25-11-2009 03:31:04 13 C 6.46 g/m*3 13 C 0 km/h
1698 25-11-2009 03:43:04 13.1 C 6.5 g/m*3 13.1 C 0 km/h
1699 25-11-2009 03:55:04 13.1 C 6.5 g/m*3 13.1 C 0 km/h
1700 25-11-2009 04:07:04 13 C 6.46 g/m*3 13 C 0 km/h
Sensor: Nr:Datum:Temp:Abs-Feuchte:Windchill:Wind:
Aussen-T/F 1701 25-11-2009 04:19:04 12.9 C 6.42 g/m*3 12.9 C 0 km/h
1702 25-11-2009 04:31:04 13 C 6.24 g/m*3 13 C 0 km/h
1703 25-11-2009 04:43:04 12.8 C 6.38 g/m*3 12.8 C 0 km/h
1704 25-11-2009 04:55:04 12.7 C 6.35 g/m*3 12.7 C 0 km/h
1705 25-11-2009 05:07:04 12.7 C 6.35 g/m*3 12.7 C 0 km/h
1706 25-11-2009 05:19:04 12.6 C 6.31 g/m*3 12.6 C 0 km/h
1707 25-11-2009 05:31:04 12.4 C 6.23 g/m*3 12.4 C 0 km/h
1708 25-11-2009 05:43:05 12.2 C 6.26 g/m*3 12.2 C 0 km/h
1709 25-11-2009 05:55:05 12.1 C 6.33 g/m*3 12.1 C 0 km/h
1710 25-11-2009 06:07:05 11.9 C 6.35 g/m*3 11.9 C 0 km/h
1711 25-11-2009 06:19:05 11.7 C 6.38 g/m*3 11.7 C 0 km/h
1712 25-11-2009 06:31:05 11.5 C 6.3 g/m*3 11.5 C 0 km/h
1713 25-11-2009 06:43:05 11.4 C 6.36 g/m*3 11.4 C 0 km/h
1714 25-11-2009 06:55:05 11.2 C 6.28 g/m*3 11.2 C 0 km/h
1715 25-11-2009 07:07:02 11.2 C 6.28 g/m*3 11.2 C 0 km/h
1716 25-11-2009 07:19:03 11.2 C 6.28 g/m*3 11.2 C 0 km/h
1717 25-11-2009 07:31:02 10.7 C 6.29 g/m*3 10.7 C 0 km/h
1718 25-11-2009 07:43:02 10.1 C 6.24 g/m*3 10.1 C 0 km/h
1719 25-11-2009 07:55:02 10 C 6.3 g/m*3 10 C 0 km/h
1720 25-11-2009 08:07:01 9.8 C 6.31 g/m*3 9.8 C 0 km/h
1721 25-11-2009 08:19:02 9.5 C 6.28 g/m*3 9.5 C 0 km/h
1722 25-11-2009 08:31:01 9.5 C 6.28 g/m*3 9.5 C 0 km/h
1723 25-11-2009 08:43:01 9.4 C 6.33 g/m*3 9.4 C 0 km/h
1724 25-11-2009 08:55:02 9.3 C 6.29 g/m*3 9.3 C 0 km/h
1725 25-11-2009 09:07:02 9.5 C 6.46 g/m*3 9.5 C 0 km/h
Sensor: Nr:Datum:Temp:Abs-Feuchte:Windchill:Wind:
Aussen-T/F 1726 25-11-2009 09:19:02 9.4 C 6.33 g/m*3 9.4 C 0 km/h
1727 25-11-2009 09:31:02 9.4 C 6.42 g/m*3 9.4 C 0 km/h
1728 25-11-2009 09:43:02 9.5 C 6.37 g/m*3 9.5 C 0 km/h
1729 25-11-2009 09:55:02 10.2 C 6.28 g/m*3 10.2 C 0 km/h
1730 25-11-2009 10:07:02 10.6 C 6.34 g/m*3 10.6 C 0 km/h
1731 25-11-2009 10:19:02 11.2 C 6.18 g/m*3 11.2 C 0 km/h
1732 25-11-2009 10:31:01 11.5 C 6.2 g/m*3 11.5 C 0 km/h
1733 25-11-2009 10:43:01 11.2 C 6.08 g/m*3 11.2 C 0 km/h
1734 25-11-2009 10:55:02 11.2 C 6.18 g/m*3 11.2 C 0 km/h
1735 25-11-2009 11:07:01 11.5 C 6.2 g/m*3 11.5 C 0 km/h
1736 25-11-2009 11:19:01 11.8 C 6.31 g/m*3 11.8 C 0 km/h
1737 25-11-2009 11:31:02 12.3 C 6.08 g/m*3 12.3 C 0 km/h
1738 25-11-2009 11:43:02 12.5 C 6.05 g/m*3 12.5 C 0 km/h
1739 25-11-2009 11:55:02 12.6 C 5.97 g/m*3 12.6 C 0 km/h
1740 25-11-2009 12:07:02 13.1 C 5.71 g/m*3 13.1 C 0 km/h
1741 25-11-2009 12:19:02 13.7 C 5.68 g/m*3 13.7 C 0 km/h
1742 25-11-2009 12:31:02 13.9 C 5.51 g/m*3 13.9 C 0 km/h
1743 25-11-2009 12:43:02 14.1 C 5.22 g/m*3 14.1 C 0 km/h
1744 25-11-2009 12:55:02 14.1 C 5.22 g/m*3 14.1 C 0 km/h
1745 25-11-2009 13:07:02 14.4 C 5.07 g/m*3 14.4 C 0 km/h
1746 25-11-2009 13:19:01 15 C 5 g/m*3 15 C 0 km/h
1747 25-11-2009 13:31:02 15 C 5 g/m*3 15 C 0 km/h
1748 25-11-2009 13:43:02 15 C 4.74 g/m*3 15 C 0 km/h
1749 25-11-2009 13:55:02 15.2 C 4.67 g/m*3 15.2 C 0 km/h
1750 25-11-2009 14:07:02 15.2 C 4.67 g/m*3 15.2 C 0 km/h
Sensor: Nr:Datum:Temp:Abs-Feuchte:Windchill:Wind:
Aussen-T/F 1751 25-11-2009 14:19:01 15.1 C 4.52 g/m*3 15.1 C 0 km/h
1752 25-11-2009 14:31:02 15.2 C 4.67 g/m*3 15.2 C 0 km/h
1753 25-11-2009 14:43:02 15.2 C 4.67 g/m*3 15.2 C 0 km/h
1754 25-11-2009 14:55:02 15.1 C 4.77 g/m*3 15.1 C 0 km/h
1755 25-11-2009 15:07:02 14.8 C 4.94 g/m*3 14.8 C 0 km/h
1756 25-11-2009 15:19:02 14.7 C 4.78 g/m*3 14.7 C 0 km/h
1757 25-11-2009 15:31:02 14.5 C 4.85 g/m*3 14.5 C 0 km/h
1758 25-11-2009 15:43:02 14.4 C 4.94 g/m*3 14.4 C 0 km/h
1759 25-11-2009 15:55:02 14.3 C 4.91 g/m*3 14.3 C 0 km/h
1760 25-11-2009 16:07:02 14.2 C 4.88 g/m*3 14.2 C 0 km/h
1761 25-11-2009 16:19:03 14.1 C 4.85 g/m*3 14.1 C 0 km/h
1762 25-11-2009 16:31:02 14 C 4.95 g/m*3 14 C 0 km/h
1763 25-11-2009 16:43:02 14 C 4.95 g/m*3 14 C 0 km/h
1764 25-11-2009 16:55:02 13.8 C 5 g/m*3 13.8 C 0 km/h
1765 25-11-2009 17:07:02 13.6 C 5.18 g/m*3 13.6 C 0 km/h
1766 25-11-2009 17:19:02 13.4 C 5.23 g/m*3 13.4 C 0 km/h
1767 25-11-2009 17:31:02 13.4 C 5.23 g/m*3 13.4 C 0 km/h
1768 25-11-2009 17:43:02 13.4 C 5.35 g/m*3 13.4 C 0 km/h
1769 25-11-2009 17:55:02 13 C 5.78 g/m*3 13 C 0 km/h
1770 25-11-2009 18:07:02 12.8 C 6.05 g/m*3 12.8 C 0 km/h
1771 25-11-2009 18:19:02 12.4 C 6.45 g/m*3 12.4 C 0 km/h
1772 25-11-2009 18:31:02 12 C 6.61 g/m*3 12 C 0 km/h
1773 25-11-2009 18:43:02 11.3 C 7.04 g/m*3 11.3 C 0 km/h
1774 25-11-2009 18:55:02 10.6 C 7.42 g/m*3 10.6 C 0 km/h
1775 25-11-2009 19:07:01 10.3 C 7.57 g/m*3 10.3 C 0 km/h
Sensor: Nr:Datum:Temp:Abs-Feuchte:Windchill:Wind:
Aussen-T/F 1776 25-11-2009 19:19:02 10.2 C 7.71 g/m*3 10.2 C 0 km/h
1777 25-11-2009 19:31:01 10.1 C 7.75 g/m*3 10.1 C 0 km/h
1778 25-11-2009 19:43:01 10 C 7.8 g/m*3 10 C 0 km/h
1779 25-11-2009 19:55:02 9.9 C 7.84 g/m*3 9.9 C 0 km/h
1780 25-11-2009 20:07:01 9.9 C 7.84 g/m*3 9.9 C 0 km/h
1781 25-11-2009 20:19:01 10 C 7.71 g/m*3 10 C 0 km/h
1782 25-11-2009 20:31:02 10.4 C 7.61 g/m*3 10.4 C 0 km/h
1783 25-11-2009 20:43:02 10.4 C 7.42 g/m*3 10.4 C 0 km/h
1784 25-11-2009 20:55:02 10.3 C 7.37 g/m*3 10.3 C 0 km/h
1785 25-11-2009 21:07:02 10.2 C 7.33 g/m*3 10.2 C 0 km/h
1786 25-11-2009 21:19:02 10.1 C 7.38 g/m*3 10.1 C 0 km/h
1787 25-11-2009 21:31:02 10.2 C 7.33 g/m*3 10.2 C 0 km/h
1788 25-11-2009 21:43:03 10.3 C 7.09 g/m*3 10.3 C 0 km/h
1789 25-11-2009 21:55:01 10.3 C 6.99 g/m*3 10.3 C 0 km/h
1790 25-11-2009 22:08:02 10.2 C 6.95 g/m*3 10.2 C 0 km/h
1791 25-11-2009 22:20:02 10.2 C 6.85 g/m*3 10.2 C 0 km/h
1792 25-11-2009 22:32:02 10 C 6.86 g/m*3 10 C 0 km/h
1793 25-11-2009 22:44:02 10 C 6.86 g/m*3 10 C 0 km/h
1794 25-11-2009 22:56:02 10 C 6.77 g/m*3 10 C 0 km/h
1795 25-11-2009 23:08:02 10.1 C 6.81 g/m*3 10.1 C 0 km/h
1796 25-11-2009 23:20:02 10.1 C 6.71 g/m*3 10.1 C 0 km/h
1797 25-11-2009 23:32:02 9.8 C 6.68 g/m*3 9.8 C 0 km/h
1798 25-11-2009 23:44:02 9.8 C 6.59 g/m*3 9.8 C 0 km/h
1799 25-11-2009 23:56:02 9.8 C 6.49 g/m*3 9.8 C 0 km/h
1800 26-11-2009 00:08:02 9.8 C 6.59 g/m*3 9.8 C 0 km/h
Sensor: Nr:Datum:Temp:Abs-Feuchte:Windchill:Wind:
Aussen-T/F 1801 26-11-2009 00:20:02 9.8 C 6.49 g/m*3 9.8 C 0 km/h
1802 26-11-2009 00:32:02 9.9 C 6.44 g/m*3 9.9 C 0 km/h
1803 26-11-2009 00:44:02 9.8 C 6.4 g/m*3 9.8 C 0 km/h
1804 26-11-2009 00:56:02 9.6 C 6.41 g/m*3 9.6 C 0 km/h
1805 26-11-2009 01:08:03 9.7 C 6.36 g/m*3 9.7 C 0 km/h
1806 26-11-2009 01:20:03 9.5 C 6.28 g/m*3 9.5 C 0 km/h
1807 26-11-2009 01:32:03 9.5 C 6.19 g/m*3 9.5 C 0 km/h
1808 26-11-2009 01:44:03 9.4 C 6.06 g/m*3 9.4 C 0 km/h
1809 26-11-2009 01:56:03 9.2 C 5.98 g/m*3 9.2 C 0 km/h
1810 26-11-2009 02:08:03 9 C 5.91 g/m*3 9 C 0 km/h
1811 26-11-2009 02:20:03 9.2 C 5.8 g/m*3 9.2 C 0 km/h
1812 26-11-2009 02:32:03 9.1 C 5.77 g/m*3 9.1 C 0 km/h
1813 26-11-2009 02:44:03 9.1 C 5.77 g/m*3 9.1 C 0 km/h
1814 26-11-2009 02:56:03 9.2 C 5.8 g/m*3 9.2 C 0 km/h
1815 26-11-2009 03:08:03 9.4 C 5.79 g/m*3 9.4 C 0 km/h
1816 26-11-2009 03:20:03 9.5 C 5.83 g/m*3 9.5 C 0 km/h
1817 26-11-2009 03:32:03 9.4 C 5.88 g/m*3 9.4 C 0 km/h
1818 26-11-2009 03:44:03 9.5 C 5.83 g/m*3 9.5 C 0 km/h
1819 26-11-2009 03:56:03 9.4 C 5.79 g/m*3 9.4 C 0 km/h
1820 26-11-2009 04:08:03 9.5 C 5.73 g/m*3 9.5 C 0 km/h
1821 26-11-2009 04:20:03 9.4 C 5.7 g/m*3 9.4 C 0 km/h
1822 26-11-2009 04:32:03 9.5 C 5.73 g/m*3 9.5 C 0 km/h
1823 26-11-2009 04:44:03 9.6 C 5.68 g/m*3 9.6 C 0 km/h
1824 26-11-2009 04:56:03 9.6 C 5.59 g/m*3 9.6 C 0 km/h
1825 26-11-2009 05:08:03 9.6 C 5.59 g/m*3 9.6 C 0 km/h
Sensor: Nr:Datum:Temp:Abs-Feuchte:Windchill:Wind:
Aussen-T/F 1826 26-11-2009 05:20:04 9.6 C 5.59 g/m*3 9.6 C 0 km/h
1827 26-11-2009 05:32:04 9.7 C 5.53 g/m*3 9.7 C 0 km/h
1828 26-11-2009 05:44:04 9.7 C 5.44 g/m*3 9.7 C 0 km/h
1829 26-11-2009 05:56:04 9.7 C 5.44 g/m*3 9.7 C 0 km/h
1830 26-11-2009 06:08:04 9.6 C 5.5 g/m*3 9.6 C 0 km/h
1831 26-11-2009 06:20:04 9.6 C 5.5 g/m*3 9.6 C 0 km/h
1832 26-11-2009 06:32:04 9.6 C 5.5 g/m*3 9.6 C 0 km/h
1833 26-11-2009 06:44:04 9.7 C 5.53 g/m*3 9.7 C 0 km/h
1834 26-11-2009 06:56:04 9.6 C 5.5 g/m*3 9.6 C 0 km/h
1835 26-11-2009 07:08:02 9.7 C 5.53 g/m*3 9.7 C 0 km/h
1836 26-11-2009 07:20:01 9.7 C 5.44 g/m*3 9.7 C 0 km/h
1837 26-11-2009 07:32:02 9.7 C 5.44 g/m*3 9.7 C 0 km/h
1838 26-11-2009 07:44:02 9.8 C 5.47 g/m*3 9.8 C 0 km/h
1839 26-11-2009 07:56:02 9.8 C 5.38 g/m*3 9.8 C 0 km/h
1840 26-11-2009 08:08:02 9.8 C 5.47 g/m*3 9.8 C 0 km/h
1841 26-11-2009 08:20:02 9.9 C 5.42 g/m*3 9.9 C 0 km/h
1842 26-11-2009 08:32:02 9.8 C 5.47 g/m*3 9.8 C 0 km/h
1843 26-11-2009 08:44:02 10 C 5.45 g/m*3 10 C 0 km/h
1844 26-11-2009 08:56:01 10 C 5.45 g/m*3 10 C 0 km/h
1845 26-11-2009 09:08:01 9.9 C 5.51 g/m*3 9.9 C 0 km/h
1846 26-11-2009 09:20:01 10 C 5.36 g/m*3 10 C 0 km/h
1847 26-11-2009 09:32:01 10 C 5.36 g/m*3 10 C 0 km/h
1848 26-11-2009 09:44:01 10 C 5.36 g/m*3 10 C 0 km/h
1849 26-11-2009 09:56:01 10 C 5.36 g/m*3 10 C 0 km/h
1850 26-11-2009 10:08:01 10 C 5.26 g/m*3 10 C 0 km/h
Sensor: Nr:Datum:Temp:Abs-Feuchte:Windchill:Wind:
Aussen-T/F 1851 26-11-2009 10:20:02 10.1 C 5.3 g/m*3 10.1 C 0 km/h
1852 26-11-2009 10:32:01 10.2 C 5.23 g/m*3 10.2 C 0 km/h
1853 26-11-2009 10:44:01 10.3 C 5.27 g/m*3 10.3 C 0 km/h
1854 26-11-2009 10:56:02 10.4 C 5.2 g/m*3 10.4 C 0 km/h
1855 26-11-2009 11:08:01 10.5 C 5.14 g/m*3 10.5 C 0 km/h
1856 26-11-2009 11:20:02 10.9 C 5.07 g/m*3 10.9 C 0 km/h
1857 26-11-2009 11:32:01 10.7 C 5.3 g/m*3 10.7 C 0 km/h
1858 26-11-2009 11:44:01 10.9 C 5.27 g/m*3 10.9 C 0 km/h
1859 26-11-2009 11:56:03 11.1 C 5.24 g/m*3 11.1 C 0 km/h
1860 26-11-2009 12:08:02 11.3 C 5.2 g/m*3 11.3 C 0 km/h
1861 26-11-2009 12:20:02 11.1 C 5.24 g/m*3 11.1 C 0 km/h
1862 26-11-2009 12:32:02 11 C 5.31 g/m*3 11 C 0 km/h
1863 26-11-2009 12:44:02 11 C 5.31 g/m*3 11 C 0 km/h
1864 26-11-2009 12:56:02 11.3 C 5.41 g/m*3 11.3 C 0 km/h
1865 26-11-2009 13:08:02 11.3 C 5.41 g/m*3 11.3 C 0 km/h
1866 26-11-2009 13:20:02 11.4 C 5.44 g/m*3 11.4 C 0 km/h
1867 26-11-2009 13:32:02 11.7 C 5.54 g/m*3 11.7 C 0 km/h
1868 26-11-2009 13:44:02 11.2 C 5.88 g/m*3 11.2 C 0 km/h
1869 26-11-2009 13:56:02 11.1 C 5.94 g/m*3 11.1 C 0 km/h
1870 26-11-2009 14:08:01 10.7 C 5.8 g/m*3 10.7 C 0 km/h
1871 26-11-2009 14:20:01 10.6 C 5.76 g/m*3 10.6 C 0 km/h
1872 26-11-2009 14:32:02 10.7 C 5.8 g/m*3 10.7 C 0 km/h
1873 26-11-2009 14:44:02 10.8 C 5.83 g/m*3 10.8 C 0 km/h
1874 26-11-2009 14:56:02 10.7 C 5.8 g/m*3 10.7 C 0 km/h
1875 26-11-2009 15:08:02 10.7 C 5.89 g/m*3 10.7 C 0 km/h
Sensor: Nr:Datum:Temp:Abs-Feuchte:Windchill:Wind:
Aussen-T/F 1876 26-11-2009 15:20:02 10.8 C 5.83 g/m*3 10.8 C 0 km/h
1877 26-11-2009 15:32:02 10.8 C 5.63 g/m*3 10.8 C 0 km/h
1878 26-11-2009 15:44:02 10.8 C 5.73 g/m*3 10.8 C 0 km/h
1879 26-11-2009 15:56:01 10.6 C 5.47 g/m*3 10.6 C 0 km/h
1880 26-11-2009 16:08:02 10.3 C 5.46 g/m*3 10.3 C 0 km/h
1881 26-11-2009 16:20:01 10.3 C 5.46 g/m*3 10.3 C 0 km/h
1882 26-11-2009 16:32:02 10.2 C 5.33 g/m*3 10.2 C 0 km/h
1883 26-11-2009 16:44:02 10.1 C 5.3 g/m*3 10.1 C 0 km/h
1884 26-11-2009 16:56:02 9.9 C 5.42 g/m*3 9.9 C 0 km/h
1885 26-11-2009 17:08:02 9.8 C 5.47 g/m*3 9.8 C 0 km/h
1886 26-11-2009 17:20:01 9.7 C 5.53 g/m*3 9.7 C 0 km/h
1887 26-11-2009 17:32:02 10 C 5.54 g/m*3 10 C 0 km/h
1888 26-11-2009 17:44:02 9.9 C 5.7 g/m*3 9.9 C 0 km/h
1889 26-11-2009 17:56:02 10 C 5.64 g/m*3 10 C 0 km/h
1890 26-11-2009 18:08:02 9.8 C 5.66 g/m*3 9.8 C 0 km/h
1891 26-11-2009 18:20:02 10.1 C 5.67 g/m*3 10.1 C 0 km/h
1892 26-11-2009 18:32:02 10 C 5.64 g/m*3 10 C 0 km/h
1893 26-11-2009 18:44:02 10 C 5.64 g/m*3 10 C 0 km/h
1894 26-11-2009 18:56:02 10.2 C 5.61 g/m*3 10.2 C 0 km/h
1895 26-11-2009 19:08:02 10.2 C 5.52 g/m*3 10.2 C 0 km/h
1896 26-11-2009 19:20:02 10.3 C 5.55 g/m*3 10.3 C 0 km/h
1897 26-11-2009 19:32:02 9.5 C 6.1 g/m*3 9.5 C 0 km/h
1898 26-11-2009 19:44:02 9 C 6.44 g/m*3 9 C 0 km/h
1899 26-11-2009 19:56:02 8.8 C 6.79 g/m*3 8.8 C 0 km/h
1900 26-11-2009 20:08:02 8.8 C 6.7 g/m*3 8.8 C 0 km/h
Sensor: Nr:Datum:Temp:Abs-Feuchte:Windchill:Wind:
Aussen-T/F 1901 26-11-2009 20:20:02 8.9 C 6.83 g/m*3 8.9 C 0 km/h
1902 26-11-2009 20:32:02 8.4 C 6.79 g/m*3 8.4 C 0 km/h
1903 26-11-2009 20:44:02 8.4 C 6.79 g/m*3 8.4 C 0 km/h
1904 26-11-2009 20:56:02 8.8 C 6.35 g/m*3 8.8 C 0 km/h
1905 26-11-2009 21:08:02 9.3 C 6.11 g/m*3 9.3 C 0 km/h
1906 26-11-2009 21:20:02 9.7 C 6.08 g/m*3 9.7 C 0 km/h
1907 26-11-2009 21:32:03 9.8 C 5.94 g/m*3 9.8 C 0 km/h
1908 26-11-2009 21:44:03 10 C 5.83 g/m*3 10 C 0 km/h
1909 26-11-2009 21:56:02 10 C 5.83 g/m*3 10 C 0 km/h
1910 26-11-2009 22:08:02 10 C 5.92 g/m*3 10 C 0 km/h
1911 26-11-2009 22:20:01 10 C 5.83 g/m*3 10 C 0 km/h
1912 26-11-2009 22:32:02 10.1 C 5.86 g/m*3 10.1 C 0 km/h
1913 26-11-2009 22:44:02 10.1 C 5.77 g/m*3 10.1 C 0 km/h
1914 26-11-2009 22:56:02 10.3 C 5.75 g/m*3 10.3 C 0 km/h
1915 26-11-2009 23:09:01 10.5 C 5.72 g/m*3 10.5 C 0 km/h
1916 26-11-2009 23:21:01 10.4 C 5.69 g/m*3 10.4 C 0 km/h
1917 26-11-2009 23:33:01 10.5 C 5.72 g/m*3 10.5 C 0 km/h
1918 26-11-2009 23:45:01 10.4 C 5.78 g/m*3 10.4 C 0 km/h
1919 26-11-2009 23:57:01 10.4 C 5.88 g/m*3 10.4 C 0 km/h
1920 27-11-2009 00:09:01 10.4 C 5.88 g/m*3 10.4 C 0 km/h
1921 27-11-2009 00:21:01 10.6 C 5.86 g/m*3 10.6 C 0 km/h
1922 27-11-2009 00:33:01 10.8 C 5.73 g/m*3 10.8 C 0 km/h
1923 27-11-2009 00:45:01 10.8 C 5.73 g/m*3 10.8 C 0 km/h
1924 27-11-2009 00:57:02 10.7 C 5.89 g/m*3 10.7 C 0 km/h
1925 27-11-2009 01:09:02 10.4 C 6.07 g/m*3 10.4 C 0 km/h
Sensor: Nr:Datum:Temp:Abs-Feuchte:Windchill:Wind:
Aussen-T/F 1926 27-11-2009 01:21:02 10.7 C 5.99 g/m*3 10.7 C 0 km/h
1927 27-11-2009 01:33:02 10.8 C 5.93 g/m*3 10.8 C 0 km/h
1928 27-11-2009 01:45:02 10.9 C 5.87 g/m*3 10.9 C 0 km/h
1929 27-11-2009 01:57:02 11 C 5.81 g/m*3 11 C 0 km/h
1930 27-11-2009 02:09:02 11 C 5.71 g/m*3 11 C 0 km/h
1931 27-11-2009 02:21:02 10.9 C 5.87 g/m*3 10.9 C 0 km/h
1932 27-11-2009 02:33:02 11 C 5.71 g/m*3 11 C 0 km/h
1933 27-11-2009 02:45:02 10.9 C 5.77 g/m*3 10.9 C 0 km/h
1934 27-11-2009 02:57:02 11 C 5.51 g/m*3 11 C 0 km/h
1935 27-11-2009 03:09:02 10.9 C 5.57 g/m*3 10.9 C 0 km/h
1936 27-11-2009 03:21:02 10.9 C 5.57 g/m*3 10.9 C 0 km/h
1937 27-11-2009 03:33:02 10.9 C 5.67 g/m*3 10.9 C 0 km/h
1938 27-11-2009 03:45:02 10.8 C 5.63 g/m*3 10.8 C 0 km/h
1939 27-11-2009 03:57:02 10.5 C 5.72 g/m*3 10.5 C 0 km/h
1940 27-11-2009 04:09:02 10.1 C 5.86 g/m*3 10.1 C 0 km/h
1941 27-11-2009 04:21:02 9.8 C 5.94 g/m*3 9.8 C 0 km/h
1942 27-11-2009 04:33:02 9.3 C 5.84 g/m*3 9.3 C 0 km/h
1943 27-11-2009 04:45:03 9.1 C 6.03 g/m*3 9.1 C 0 km/h
1944 27-11-2009 04:57:03 8.9 C 6.22 g/m*3 8.9 C 0 km/h
1945 27-11-2009 05:09:03 9 C 6.08 g/m*3 9 C 0 km/h
1946 27-11-2009 05:21:03 9.1 C 6.03 g/m*3 9.1 C 0 km/h
1947 27-11-2009 05:33:03 9.1 C 6.03 g/m*3 9.1 C 0 km/h
1948 27-11-2009 05:45:03 9.1 C 6.12 g/m*3 9.1 C 0 km/h
1949 27-11-2009 05:57:03 8.9 C 6.22 g/m*3 8.9 C 0 km/h
1950 27-11-2009 06:09:03 8.5 C 6.32 g/m*3 8.5 C 0 km/h
Sensor: Nr:Datum:Temp:Abs-Feuchte:Windchill:Wind:
Aussen-T/F 1951 27-11-2009 06:21:03 8.3 C 6.66 g/m*3 8.3 C 0 km/h
1952 27-11-2009 06:33:03 8.2 C 6.78 g/m*3 8.2 C 0 km/h
1953 27-11-2009 06:45:03 8.1 C 6.66 g/m*3 8.1 C 0 km/h
1954 27-11-2009 06:57:03 7.9 C 6.74 g/m*3 7.9 C 0 km/h
1955 27-11-2009 07:09:02 7.7 C 6.73 g/m*3 7.7 C 0 km/h
1956 27-11-2009 07:21:01 7.5 C 6.72 g/m*3 7.5 C 0 km/h
1957 27-11-2009 07:33:01 7.4 C 6.84 g/m*3 7.4 C 0 km/h
1958 27-11-2009 07:45:01 7.5 C 6.96 g/m*3 7.5 C 0 km/h
1959 27-11-2009 07:57:01 7.5 C 7.04 g/m*3 7.5 C 0 km/h
1960 27-11-2009 08:09:02 7.6 C 6.93 g/m*3 7.6 C 0 km/h
1961 27-11-2009 08:21:01 8.2 C 6.7 g/m*3 8.2 C 0 km/h
1962 27-11-2009 08:33:02 8.2 C 6.36 g/m*3 8.2 C 0 km/h
1963 27-11-2009 08:45:01 8.4 C 6.02 g/m*3 8.4 C 0 km/h
1964 27-11-2009 08:57:01 8.4 C 5.85 g/m*3 8.4 C 0 km/h
1965 27-11-2009 09:09:02 8.3 C 5.82 g/m*3 8.3 C 0 km/h
1966 27-11-2009 09:21:02 8.5 C 5.72 g/m*3 8.5 C 0 km/h
1967 27-11-2009 09:33:02 8.6 C 5.67 g/m*3 8.6 C 0 km/h
1968 27-11-2009 09:45:02 8.8 C 5.57 g/m*3 8.8 C 0 km/h
1969 27-11-2009 09:57:02 8.7 C 5.53 g/m*3 8.7 C 0 km/h
1970 27-11-2009 10:09:02 8.8 C 5.57 g/m*3 8.8 C 0 km/h
1971 27-11-2009 10:21:01 9 C 5.55 g/m*3 9 C 0 km/h
1972 27-11-2009 10:33:01 9.1 C 5.59 g/m*3 9.1 C 0 km/h
1973 27-11-2009 10:45:01 9.2 C 5.54 g/m*3 9.2 C 0 km/h
1974 27-11-2009 10:57:01 9.2 C 5.54 g/m*3 9.2 C 0 km/h
1975 27-11-2009 11:09:02 9.4 C 5.61 g/m*3 9.4 C 0 km/h
Sensor: Nr:Datum:Temp:Abs-Feuchte:Windchill:Wind:
Aussen-T/F 1976 27-11-2009 11:21:02 9.3 C 5.57 g/m*3 9.3 C 0 km/h
1977 27-11-2009 11:33:01 9.4 C 5.52 g/m*3 9.4 C 0 km/h
1978 27-11-2009 11:45:02 9.5 C 5.46 g/m*3 9.5 C 0 km/h
1979 27-11-2009 11:57:02 9.6 C 5.4 g/m*3 9.6 C 0 km/h
1980 27-11-2009 12:09:01 9.3 C 5.3 g/m*3 9.3 C 0 km/h
1981 27-11-2009 12:21:02 9.1 C 5.32 g/m*3 9.1 C 0 km/h
1982 27-11-2009 12:33:01 9 C 5.47 g/m*3 9 C 0 km/h
1983 27-11-2009 12:45:03 9.2 C 5.54 g/m*3 9.2 C 0 km/h
1984 27-11-2009 12:57:03 9.5 C 5.55 g/m*3 9.5 C 0 km/h
1985 27-11-2009 13:09:02 9.8 C 5.57 g/m*3 9.8 C 0 km/h
1986 27-11-2009 13:21:02 10 C 5.26 g/m*3 10 C 0 km/h
1987 27-11-2009 13:33:02 10 C 5.17 g/m*3 10 C 0 km/h
1988 27-11-2009 13:45:02 9.8 C 5.2 g/m*3 9.8 C 0 km/h
1989 27-11-2009 13:57:02 9.6 C 5.13 g/m*3 9.6 C 0 km/h
1990 27-11-2009 14:09:02 9.7 C 5.07 g/m*3 9.7 C 0 km/h
1991 27-11-2009 14:21:02 9.8 C 5.01 g/m*3 9.8 C 0 km/h
1992 27-11-2009 14:33:01 9.8 C 5.01 g/m*3 9.8 C 0 km/h
1993 27-11-2009 14:45:02 9.8 C 4.92 g/m*3 9.8 C 0 km/h
1994 27-11-2009 14:57:02 9.7 C 4.98 g/m*3 9.7 C 0 km/h
1995 27-11-2009 15:09:01 9.8 C 5.01 g/m*3 9.8 C 0 km/h
1996 27-11-2009 15:21:02 9.6 C 4.95 g/m*3 9.6 C 0 km/h
1997 27-11-2009 15:33:02 9.3 C 5.12 g/m*3 9.3 C 0 km/h
1998 27-11-2009 15:45:02 9.1 C 5.23 g/m*3 9.1 C 0 km/h
1999 27-11-2009 15:57:02 9 C 5.38 g/m*3 9 C 0 km/h
2000 27-11-2009 16:09:02 8.8 C 5.48 g/m*3 8.8 C 0 km/h
Sensor: Nr:Datum:Temp:Abs-Feuchte:Windchill:Wind:
Aussen-T/F 2001 27-11-2009 16:21:01 8.7 C 5.45 g/m*3 8.7 C 0 km/h
2002 27-11-2009 16:33:02 8.5 C 5.29 g/m*3 8.5 C 0 km/h
2003 27-11-2009 16:45:01 8.6 C 5.16 g/m*3 8.6 C 0 km/h
2004 27-11-2009 16:57:01 8.4 C 5.09 g/m*3 8.4 C 0 km/h
2005 27-11-2009 17:09:02 8.5 C 4.95 g/m*3 8.5 C 0 km/h
2006 27-11-2009 17:21:01 8.4 C 4.92 g/m*3 8.4 C 0 km/h
2007 27-11-2009 17:33:02 8.3 C 4.89 g/m*3 8.3 C 0 km/h
2008 27-11-2009 17:45:01 8.4 C 4.92 g/m*3 8.4 C 0 km/h
2009 27-11-2009 17:57:01 8.4 C 4.92 g/m*3 8.4 C 0 km/h
2010 27-11-2009 18:09:02 8.4 C 5.01 g/m*3 8.4 C 0 km/h
2011 27-11-2009 18:21:02 8.5 C 4.95 g/m*3 8.5 C 0 km/h
2012 27-11-2009 18:33:02 8.5 C 4.87 g/m*3 8.5 C 0 km/h
2013 27-11-2009 18:45:01 8.4 C 4.84 g/m*3 8.4 C 0 km/h
2014 27-11-2009 18:57:01 8.4 C 4.92 g/m*3 8.4 C 0 km/h
2015 27-11-2009 19:09:02 8.9 C 4.82 g/m*3 8.9 C 0 km/h
2016 27-11-2009 19:21:02 8.7 C 5.02 g/m*3 8.7 C 0 km/h
2017 27-11-2009 19:33:01 8.3 C 5.14 g/m*3 8.3 C 0 km/h
2018 27-11-2009 19:45:02 8.2 C 5.11 g/m*3 8.2 C 0 km/h
2019 27-11-2009 19:57:02 8.2 C 5.11 g/m*3 8.2 C 0 km/h
2020 27-11-2009 20:09:01 8.3 C 5.14 g/m*3 8.3 C 0 km/h
2021 27-11-2009 20:21:02 8.2 C 5.11 g/m*3 8.2 C 0 km/h
2022 27-11-2009 20:33:01 8.2 C 5.11 g/m*3 8.2 C 0 km/h
2023 27-11-2009 20:45:02 8.2 C 5.11 g/m*3 8.2 C 0 km/h
2024 27-11-2009 20:57:02 8.1 C 5.08 g/m*3 8.1 C 0 km/h
2025 27-11-2009 21:09:01 8.1 C 5.16 g/m*3 8.1 C 0 km/h
Sensor: Nr:Datum:Temp:Abs-Feuchte:Windchill:Wind:
Aussen-T/F 2026 27-11-2009 21:21:01 8.3 C 5.23 g/m*3 8.3 C 0 km/h
2027 27-11-2009 21:33:02 8.3 C 5.14 g/m*3 8.3 C 0 km/h
2028 27-11-2009 21:45:02 8.1 C 5.08 g/m*3 8.1 C 0 km/h
2029 27-11-2009 21:57:03 8 C 5.04 g/m*3 8 C 0 km/h
2030 27-11-2009 22:09:02 8 C 5.04 g/m*3 8 C 0 km/h
2031 27-11-2009 22:21:02 8.1 C 5.08 g/m*3 8.1 C 0 km/h
2032 27-11-2009 22:34:04 8 C 5.13 g/m*3 8 C 0 km/h
2033 27-11-2009 22:46:04 8.1 C 5.24 g/m*3 8.1 C 0 km/h
2034 27-11-2009 22:58:04 8 C 5.29 g/m*3 8 C 0 km/h
2035 27-11-2009 23:10:04 7.9 C 5.59 g/m*3 7.9 C 0 km/h
2036 27-11-2009 23:22:04 7.8 C 5.55 g/m*3 7.8 C 0 km/h
2037 27-11-2009 23:34:04 7.9 C 5.5 g/m*3 7.9 C 0 km/h
2038 27-11-2009 23:46:04 8 C 5.37 g/m*3 8 C 0 km/h
2039 27-11-2009 23:58:04 8 C 5.29 g/m*3 8 C 0 km/h
2040 28-11-2009 00:10:04 7.9 C 5.26 g/m*3 7.9 C 0 km/h
2041 28-11-2009 00:22:04 8 C 5.21 g/m*3 8 C 0 km/h
2042 28-11-2009 00:34:04 8.1 C 5.16 g/m*3 8.1 C 0 km/h
2043 28-11-2009 00:46:04 8 C 5.37 g/m*3 8 C 0 km/h
2044 28-11-2009 00:58:05 7.3 C 5.69 g/m*3 7.3 C 0 km/h
2045 28-11-2009 01:10:05 7 C 5.81 g/m*3 7 C 0 km/h
2046 28-11-2009 01:22:05 7.4 C 5.88 g/m*3 7.4 C 0 km/h
2047 28-11-2009 01:34:05 7.3 C 5.93 g/m*3 7.3 C 0 km/h
2048 28-11-2009 01:46:05 7.4 C 5.88 g/m*3 7.4 C 0 km/h
2049 28-11-2009 01:58:05 7.6 C 5.72 g/m*3 7.6 C 0 km/h
2050 28-11-2009 02:10:05 7.6 C 5.56 g/m*3 7.6 C 0 km/h
Sensor: Nr:Datum:Temp:Abs-Feuchte:Windchill:Wind:
Aussen-T/F 2051 28-11-2009 02:22:05 7.5 C 5.6 g/m*3 7.5 C 0 km/h
2052 28-11-2009 02:34:05 7.5 C 5.6 g/m*3 7.5 C 0 km/h
2053 28-11-2009 02:46:05 7.5 C 5.6 g/m*3 7.5 C 0 km/h
2054 28-11-2009 02:58:05 7.8 C 5.55 g/m*3 7.8 C 0 km/h
2055 28-11-2009 03:10:05 8 C 5.46 g/m*3 8 C 0 km/h
2056 28-11-2009 03:22:05 8 C 5.37 g/m*3 8 C 0 km/h
2057 28-11-2009 03:34:05 7.9 C 5.34 g/m*3 7.9 C 0 km/h
2058 28-11-2009 03:46:05 7.9 C 5.42 g/m*3 7.9 C 0 km/h
2059 28-11-2009 03:58:05 8 C 5.29 g/m*3 8 C 0 km/h
2060 28-11-2009 04:10:05 7.6 C 5.32 g/m*3 7.6 C 0 km/h
2061 28-11-2009 04:22:05 7.6 C 5.24 g/m*3 7.6 C 0 km/h
2062 28-11-2009 04:34:05 7.5 C 5.28 g/m*3 7.5 C 0 km/h
2063 28-11-2009 04:46:05 7.7 C 5.27 g/m*3 7.7 C 0 km/h
2064 28-11-2009 04:58:06 7.9 C 5.26 g/m*3 7.9 C 0 km/h
2065 28-11-2009 05:10:06 7.9 C 5.17 g/m*3 7.9 C 0 km/h
2066 28-11-2009 05:22:06 7.9 C 5.34 g/m*3 7.9 C 0 km/h
2067 28-11-2009 05:34:06 7.1 C 5.77 g/m*3 7.1 C 0 km/h
2068 28-11-2009 05:46:06 7 C 5.89 g/m*3 7 C 0 km/h
2069 28-11-2009 05:58:06 6.9 C 5.93 g/m*3 6.9 C 0 km/h
2070 28-11-2009 06:10:06 7.3 C 5.77 g/m*3 7.3 C 0 km/h
2071 28-11-2009 06:22:06 7.4 C 5.73 g/m*3 7.4 C 0 km/h
2072 28-11-2009 06:34:06 7.6 C 5.72 g/m*3 7.6 C 0 km/h
2073 28-11-2009 06:46:06 7.5 C 5.68 g/m*3 7.5 C 0 km/h
2074 28-11-2009 06:58:06 7.5 C 5.68 g/m*3 7.5 C 0 km/h
2075 28-11-2009 07:10:06 7.4 C 5.65 g/m*3 7.4 C 0 km/h
Sensor: Nr:Datum:Temp:Abs-Feuchte:Windchill:Wind:
Aussen-T/F 2076 28-11-2009 07:22:06 7.5 C 5.6 g/m*3 7.5 C 0 km/h
2077 28-11-2009 07:34:06 7.4 C 5.65 g/m*3 7.4 C 0 km/h
2078 28-11-2009 07:46:06 7.3 C 5.61 g/m*3 7.3 C 0 km/h
2079 28-11-2009 07:58:06 7.2 C 5.65 g/m*3 7.2 C 0 km/h
2080 28-11-2009 08:10:03 7 C 5.58 g/m*3 7 C 0 km/h
2081 28-11-2009 08:22:03 7.2 C 5.73 g/m*3 7.2 C 0 km/h
2082 28-11-2009 08:34:03 7.3 C 5.77 g/m*3 7.3 C 0 km/h
2083 28-11-2009 08:46:01 7.7 C 5.76 g/m*3 7.7 C 0 km/h
2084 28-11-2009 08:58:01 7.7 C 5.68 g/m*3 7.7 C 0 km/h
2085 28-11-2009 09:10:02 7.6 C 5.72 g/m*3 7.6 C 0 km/h
2086 28-11-2009 09:22:01 8 C 5.7 g/m*3 8 C 0 km/h
2087 28-11-2009 09:34:02 8.2 C 5.78 g/m*3 8.2 C 0 km/h
2088 28-11-2009 09:46:02 8.4 C 5.77 g/m*3 8.4 C 0 km/h
2089 28-11-2009 09:58:02 8.5 C 5.81 g/m*3 8.5 C 0 km/h
2090 28-11-2009 10:10:02 8.5 C 5.89 g/m*3 8.5 C 0 km/h
2091 28-11-2009 10:22:02 8.6 C 5.84 g/m*3 8.6 C 0 km/h
2092 28-11-2009 10:34:02 8.7 C 5.88 g/m*3 8.7 C 0 km/h
2093 28-11-2009 10:46:01 8.7 C 5.88 g/m*3 8.7 C 0 km/h
2094 28-11-2009 10:58:01 9.2 C 5.8 g/m*3 9.2 C 0 km/h
2095 28-11-2009 11:10:02 9.5 C 5.64 g/m*3 9.5 C 0 km/h
2096 28-11-2009 11:22:02 9.7 C 5.62 g/m*3 9.7 C 0 km/h
2097 28-11-2009 11:34:01 9.7 C 5.72 g/m*3 9.7 C 0 km/h
2098 28-11-2009 11:46:02 9.5 C 5.83 g/m*3 9.5 C 0 km/h
2099 28-11-2009 11:58:02 9.2 C 5.98 g/m*3 9.2 C 0 km/h
2100 28-11-2009 12:10:01 8.8 C 6.18 g/m*3 8.8 C 0 km/h
Sensor: Nr:Datum:Temp:Abs-Feuchte:Windchill:Wind:
Aussen-T/F 2101 28-11-2009 12:22:02 8.4 C 6.36 g/m*3 8.4 C 0 km/h
2102 28-11-2009 12:34:01 8.3 C 6.41 g/m*3 8.3 C 0 km/h
2103 28-11-2009 12:46:02 8.3 C 6.41 g/m*3 8.3 C 0 km/h
2104 28-11-2009 12:58:02 8.4 C 6.45 g/m*3 8.4 C 0 km/h
2105 28-11-2009 13:10:01 8.5 C 6.49 g/m*3 8.5 C 0 km/h
2106 28-11-2009 13:22:01 8.6 C 6.44 g/m*3 8.6 C 0 km/h
2107 28-11-2009 13:34:01 8.8 C 6.44 g/m*3 8.8 C 0 km/h
2108 28-11-2009 13:46:02 9 C 6.35 g/m*3 9 C 0 km/h
2109 28-11-2009 13:58:02 9.1 C 6.12 g/m*3 9.1 C 0 km/h
2110 28-11-2009 14:10:02 9.2 C 6.16 g/m*3 9.2 C 0 km/h
2111 28-11-2009 14:22:02 9.2 C 6.16 g/m*3 9.2 C 0 km/h
2112 28-11-2009 14:34:02 9.3 C 6.2 g/m*3 9.3 C 0 km/h
2113 28-11-2009 14:46:02 9.4 C 6.24 g/m*3 9.4 C 0 km/h
2114 28-11-2009 14:58:03 9.3 C 6.2 g/m*3 9.3 C 0 km/h
2115 28-11-2009 15:10:01 9.3 C 6.29 g/m*3 9.3 C 0 km/h
2116 28-11-2009 15:22:01 9.2 C 6.34 g/m*3 9.2 C 0 km/h
2117 28-11-2009 15:34:02 9.2 C 6.43 g/m*3 9.2 C 0 km/h
2118 28-11-2009 15:46:02 9.4 C 6.33 g/m*3 9.4 C 0 km/h
2119 28-11-2009 15:58:02 9.3 C 6.38 g/m*3 9.3 C 0 km/h
2120 28-11-2009 16:10:03 9.4 C 6.51 g/m*3 9.4 C 0 km/h
2121 28-11-2009 16:22:02 9.3 C 6.56 g/m*3 9.3 C 0 km/h
2122 28-11-2009 16:34:02 9.4 C 6.6 g/m*3 9.4 C 0 km/h
2123 28-11-2009 16:46:01 9.5 C 6.55 g/m*3 9.5 C 0 km/h
2124 28-11-2009 16:58:01 9.6 C 6.5 g/m*3 9.6 C 0 km/h
2125 28-11-2009 17:10:02 9.8 C 6.49 g/m*3 9.8 C 0 km/h
Sensor: Nr:Datum:Temp:Abs-Feuchte:Windchill:Wind:
Aussen-T/F 2126 28-11-2009 17:22:01 9.7 C 6.45 g/m*3 9.7 C 0 km/h
2127 28-11-2009 17:34:02 9.6 C 6.5 g/m*3 9.6 C 0 km/h
2128 28-11-2009 17:46:02 9.5 C 6.55 g/m*3 9.5 C 0 km/h
2129 28-11-2009 17:58:02 9.6 C 6.6 g/m*3 9.6 C 0 km/h
2130 28-11-2009 18:10:02 9.7 C 6.55 g/m*3 9.7 C 0 km/h
2131 28-11-2009 18:22:01 9.7 C 6.55 g/m*3 9.7 C 0 km/h
2132 28-11-2009 18:34:02 9.9 C 6.54 g/m*3 9.9 C 0 km/h
2133 28-11-2009 18:46:02 10 C 6.48 g/m*3 10 C 0 km/h
2134 28-11-2009 18:58:02 9.9 C 6.63 g/m*3 9.9 C 0 km/h
2135 28-11-2009 19:10:02 9.5 C 6.74 g/m*3 9.5 C 0 km/h
2136 28-11-2009 19:22:01 9.6 C 6.78 g/m*3 9.6 C 0 km/h
2137 28-11-2009 19:34:02 9.9 C 6.72 g/m*3 9.9 C 0 km/h
2138 28-11-2009 19:46:02 10.2 C 6.57 g/m*3 10.2 C 0 km/h
2139 28-11-2009 19:58:02 10.3 C 6.51 g/m*3 10.3 C 0 km/h
2140 28-11-2009 20:10:02 10.4 C 6.46 g/m*3 10.4 C 0 km/h
2141 28-11-2009 20:22:01 10.4 C 6.46 g/m*3 10.4 C 0 km/h
2142 28-11-2009 20:34:02 10.1 C 6.43 g/m*3 10.1 C 0 km/h
2143 28-11-2009 20:46:01 10.2 C 6.47 g/m*3 10.2 C 0 km/h
2144 28-11-2009 20:58:01 10.4 C 6.46 g/m*3 10.4 C 0 km/h
2145 28-11-2009 21:10:02 10.5 C 6.4 g/m*3 10.5 C 0 km/h
2146 28-11-2009 21:22:02 10.6 C 6.25 g/m*3 10.6 C 0 km/h
2147 28-11-2009 21:34:02 10.8 C 6.13 g/m*3 10.8 C 0 km/h
2148 28-11-2009 21:46:02 10.9 C 6.07 g/m*3 10.9 C 0 km/h
2149 28-11-2009 21:58:02 10.9 C 5.97 g/m*3 10.9 C 0 km/h
2150 28-11-2009 22:10:03 10.9 C 5.77 g/m*3 10.9 C 0 km/h
Sensor: Nr:Datum:Temp:Abs-Feuchte:Windchill:Wind:
Aussen-T/F 2151 28-11-2009 22:22:02 10.9 C 5.77 g/m*3 10.9 C 0 km/h
2152 28-11-2009 22:34:02 10.5 C 5.72 g/m*3 10.5 C 0 km/h
2153 28-11-2009 22:46:01 10.3 C 5.65 g/m*3 10.3 C 0 km/h
2154 28-11-2009 22:58:01 10.4 C 5.59 g/m*3 10.4 C 0 km/h
2155 28-11-2009 23:11:02 10.3 C 5.65 g/m*3 10.3 C 0 km/h
2156 28-11-2009 23:23:02 10.4 C 5.59 g/m*3 10.4 C 0 km/h
2157 28-11-2009 23:35:02 10.4 C 5.59 g/m*3 10.4 C 0 km/h
2158 28-11-2009 23:47:02 10.4 C 5.49 g/m*3 10.4 C 0 km/h
2159 28-11-2009 23:59:02 10.2 C 5.42 g/m*3 10.2 C 0 km/h
2160 29-11-2009 00:11:02 9.8 C 5.47 g/m*3 9.8 C 0 km/h
2161 29-11-2009 00:23:02 9.7 C 5.35 g/m*3 9.7 C 0 km/h
2162 29-11-2009 00:35:02 9.6 C 5.4 g/m*3 9.6 C 0 km/h
2163 29-11-2009 00:47:02 9.5 C 5.37 g/m*3 9.5 C 0 km/h
2164 29-11-2009 00:59:02 9.6 C 5.31 g/m*3 9.6 C 0 km/h
2165 29-11-2009 01:11:02 10 C 5.26 g/m*3 10 C 0 km/h
2166 29-11-2009 01:23:02 10.1 C 5.11 g/m*3 10.1 C 0 km/h
2167 29-11-2009 01:35:03 10 C 5.17 g/m*3 10 C 0 km/h
2168 29-11-2009 01:47:03 10.1 C 5.01 g/m*3 10.1 C 0 km/h
2169 29-11-2009 01:59:03 10.4 C 4.92 g/m*3 10.4 C 0 km/h
2170 29-11-2009 02:11:03 10.6 C 4.88 g/m*3 10.6 C 0 km/h
2171 29-11-2009 02:23:03 10.7 C 4.81 g/m*3 10.7 C 0 km/h
2172 29-11-2009 02:35:03 10.6 C 4.88 g/m*3 10.6 C 0 km/h
2173 29-11-2009 02:47:03 10.7 C 4.71 g/m*3 10.7 C 0 km/h
2174 29-11-2009 02:59:03 10.6 C 4.78 g/m*3 10.6 C 0 km/h
2175 29-11-2009 03:11:03 10.4 C 4.82 g/m*3 10.4 C 0 km/h
Sensor: Nr:Datum:Temp:Abs-Feuchte:Windchill:Wind:
Aussen-T/F 2176 29-11-2009 03:23:03 10.1 C 4.82 g/m*3 10.1 C 0 km/h
2177 29-11-2009 03:35:03 10.1 C 4.73 g/m*3 10.1 C 0 km/h
2178 29-11-2009 03:47:03 9.9 C 4.86 g/m*3 9.9 C 0 km/h
2179 29-11-2009 03:59:03 9.5 C 4.82 g/m*3 9.5 C 0 km/h
2180 29-11-2009 04:11:03 9 C 4.94 g/m*3 9 C 0 km/h
2181 29-11-2009 04:23:03 8.8 C 5.05 g/m*3 8.8 C 0 km/h
2182 29-11-2009 04:35:03 8.7 C 5.02 g/m*3 8.7 C 0 km/h
2183 29-11-2009 04:47:03 8.4 C 5.09 g/m*3 8.4 C 0 km/h
2184 29-11-2009 04:59:03 8.1 C 5.08 g/m*3 8.1 C 0 km/h
2185 29-11-2009 05:11:03 8.2 C 5.02 g/m*3 8.2 C 0 km/h
2186 29-11-2009 05:23:04 8.5 C 5.12 g/m*3 8.5 C 0 km/h
2187 29-11-2009 05:35:04 8.6 C 4.98 g/m*3 8.6 C 0 km/h
2188 29-11-2009 05:47:04 8.3 C 4.89 g/m*3 8.3 C 0 km/h
2189 29-11-2009 05:59:04 8.1 C 4.99 g/m*3 8.1 C 0 km/h
2190 29-11-2009 06:11:04 8 C 4.96 g/m*3 8 C 0 km/h
2191 29-11-2009 06:23:04 8.1 C 4.91 g/m*3 8.1 C 0 km/h
2192 29-11-2009 06:35:04 8.2 C 4.86 g/m*3 8.2 C 0 km/h
2193 29-11-2009 06:47:04 8.3 C 4.89 g/m*3 8.3 C 0 km/h
2194 29-11-2009 06:59:04 8.1 C 4.91 g/m*3 8.1 C 0 km/h
2195 29-11-2009 07:11:04 8.3 C 4.8 g/m*3 8.3 C 0 km/h
2196 29-11-2009 07:23:04 8.2 C 4.77 g/m*3 8.2 C 0 km/h
2197 29-11-2009 07:35:03 7.9 C 4.93 g/m*3 7.9 C 0 km/h
2198 29-11-2009 07:47:02 8.1 C 4.99 g/m*3 8.1 C 0 km/h
2199 29-11-2009 07:59:02 8.1 C 4.99 g/m*3 8.1 C 0 km/h
2200 29-11-2009 08:11:03 8.3 C 5.06 g/m*3 8.3 C 0 km/h
Sensor: Nr:Datum:Temp:Abs-Feuchte:Windchill:Wind:
Aussen-T/F 2201 29-11-2009 08:23:02 8.6 C 5.16 g/m*3 8.6 C 0 km/h
2202 29-11-2009 08:35:02 8.6 C 5.24 g/m*3 8.6 C 0 km/h
2203 29-11-2009 08:47:01 8.7 C 5.28 g/m*3 8.7 C 0 km/h
2204 29-11-2009 08:59:01 8.9 C 5.34 g/m*3 8.9 C 0 km/h
2205 29-11-2009 09:11:02 9.1 C 5.32 g/m*3 9.1 C 0 km/h
2206 29-11-2009 09:23:01 9.4 C 5.25 g/m*3 9.4 C 0 km/h
2207 29-11-2009 09:35:02 9.4 C 5.25 g/m*3 9.4 C 0 km/h
2208 29-11-2009 09:47:02 9.5 C 5.37 g/m*3 9.5 C 0 km/h
2209 29-11-2009 09:59:02 9.8 C 5.38 g/m*3 9.8 C 0 km/h
2210 29-11-2009 10:11:02 10 C 5.45 g/m*3 10 C 0 km/h
2211 29-11-2009 10:23:02 10.2 C 5.33 g/m*3 10.2 C 0 km/h
2212 29-11-2009 10:35:01 10.5 C 5.33 g/m*3 10.5 C 0 km/h
2213 29-11-2009 10:47:02 10.5 C 5.33 g/m*3 10.5 C 0 km/h
2214 29-11-2009 10:59:02 11 C 5.41 g/m*3 11 C 0 km/h
2215 29-11-2009 11:11:01 11.2 C 5.27 g/m*3 11.2 C 0 km/h
2216 29-11-2009 11:23:02 11.3 C 5.2 g/m*3 11.3 C 0 km/h
2217 29-11-2009 11:35:02 11.3 C 5.1 g/m*3 11.3 C 0 km/h
2218 29-11-2009 11:47:02 11.5 C 5.16 g/m*3 11.5 C 0 km/h
2219 29-11-2009 11:59:03 11.7 C 5.33 g/m*3 11.7 C 0 km/h
2220 29-11-2009 12:11:02 11.9 C 5.3 g/m*3 11.9 C 0 km/h
2221 29-11-2009 12:23:02 12.1 C 5.15 g/m*3 12.1 C 0 km/h
2222 29-11-2009 12:35:02 12.5 C 5.17 g/m*3 12.5 C 0 km/h
2223 29-11-2009 12:47:02 12.8 C 5.26 g/m*3 12.8 C 0 km/h
2224 29-11-2009 12:59:02 13.2 C 5.28 g/m*3 13.2 C 0 km/h
2225 29-11-2009 13:11:01 13.4 C 5.23 g/m*3 13.4 C 0 km/h
Sensor: Nr:Datum:Temp:Abs-Feuchte:Windchill:Wind:
Aussen-T/F 2226 29-11-2009 13:23:01 13.7 C 5.33 g/m*3 13.7 C 0 km/h
2227 29-11-2009 13:35:02 13.8 C 5.24 g/m*3 13.8 C 0 km/h
2228 29-11-2009 13:47:02 13 C 5.67 g/m*3 13 C 0 km/h
2229 29-11-2009 13:59:02 12.7 C 6.12 g/m*3 12.7 C 0 km/h
2230 29-11-2009 14:11:02 11.7 C 6.48 g/m*3 11.7 C 0 km/h
2231 29-11-2009 14:23:02 11 C 6.91 g/m*3 11 C 0 km/h
2232 29-11-2009 14:35:02 10.8 C 7.12 g/m*3 10.8 C 0 km/h
2233 29-11-2009 14:47:02 10.7 C 7.17 g/m*3 10.7 C 0 km/h
2234 29-11-2009 14:59:02 10.5 C 7.18 g/m*3 10.5 C 0 km/h
2235 29-11-2009 15:11:03 10.4 C 7.13 g/m*3 10.4 C 0 km/h
2236 29-11-2009 15:23:02 10.3 C 7.28 g/m*3 10.3 C 0 km/h
2237 29-11-2009 15:35:02 10.2 C 7.23 g/m*3 10.2 C 0 km/h
2238 29-11-2009 15:47:01 9.9 C 7.28 g/m*3 9.9 C 0 km/h
2239 29-11-2009 15:59:01 9.9 C 7.28 g/m*3 9.9 C 0 km/h
2240 29-11-2009 16:11:02 9.9 C 7.19 g/m*3 9.9 C 0 km/h
2241 29-11-2009 16:23:01 9.8 C 7.14 g/m*3 9.8 C 0 km/h
2242 29-11-2009 16:35:02 9.7 C 7.19 g/m*3 9.7 C 0 km/h
2243 29-11-2009 16:47:01 9.5 C 7.19 g/m*3 9.5 C 0 km/h
2244 29-11-2009 16:59:01 9.5 C 7.28 g/m*3 9.5 C 0 km/h
2245 29-11-2009 17:11:02 9.4 C 7.33 g/m*3 9.4 C 0 km/h
2246 29-11-2009 17:23:01 9.3 C 7.37 g/m*3 9.3 C 0 km/h
2247 29-11-2009 17:35:02 9.2 C 7.32 g/m*3 9.2 C 0 km/h
2248 29-11-2009 17:47:01 9 C 7.23 g/m*3 9 C 0 km/h
2249 29-11-2009 17:59:01 8.9 C 7.36 g/m*3 8.9 C 0 km/h
2250 29-11-2009 18:11:02 8.7 C 7.26 g/m*3 8.7 C 0 km/h
Sensor: Nr:Datum:Temp:Abs-Feuchte:Windchill:Wind:
Aussen-T/F 2251 29-11-2009 18:23:01 8.5 C 7.26 g/m*3 8.5 C 0 km/h
2252 29-11-2009 18:35:02 8.4 C 7.3 g/m*3 8.4 C 0 km/h
2253 29-11-2009 18:47:01 8.3 C 7.25 g/m*3 8.3 C 0 km/h
2254 29-11-2009 18:59:01 8.2 C 7.29 g/m*3 8.2 C 0 km/h
2255 29-11-2009 19:11:02 8.2 C 7.37 g/m*3 8.2 C 0 km/h
2256 29-11-2009 19:23:02 8.2 C 7.37 g/m*3 8.2 C 0 km/h
2257 29-11-2009 19:35:01 8.2 C 7.45 g/m*3 8.2 C 0 km/h
2258 29-11-2009 19:47:02 8.1 C 7.41 g/m*3 8.1 C 0 km/h
2259 29-11-2009 19:59:02 8.1 C 7.49 g/m*3 8.1 C 0 km/h
2260 29-11-2009 20:11:01 8.1 C 7.49 g/m*3 8.1 C 0 km/h
2261 29-11-2009 20:23:02 8.1 C 7.57 g/m*3 8.1 C 0 km/h
2262 29-11-2009 20:35:01 8.1 C 7.57 g/m*3 8.1 C 0 km/h
2263 29-11-2009 20:47:02 7.9 C 7.56 g/m*3 7.9 C 0 km/h
2264 29-11-2009 20:59:02 7.8 C 7.51 g/m*3 7.8 C 0 km/h
2265 29-11-2009 21:11:02 7.6 C 7.41 g/m*3 7.6 C 0 km/h
2266 29-11-2009 21:23:01 7.6 C 7.41 g/m*3 7.6 C 0 km/h
2267 29-11-2009 21:35:02 7.5 C 7.36 g/m*3 7.5 C 0 km/h
2268 29-11-2009 21:47:01 7.4 C 7.4 g/m*3 7.4 C 0 km/h
2269 29-11-2009 21:59:01 7.4 C 7.4 g/m*3 7.4 C 0 km/h
2270 29-11-2009 22:11:02 7.3 C 7.35 g/m*3 7.3 C 0 km/h
2271 29-11-2009 22:23:01 7.2 C 7.3 g/m*3 7.2 C 0 km/h
2272 29-11-2009 22:36:02 7.1 C 7.25 g/m*3 7.1 C 0 km/h
2273 29-11-2009 22:48:02 7.1 C 7.33 g/m*3 7.1 C 0 km/h
2274 29-11-2009 23:00:02 7.1 C 7.33 g/m*3 7.1 C 0 km/h
2275 29-11-2009 23:12:02 7.1 C 7.33 g/m*3 7.1 C 0 km/h
Sensor: Nr:Datum:Temp:Abs-Feuchte:Windchill:Wind:
Aussen-T/F 2276 29-11-2009 23:24:02 7 C 7.28 g/m*3 7 C 0 km/h
2277 29-11-2009 23:36:03 7 C 7.28 g/m*3 7 C 0 km/h
2278 29-11-2009 23:48:03 7 C 7.28 g/m*3 7 C 0 km/h
2279 30-11-2009 00:00:03 6.9 C 7.31 g/m*3 6.9 C 0 km/h
2280 30-11-2009 00:12:03 6.9 C 7.31 g/m*3 6.9 C 0 km/h
2281 30-11-2009 00:24:03 6.7 C 7.22 g/m*3 6.7 C 0 km/h
2282 30-11-2009 00:36:03 6.5 C 7.12 g/m*3 6.5 C 0 km/h
2283 30-11-2009 00:48:03 6.4 C 7.08 g/m*3 6.4 C 0 km/h
2284 30-11-2009 01:00:03 6.4 C 7.08 g/m*3 6.4 C 0 km/h
2285 30-11-2009 01:12:03 6.4 C 7.08 g/m*3 6.4 C 0 km/h
2286 30-11-2009 01:24:03 6.4 C 7.08 g/m*3 6.4 C 0 km/h
2287 30-11-2009 01:36:03 6.4 C 7.08 g/m*3 6.4 C 0 km/h
2288 30-11-2009 01:48:03 6.3 C 7.03 g/m*3 6.3 C 0 km/h
2289 30-11-2009 02:00:03 6.2 C 6.99 g/m*3 6.2 C 0 km/h
2290 30-11-2009 02:12:03 6.2 C 6.99 g/m*3 6.2 C 0 km/h
2291 30-11-2009 02:24:03 6.3 C 7.03 g/m*3 6.3 C 0 km/h
2292 30-11-2009 02:36:03 6.3 C 7.03 g/m*3 6.3 C 0 km/h
2293 30-11-2009 02:48:03 6.2 C 6.99 g/m*3 6.2 C 0 km/h
2294 30-11-2009 03:00:03 6.2 C 6.91 g/m*3 6.2 C 0 km/h
2295 30-11-2009 03:12:03 6.1 C 6.87 g/m*3 6.1 C 0 km/h
2296 30-11-2009 03:24:04 6.2 C 6.84 g/m*3 6.2 C 0 km/h
2297 30-11-2009 03:36:04 6.2 C 6.77 g/m*3 6.2 C 0 km/h
2298 30-11-2009 03:48:04 6.2 C 6.69 g/m*3 6.2 C 0 km/h
2299 30-11-2009 04:00:04 6.2 C 6.69 g/m*3 6.2 C 0 km/h
2300 30-11-2009 04:12:04 6.2 C 6.62 g/m*3 6.2 C 0 km/h
Sensor: Nr:Datum:Temp:Abs-Feuchte:Windchill:Wind:
Aussen-T/F 2301 30-11-2009 04:24:04 6.2 C 6.62 g/m*3 6.2 C 0 km/h
2302 30-11-2009 04:36:04 6.2 C 6.62 g/m*3 6.2 C 0 km/h
2303 30-11-2009 04:48:04 6.3 C 6.66 g/m*3 6.3 C 0 km/h
2304 30-11-2009 05:00:04 6.3 C 6.66 g/m*3 6.3 C 0 km/h
2305 30-11-2009 05:12:04 6.4 C 6.71 g/m*3 6.4 C 0 km/h
2306 30-11-2009 05:24:04 6.3 C 6.59 g/m*3 6.3 C 0 km/h
2307 30-11-2009 05:36:04 6.3 C 6.66 g/m*3 6.3 C 0 km/h
2308 30-11-2009 05:48:04 6.4 C 6.71 g/m*3 6.4 C 0 km/h
2309 30-11-2009 06:00:04 6.4 C 6.71 g/m*3 6.4 C 0 km/h
2310 30-11-2009 06:12:04 6.4 C 6.71 g/m*3 6.4 C 0 km/h
2311 30-11-2009 06:24:04 6.2 C 6.55 g/m*3 6.2 C 0 km/h
2312 30-11-2009 06:36:04 6.2 C 6.55 g/m*3 6.2 C 0 km/h
2313 30-11-2009 06:48:04 6.1 C 6.5 g/m*3 6.1 C 0 km/h
2314 30-11-2009 07:00:04 6 C 6.39 g/m*3 6 C 0 km/h
2315 30-11-2009 07:12:02 6 C 6.39 g/m*3 6 C 0 km/h
2316 30-11-2009 07:24:02 6 C 6.31 g/m*3 6 C 0 km/h
2317 30-11-2009 07:36:02 5.9 C 6.42 g/m*3 5.9 C 0 km/h
2318 30-11-2009 07:48:02 5.9 C 6.42 g/m*3 5.9 C 0 km/h
2319 30-11-2009 08:00:02 5.8 C 6.45 g/m*3 5.8 C 0 km/h
2320 30-11-2009 08:12:01 5.8 C 6.45 g/m*3 5.8 C 0 km/h
2321 30-11-2009 08:24:01 5.6 C 6.29 g/m*3 5.6 C 0 km/h
2322 30-11-2009 08:36:02 5.5 C 6.32 g/m*3 5.5 C 0 km/h
2323 30-11-2009 08:48:02 5.6 C 6.36 g/m*3 5.6 C 0 km/h
2324 30-11-2009 09:00:02 5.9 C 6.56 g/m*3 5.9 C 0 km/h
2325 30-11-2009 09:12:02 6 C 6.53 g/m*3 6 C 0 km/h
Sensor: Nr:Datum:Temp:Abs-Feuchte:Windchill:Wind:
Aussen-T/F 2326 30-11-2009 09:24:02 6.2 C 6.55 g/m*3 6.2 C 0 km/h
2327 30-11-2009 09:36:02 6.3 C 6.59 g/m*3 6.3 C 0 km/h
2328 30-11-2009 09:48:03 6.4 C 6.63 g/m*3 6.4 C 0 km/h
2329 30-11-2009 10:00:03 6.4 C 6.56 g/m*3 6.4 C 0 km/h
2330 30-11-2009 10:12:02 6.5 C 6.37 g/m*3 6.5 C 0 km/h
2331 30-11-2009 10:24:02 6.7 C 6.38 g/m*3 6.7 C 0 km/h
2332 30-11-2009 10:36:02 7 C 6.43 g/m*3 7 C 0 km/h
2333 30-11-2009 10:48:02 7.1 C 6.47 g/m*3 7.1 C 0 km/h
2334 30-11-2009 11:00:02 7.3 C 6.4 g/m*3 7.3 C 0 km/h
2335 30-11-2009 11:12:02 7.4 C 6.28 g/m*3 7.4 C 0 km/h
2336 30-11-2009 11:24:02 7.3 C 6.08 g/m*3 7.3 C 0 km/h
2337 30-11-2009 11:36:01 7.4 C 6.12 g/m*3 7.4 C 0 km/h
2338 30-11-2009 11:48:02 7.5 C 6.16 g/m*3 7.5 C 0 km/h
2339 30-11-2009 12:00:02 7.6 C 6.12 g/m*3 7.6 C 0 km/h
2340 30-11-2009 12:12:01 7.6 C 6.04 g/m*3 7.6 C 0 km/h
2341 30-11-2009 12:24:02 7.8 C 6.04 g/m*3 7.8 C 0 km/h
2342 30-11-2009 12:36:01 8 C 6.04 g/m*3 8 C 0 km/h
2343 30-11-2009 12:48:02 8 C 5.87 g/m*3 8 C 0 km/h
2344 30-11-2009 13:00:02 7.9 C 5.91 g/m*3 7.9 C 0 km/h
2345 30-11-2009 13:12:02 8.2 C 5.95 g/m*3 8.2 C 0 km/h
2346 30-11-2009 13:24:02 8.1 C 5.82 g/m*3 8.1 C 0 km/h
2347 30-11-2009 13:36:03 8.1 C 5.74 g/m*3 8.1 C 0 km/h
2348 30-11-2009 13:48:02 8.2 C 5.69 g/m*3 8.2 C 0 km/h
2349 30-11-2009 14:00:02 8.3 C 5.65 g/m*3 8.3 C 0 km/h
2350 30-11-2009 14:12:01 8.4 C 5.68 g/m*3 8.4 C 0 km/h
Sensor: Nr:Datum:Temp:Abs-Feuchte:Windchill:Wind:
Aussen-T/F 2351 30-11-2009 14:24:02 8.3 C 5.65 g/m*3 8.3 C 0 km/h
2352 30-11-2009 14:36:02 8.3 C 5.73 g/m*3 8.3 C 0 km/h
2353 30-11-2009 14:48:02 8.3 C 5.65 g/m*3 8.3 C 0 km/h
2354 30-11-2009 15:00:02 8.1 C 5.66 g/m*3 8.1 C 0 km/h
2355 30-11-2009 15:12:03 8 C 5.7 g/m*3 8 C 0 km/h
2356 30-11-2009 15:24:02 7.9 C 5.75 g/m*3 7.9 C 0 km/h
2357 30-11-2009 15:36:02 7.8 C 5.88 g/m*3 7.8 C 0 km/h
2358 30-11-2009 15:48:01 7.6 C 5.8 g/m*3 7.6 C 0 km/h
2359 30-11-2009 16:00:01 7.3 C 5.77 g/m*3 7.3 C 0 km/h
2360 30-11-2009 16:12:02 7 C 5.81 g/m*3 7 C 0 km/h
2361 30-11-2009 16:24:01 6.6 C 5.89 g/m*3 6.6 C 0 km/h
2362 30-11-2009 16:36:02 6.3 C 5.85 g/m*3 6.3 C 0 km/h
2363 30-11-2009 16:48:02 6.1 C 5.84 g/m*3 6.1 C 0 km/h
2364 30-11-2009 17:00:02 6 C 5.88 g/m*3 6 C 0 km/h
2365 30-11-2009 17:12:02 5.9 C 5.91 g/m*3 5.9 C 0 km/h
2366 30-11-2009 17:24:01 6 C 5.95 g/m*3 6 C 0 km/h
2367 30-11-2009 17:36:02 6 C 5.95 g/m*3 6 C 0 km/h
2368 30-11-2009 17:48:02 6 C 5.95 g/m*3 6 C 0 km/h
2369 30-11-2009 18:00:02 6 C 6.02 g/m*3 6 C 0 km/h
2370 30-11-2009 18:12:02 6 C 6.02 g/m*3 6 C 0 km/h
2371 30-11-2009 18:24:01 5.9 C 6.06 g/m*3 5.9 C 0 km/h
2372 30-11-2009 18:36:02 6 C 6.02 g/m*3 6 C 0 km/h
2373 30-11-2009 18:48:02 6.1 C 6.06 g/m*3 6.1 C 0 km/h
2374 30-11-2009 19:00:02 6 C 6.02 g/m*3 6 C 0 km/h
2375 30-11-2009 19:12:02 6 C 6.02 g/m*3 6 C 0 km/h
Sensor: Nr:Datum:Temp:Abs-Feuchte:Windchill:Wind:
Aussen-T/F 2376 30-11-2009 19:24:01 5.9 C 6.06 g/m*3 5.9 C 0 km/h
2377 30-11-2009 19:36:02 5.9 C 6.13 g/m*3 5.9 C 0 km/h
2378 30-11-2009 19:48:01 5.9 C 6.13 g/m*3 5.9 C 0 km/h
2379 30-11-2009 20:00:01 5.9 C 6.13 g/m*3 5.9 C 0 km/h
2380 30-11-2009 20:12:02 5.9 C 6.13 g/m*3 5.9 C 0 km/h
2381 30-11-2009 20:24:02 5.9 C 6.13 g/m*3 5.9 C 0 km/h
2382 30-11-2009 20:36:02 5.9 C 6.13 g/m*3 5.9 C 0 km/h
2383 30-11-2009 20:48:02 5.7 C 6.05 g/m*3 5.7 C 0 km/h
2384 30-11-2009 21:00:02 5.7 C 6.05 g/m*3 5.7 C 0 km/h
2385 30-11-2009 21:12:02 5.6 C 6.01 g/m*3 5.6 C 0 km/h
2386 30-11-2009 21:24:02 5.6 C 6.08 g/m*3 5.6 C 0 km/h
2387 30-11-2009 21:36:01 5.5 C 6.04 g/m*3 5.5 C 0 km/h
2388 30-11-2009 21:48:02 5.5 C 6.04 g/m*3 5.5 C 0 km/h
2389 30-11-2009 22:00:02 5.4 C 6 g/m*3 5.4 C 0 km/h
2390 30-11-2009 22:12:02 5.4 C 6 g/m*3 5.4 C 0 km/h
2391 30-11-2009 22:24:02 5.3 C 6.03 g/m*3 5.3 C 0 km/h
2392 30-11-2009 22:36:01 5.3 C 6.03 g/m*3 5.3 C 0 km/h
2393 30-11-2009 22:48:01 5.2 C 5.99 g/m*3 5.2 C 0 km/h
2394 30-11-2009 23:00:01 5.2 C 5.99 g/m*3 5.2 C 0 km/h
2395 30-11-2009 23:12:01 5.4 C 6.07 g/m*3 5.4 C 0 km/h
2396 30-11-2009 23:24:02 5.5 C 6.11 g/m*3 5.5 C 0 km/h
2397 30-11-2009 23:36:01 5.4 C 6.07 g/m*3 5.4 C 0 km/h
2398 30-11-2009 23:48:02 5.5 C 6.18 g/m*3 5.5 C 0 km/h
2399 01-12-2009 00:00:02 5.5 C 6.18 g/m*3 5.5 C 0 km/h
2400 01-12-2009 00:12:01 5.6 C 6.15 g/m*3 5.6 C 0 km/h
Sensor: Nr:Datum:Temp:Abs-Feuchte:Windchill:Wind:
Aussen-T/F 2401 01-12-2009 00:24:01 5.6 C 6.15 g/m*3 5.6 C 0 km/h
2402 01-12-2009 00:36:02 5.6 C 6.15 g/m*3 5.6 C 0 km/h
2403 01-12-2009 00:48:02 5.6 C 6.15 g/m*3 5.6 C 0 km/h
2404 01-12-2009 01:00:02 5.5 C 6.11 g/m*3 5.5 C 0 km/h
2405 01-12-2009 01:12:02 5.5 C 6.11 g/m*3 5.5 C 0 km/h
2406 01-12-2009 01:24:02 5.5 C 6.11 g/m*3 5.5 C 0 km/h
2407 01-12-2009 01:36:02 5.5 C 6.11 g/m*3 5.5 C 0 km/h
2408 01-12-2009 01:48:02 5.4 C 6.07 g/m*3 5.4 C 0 km/h
2409 01-12-2009 02:00:02 5.4 C 6.14 g/m*3 5.4 C 0 km/h
2410 01-12-2009 02:12:02 5.4 C 6.14 g/m*3 5.4 C 0 km/h
2411 01-12-2009 02:24:02 5.4 C 6.14 g/m*3 5.4 C 0 km/h
2412 01-12-2009 02:36:02 5.4 C 6.07 g/m*3 5.4 C 0 km/h
2413 01-12-2009 02:48:01 5.4 C 6.07 g/m*3 5.4 C 0 km/h
2414 01-12-2009 03:00:01 5.3 C 6.03 g/m*3 5.3 C 0 km/h
2415 01-12-2009 03:12:01 5.3 C 5.96 g/m*3 5.3 C 0 km/h
2416 01-12-2009 03:24:02 5.3 C 5.89 g/m*3 5.3 C 0 km/h
2417 01-12-2009 03:36:01 5.3 C 5.89 g/m*3 5.3 C 0 km/h
2418 01-12-2009 03:48:01 5.2 C 5.78 g/m*3 5.2 C 0 km/h
2419 01-12-2009 04:00:01 5 C 5.71 g/m*3 5 C 0 km/h
2420 01-12-2009 04:12:02 4.9 C 5.81 g/m*3 4.9 C 0 km/h
2421 01-12-2009 04:24:01 4.8 C 5.77 g/m*3 4.8 C 0 km/h
2422 01-12-2009 04:36:01 4.7 C 5.73 g/m*3 4.7 C 0 km/h
2423 01-12-2009 04:48:01 4.7 C 5.73 g/m*3 4.7 C 0 km/h
2424 01-12-2009 05:00:01 4.9 C 5.87 g/m*3 4.9 C 0 km/h
2425 01-12-2009 05:12:02 4.9 C 5.94 g/m*3 4.9 C 0 km/h
Sensor: Nr:Datum:Temp:Abs-Feuchte:Windchill:Wind:
Aussen-T/F 2426 01-12-2009 05:24:01 5 C 5.91 g/m*3 5 C 0 km/h
2427 01-12-2009 05:36:01 5 C 5.91 g/m*3 5 C 0 km/h
2428 01-12-2009 05:48:01 5 C 5.91 g/m*3 5 C 0 km/h
2429 01-12-2009 06:00:01 5.1 C 5.95 g/m*3 5.1 C 0 km/h
2430 01-12-2009 06:12:01 5.1 C 5.95 g/m*3 5.1 C 0 km/h
2431 01-12-2009 06:24:02 5.1 C 5.95 g/m*3 5.1 C 0 km/h
2432 01-12-2009 06:36:01 5 C 5.91 g/m*3 5 C 0 km/h
2433 01-12-2009 06:48:02 5 C 5.91 g/m*3 5 C 0 km/h
2434 01-12-2009 07:00:02 5 C 5.91 g/m*3 5 C 0 km/h
2435 01-12-2009 07:12:01 5 C 5.98 g/m*3 5 C 0 km/h
2436 01-12-2009 07:24:02 5 C 5.98 g/m*3 5 C 0 km/h
2437 01-12-2009 07:36:01 5 C 5.98 g/m*3 5 C 0 km/h
2438 01-12-2009 07:48:02 4.9 C 5.94 g/m*3 4.9 C 0 km/h
2439 01-12-2009 08:00:02 4.8 C 5.9 g/m*3 4.8 C 0 km/h
2440 01-12-2009 08:12:01 4.8 C 5.9 g/m*3 4.8 C 0 km/h
2441 01-12-2009 08:24:01 4.8 C 5.97 g/m*3 4.8 C 0 km/h
2442 01-12-2009 08:36:01 4.9 C 6.01 g/m*3 4.9 C 0 km/h
2443 01-12-2009 08:48:02 4.9 C 6.01 g/m*3 4.9 C 0 km/h
2444 01-12-2009 09:00:02 5 C 5.98 g/m*3 5 C 0 km/h
2445 01-12-2009 09:12:01 5.1 C 6.02 g/m*3 5.1 C 0 km/h
2446 01-12-2009 09:24:01 5.2 C 6.06 g/m*3 5.2 C 0 km/h
2447 01-12-2009 09:36:02 5.3 C 6.1 g/m*3 5.3 C 0 km/h
2448 01-12-2009 09:48:01 5.4 C 6.14 g/m*3 5.4 C 0 km/h
2449 01-12-2009 10:00:01 5.5 C 6.11 g/m*3 5.5 C 0 km/h
2450 01-12-2009 10:12:02 5.6 C 6.15 g/m*3 5.6 C 0 km/h
Sensor: Nr:Datum:Temp:Abs-Feuchte:Windchill:Wind:
Aussen-T/F 2451 01-12-2009 10:24:01 5.7 C 6.12 g/m*3 5.7 C 0 km/h
2452 01-12-2009 10:36:02 5.7 C 6.12 g/m*3 5.7 C 0 km/h
2453 01-12-2009 10:48:01 5.8 C 6.09 g/m*3 5.8 C 0 km/h
2454 01-12-2009 11:00:01 6.1 C 6.06 g/m*3 6.1 C 0 km/h
2455 01-12-2009 11:12:02 6.3 C 6.07 g/m*3 6.3 C 0 km/h
2456 01-12-2009 11:24:01 6.3 C 6 g/m*3 6.3 C 0 km/h
2457 01-12-2009 11:36:01 6.4 C 6.04 g/m*3 6.4 C 0 km/h
2458 01-12-2009 11:48:01 6.6 C 5.96 g/m*3 6.6 C 0 km/h
2459 01-12-2009 12:00:01 6.7 C 5.85 g/m*3 6.7 C 0 km/h
2460 01-12-2009 12:12:01 6.8 C 5.89 g/m*3 6.8 C 0 km/h
2461 01-12-2009 12:24:01 6.8 C 5.81 g/m*3 6.8 C 0 km/h
2462 01-12-2009 12:36:01 6.9 C 5.85 g/m*3 6.9 C 0 km/h
2463 01-12-2009 12:48:01 6.9 C 5.77 g/m*3 6.9 C 0 km/h
2464 01-12-2009 13:00:01 6.9 C 5.77 g/m*3 6.9 C 0 km/h
2465 01-12-2009 13:12:01 6.9 C 5.77 g/m*3 6.9 C 0 km/h
2466 01-12-2009 13:24:02 6.9 C 5.77 g/m*3 6.9 C 0 km/h
2467 01-12-2009 13:36:01 6.9 C 5.7 g/m*3 6.9 C 0 km/h
2468 01-12-2009 13:48:02 6.9 C 5.77 g/m*3 6.9 C 0 km/h
2469 01-12-2009 14:00:02 6.8 C 5.74 g/m*3 6.8 C 0 km/h
2470 01-12-2009 14:12:01 6.8 C 5.81 g/m*3 6.8 C 0 km/h
2471 01-12-2009 14:24:02 6.8 C 5.74 g/m*3 6.8 C 0 km/h
2472 01-12-2009 14:36:01 6.8 C 5.81 g/m*3 6.8 C 0 km/h
2473 01-12-2009 14:48:02 6.8 C 5.81 g/m*3 6.8 C 0 km/h
2474 01-12-2009 15:00:02 6.7 C 5.85 g/m*3 6.7 C 0 km/h
2475 01-12-2009 15:12:01 6.6 C 5.89 g/m*3 6.6 C 0 km/h
Sensor: Nr:Datum:Temp:Abs-Feuchte:Windchill:Wind:
Aussen-T/F 2476 01-12-2009 15:24:01 6.6 C 5.89 g/m*3 6.6 C 0 km/h
2477 01-12-2009 15:36:01 6.5 C 5.85 g/m*3 6.5 C 0 km/h
2478 01-12-2009 15:48:02 6.5 C 5.85 g/m*3 6.5 C 0 km/h
2479 01-12-2009 16:00:02 6.4 C 5.81 g/m*3 6.4 C 0 km/h
2480 01-12-2009 16:12:01 6.3 C 5.85 g/m*3 6.3 C 0 km/h
2481 01-12-2009 16:24:01 6.2 C 5.81 g/m*3 6.2 C 0 km/h
2482 01-12-2009 16:36:02 6.1 C 5.77 g/m*3 6.1 C 0 km/h
2483 01-12-2009 16:48:01 6 C 5.81 g/m*3 6 C 0 km/h
2484 01-12-2009 17:00:01 5.9 C 5.84 g/m*3 5.9 C 0 km/h
2485 01-12-2009 17:12:02 5.9 C 5.84 g/m*3 5.9 C 0 km/h
2486 01-12-2009 17:24:01 5.9 C 5.84 g/m*3 5.9 C 0 km/h
2487 01-12-2009 17:36:02 5.8 C 5.87 g/m*3 5.8 C 0 km/h
2488 01-12-2009 17:48:01 5.8 C 5.87 g/m*3 5.8 C 0 km/h
2489 01-12-2009 18:00:01 5.8 C 5.87 g/m*3 5.8 C 0 km/h
2490 01-12-2009 18:12:02 5.7 C 5.91 g/m*3 5.7 C 0 km/h
2491 01-12-2009 18:24:01 5.8 C 5.95 g/m*3 5.8 C 0 km/h
2492 01-12-2009 18:36:02 5.7 C 5.91 g/m*3 5.7 C 0 km/h
2493 01-12-2009 18:48:02 5.7 C 5.91 g/m*3 5.7 C 0 km/h
2494 01-12-2009 19:00:02 5.7 C 5.91 g/m*3 5.7 C 0 km/h
2495 01-12-2009 19:12:01 5.6 C 5.87 g/m*3 5.6 C 0 km/h
2496 01-12-2009 19:24:02 5.6 C 5.87 g/m*3 5.6 C 0 km/h
2497 01-12-2009 19:36:01 5.6 C 5.87 g/m*3 5.6 C 0 km/h
2498 01-12-2009 19:48:02 5.7 C 5.91 g/m*3 5.7 C 0 km/h
2499 01-12-2009 20:00:02 5.6 C 5.87 g/m*3 5.6 C 0 km/h
2500 01-12-2009 20:12:01 5.6 C 5.87 g/m*3 5.6 C 0 km/h
Sensor: Nr:Datum:Temp:Abs-Feuchte:Windchill:Wind:
Aussen-T/F 2501 01-12-2009 20:24:02 5.5 C 5.83 g/m*3 5.5 C 0 km/h
2502 01-12-2009 20:36:01 5.5 C 5.83 g/m*3 5.5 C 0 km/h
2503 01-12-2009 20:48:02 5.5 C 5.83 g/m*3 5.5 C 0 km/h
2504 01-12-2009 21:00:02 5.5 C 5.9 g/m*3 5.5 C 0 km/h
2505 01-12-2009 21:12:01 5.5 C 5.9 g/m*3 5.5 C 0 km/h
2506 01-12-2009 21:24:01 5.4 C 5.86 g/m*3 5.4 C 0 km/h
2507 01-12-2009 21:36:02 5.4 C 5.86 g/m*3 5.4 C 0 km/h
2508 01-12-2009 21:48:01 5.4 C 5.93 g/m*3 5.4 C 0 km/h
2509 01-12-2009 22:00:01 5.6 C 6.01 g/m*3 5.6 C 0 km/h
2510 01-12-2009 22:12:02 5.5 C 5.97 g/m*3 5.5 C 0 km/h
2511 01-12-2009 22:25:05 5.4 C 5.93 g/m*3 5.4 C 0 km/h
2512 01-12-2009 22:37:05 5.3 C 5.89 g/m*3 5.3 C 0 km/h
2513 01-12-2009 22:49:05 5.3 C 5.89 g/m*3 5.3 C 0 km/h
2514 01-12-2009 23:01:05 5.2 C 5.78 g/m*3 5.2 C 0 km/h
2515 01-12-2009 23:13:05 5.2 C 5.78 g/m*3 5.2 C 0 km/h
2516 01-12-2009 23:25:05 5.2 C 5.78 g/m*3 5.2 C 0 km/h
2517 01-12-2009 23:37:05 5.2 C 5.78 g/m*3 5.2 C 0 km/h
2518 01-12-2009 23:49:05 5.2 C 5.71 g/m*3 5.2 C 0 km/h
2519 02-12-2009 00:01:06 5.2 C 5.65 g/m*3 5.2 C 0 km/h
2520 02-12-2009 00:13:06 5.2 C 5.65 g/m*3 5.2 C 0 km/h
2521 02-12-2009 00:25:06 5.2 C 5.58 g/m*3 5.2 C 0 km/h
2522 02-12-2009 00:37:06 5.2 C 5.58 g/m*3 5.2 C 0 km/h
2523 02-12-2009 00:49:06 5 C 5.44 g/m*3 5 C 0 km/h
2524 02-12-2009 01:01:06 4.8 C 5.43 g/m*3 4.8 C 0 km/h
2525 02-12-2009 01:13:06 4.7 C 5.46 g/m*3 4.7 C 0 km/h
Sensor: Nr:Datum:Temp:Abs-Feuchte:Windchill:Wind:
Aussen-T/F 2526 02-12-2009 01:25:06 4.6 C 5.49 g/m*3 4.6 C 0 km/h
2527 02-12-2009 01:37:06 4.5 C 5.52 g/m*3 4.5 C 0 km/h
2528 02-12-2009 01:49:06 4.3 C 5.45 g/m*3 4.3 C 0 km/h
2529 02-12-2009 02:01:06 4.4 C 5.55 g/m*3 4.4 C 0 km/h
2530 02-12-2009 02:13:06 4.6 C 5.62 g/m*3 4.6 C 0 km/h
2531 02-12-2009 02:25:06 4.7 C 5.66 g/m*3 4.7 C 0 km/h
2532 02-12-2009 02:37:06 4.7 C 5.66 g/m*3 4.7 C 0 km/h
2533 02-12-2009 02:49:06 4.8 C 5.77 g/m*3 4.8 C 0 km/h
2534 02-12-2009 03:01:06 4.9 C 5.81 g/m*3 4.9 C 0 km/h
2535 02-12-2009 03:13:06 4.7 C 5.73 g/m*3 4.7 C 0 km/h
2536 02-12-2009 03:25:06 4.7 C 5.8 g/m*3 4.7 C 0 km/h
2537 02-12-2009 03:37:06 4.8 C 5.83 g/m*3 4.8 C 0 km/h
2538 02-12-2009 03:49:06 5 C 5.84 g/m*3 5 C 0 km/h
2539 02-12-2009 04:01:07 4.9 C 5.87 g/m*3 4.9 C 0 km/h
2540 02-12-2009 04:13:07 4.9 C 5.87 g/m*3 4.9 C 0 km/h
2541 02-12-2009 04:25:07 4.9 C 5.87 g/m*3 4.9 C 0 km/h
2542 02-12-2009 04:37:07 4.9 C 5.94 g/m*3 4.9 C 0 km/h
2543 02-12-2009 04:49:07 5 C 5.91 g/m*3 5 C 0 km/h
2544 02-12-2009 05:01:07 5 C 5.91 g/m*3 5 C 0 km/h
2545 02-12-2009 05:13:07 5 C 5.91 g/m*3 5 C 0 km/h
2546 02-12-2009 05:25:07 4.8 C 5.83 g/m*3 4.8 C 0 km/h
2547 02-12-2009 05:37:07 4.8 C 5.83 g/m*3 4.8 C 0 km/h
2548 02-12-2009 05:49:07 4.8 C 5.83 g/m*3 4.8 C 0 km/h
2549 02-12-2009 06:01:05 4.8 C 5.83 g/m*3 4.8 C 0 km/h
2550 02-12-2009 06:13:05 5 C 5.91 g/m*3 5 C 0 km/h
Sensor: Nr:Datum:Temp:Abs-Feuchte:Windchill:Wind:
Aussen-T/F 2551 02-12-2009 06:25:05 4.9 C 5.87 g/m*3 4.9 C 0 km/h
2552 02-12-2009 06:37:05 5 C 5.91 g/m*3 5 C 0 km/h
2553 02-12-2009 06:49:01 5 C 5.91 g/m*3 5 C 0 km/h
2554 02-12-2009 07:01:02 4.9 C 5.94 g/m*3 4.9 C 0 km/h
2555 02-12-2009 07:13:02 5 C 5.91 g/m*3 5 C 0 km/h
2556 02-12-2009 07:25:01 5.1 C 5.95 g/m*3 5.1 C 0 km/h
2557 02-12-2009 07:37:01 5.2 C 5.99 g/m*3 5.2 C 0 km/h
2558 02-12-2009 07:49:01 5.2 C 5.99 g/m*3 5.2 C 0 km/h
2559 02-12-2009 08:01:01 4.8 C 5.83 g/m*3 4.8 C 0 km/h
2560 02-12-2009 08:13:01 4.8 C 5.83 g/m*3 4.8 C 0 km/h
2561 02-12-2009 08:25:02 4.6 C 5.82 g/m*3 4.6 C 0 km/h
2562 02-12-2009 08:37:01 4.7 C 5.86 g/m*3 4.7 C 0 km/h
2563 02-12-2009 08:49:02 4.7 C 5.8 g/m*3 4.7 C 0 km/h
2564 02-12-2009 09:01:01 4.6 C 5.76 g/m*3 4.6 C 0 km/h
2565 02-12-2009 09:13:01 4.6 C 5.76 g/m*3 4.6 C 0 km/h
2566 02-12-2009 09:25:02 4.5 C 5.65 g/m*3 4.5 C 0 km/h
2567 02-12-2009 09:37:01 4.5 C 5.65 g/m*3 4.5 C 0 km/h
2568 02-12-2009 09:49:02 4.5 C 5.65 g/m*3 4.5 C 0 km/h
2569 02-12-2009 10:01:02 4.7 C 5.66 g/m*3 4.7 C 0 km/h
2570 02-12-2009 10:13:02 4.9 C 5.54 g/m*3 4.9 C 0 km/h
2571 02-12-2009 10:25:02 5.2 C 5.23 g/m*3 5.2 C 0 km/h
2572 02-12-2009 10:37:02 5.2 C 5.1 g/m*3 5.2 C 0 km/h
2573 02-12-2009 10:49:02 5.2 C 5.03 g/m*3 5.2 C 0 km/h
2574 02-12-2009 11:01:01 5.3 C 4.99 g/m*3 5.3 C 0 km/h
2575 02-12-2009 11:13:01 5.5 C 5.06 g/m*3 5.5 C 0 km/h
Sensor: Nr:Datum:Temp:Abs-Feuchte:Windchill:Wind:
Aussen-T/F 2576 02-12-2009 11:25:02 5.8 C 4.8 g/m*3 5.8 C 0 km/h
2577 02-12-2009 11:37:02 5.7 C 4.84 g/m*3 5.7 C 0 km/h
2578 02-12-2009 11:49:02 5.9 C 4.61 g/m*3 5.9 C 0 km/h
2579 02-12-2009 12:01:02 6.2 C 4.41 g/m*3 6.2 C 0 km/h
2580 02-12-2009 12:13:02 6.8 C 4.44 g/m*3 6.8 C 0 km/h
2581 02-12-2009 12:25:02 7.2 C 4.32 g/m*3 7.2 C 0 km/h
2582 02-12-2009 12:37:03 7.5 C 4.4 g/m*3 7.5 C 0 km/h
2583 02-12-2009 12:49:02 7.6 C 4.27 g/m*3 7.6 C 0 km/h
2584 02-12-2009 13:01:02 7.6 C 4.27 g/m*3 7.6 C 0 km/h
2585 02-12-2009 13:13:02 7.7 C 4.3 g/m*3 7.7 C 0 km/h
2586 02-12-2009 13:25:02 7.7 C 4.22 g/m*3 7.7 C 0 km/h
2587 02-12-2009 13:37:02 7.9 C 4.35 g/m*3 7.9 C 0 km/h
2588 02-12-2009 13:49:02 7.8 C 4.24 g/m*3 7.8 C 0 km/h
2589 02-12-2009 14:01:02 8 C 4.38 g/m*3 8 C 0 km/h
2590 02-12-2009 14:13:02 8 C 4.3 g/m*3 8 C 0 km/h
2591 02-12-2009 14:25:02 7.8 C 4.24 g/m*3 7.8 C 0 km/h
2592 02-12-2009 14:37:02 7.8 C 4.33 g/m*3 7.8 C 0 km/h
2593 02-12-2009 14:49:02 7.8 C 4.33 g/m*3 7.8 C 0 km/h
2594 02-12-2009 15:01:02 7.7 C 4.3 g/m*3 7.7 C 0 km/h
2595 02-12-2009 15:13:02 7.7 C 4.38 g/m*3 7.7 C 0 km/h
2596 02-12-2009 15:25:02 7.6 C 4.27 g/m*3 7.6 C 0 km/h
2597 02-12-2009 15:37:02 7.6 C 4.19 g/m*3 7.6 C 0 km/h
2598 02-12-2009 15:49:02 7.5 C 4.24 g/m*3 7.5 C 0 km/h
2599 02-12-2009 16:01:02 7.4 C 4.21 g/m*3 7.4 C 0 km/h
2600 02-12-2009 16:13:02 7.3 C 4.19 g/m*3 7.3 C 0 km/h
Sensor: Nr:Datum:Temp:Abs-Feuchte:Windchill:Wind:
Aussen-T/F 2601 02-12-2009 16:25:02 7 C 4.26 g/m*3 7 C 0 km/h
2602 02-12-2009 16:37:02 6.9 C 4.39 g/m*3 6.9 C 0 km/h
2603 02-12-2009 16:49:02 6.8 C 4.44 g/m*3 6.8 C 0 km/h
2604 02-12-2009 17:01:02 6.9 C 4.46 g/m*3 6.9 C 0 km/h
2605 02-12-2009 17:13:02 6.8 C 4.51 g/m*3 6.8 C 0 km/h
2606 02-12-2009 17:25:03 6.6 C 4.53 g/m*3 6.6 C 0 km/h
2607 02-12-2009 17:37:02 6.5 C 4.5 g/m*3 6.5 C 0 km/h
2608 02-12-2009 17:49:02 6.5 C 4.57 g/m*3 6.5 C 0 km/h
2609 02-12-2009 18:01:02 6.5 C 4.65 g/m*3 6.5 C 0 km/h
2610 02-12-2009 18:13:02 6.5 C 4.65 g/m*3 6.5 C 0 km/h
2611 02-12-2009 18:25:02 6.4 C 4.62 g/m*3 6.4 C 0 km/h
2612 02-12-2009 18:37:02 6.5 C 4.65 g/m*3 6.5 C 0 km/h
2613 02-12-2009 18:49:02 6.4 C 4.69 g/m*3 6.4 C 0 km/h
2614 02-12-2009 19:01:01 6.4 C 4.77 g/m*3 6.4 C 0 km/h
2615 02-12-2009 19:13:01 6.5 C 4.8 g/m*3 6.5 C 0 km/h
2616 02-12-2009 19:25:02 6.7 C 4.79 g/m*3 6.7 C 0 km/h
2617 02-12-2009 19:37:01 6.6 C 4.83 g/m*3 6.6 C 0 km/h
2618 02-12-2009 19:49:02 6.6 C 4.98 g/m*3 6.6 C 0 km/h
2619 02-12-2009 20:01:01 6.4 C 4.99 g/m*3 6.4 C 0 km/h
2620 02-12-2009 20:13:01 6.5 C 5.02 g/m*3 6.5 C 0 km/h
2621 02-12-2009 20:25:01 6.6 C 5.06 g/m*3 6.6 C 0 km/h
2622 02-12-2009 20:37:02 6.6 C 5.06 g/m*3 6.6 C 0 km/h
2623 02-12-2009 20:49:02 6.7 C 5.09 g/m*3 6.7 C 0 km/h
2624 02-12-2009 21:01:02 6.8 C 5.12 g/m*3 6.8 C 0 km/h
2625 02-12-2009 21:13:02 6.9 C 5.16 g/m*3 6.9 C 0 km/h
Sensor: Nr:Datum:Temp:Abs-Feuchte:Windchill:Wind:
Aussen-T/F 2626 02-12-2009 21:25:02 7 C 5.04 g/m*3 7 C 0 km/h
2627 02-12-2009 21:37:02 6.9 C 5.08 g/m*3 6.9 C 0 km/h
2628 02-12-2009 21:49:02 7 C 5.04 g/m*3 7 C 0 km/h
2629 02-12-2009 22:01:02 7 C 5.11 g/m*3 7 C 0 km/h
2630 02-12-2009 22:13:02 6.9 C 5.23 g/m*3 6.9 C 0 km/h
2631 02-12-2009 22:26:02 7 C 5.19 g/m*3 7 C 0 km/h
2632 02-12-2009 22:38:02 7 C 5.19 g/m*3 7 C 0 km/h
2633 02-12-2009 22:50:02 6.9 C 5.31 g/m*3 6.9 C 0 km/h
2634 02-12-2009 23:02:02 6.8 C 5.28 g/m*3 6.8 C 0 km/h
2635 02-12-2009 23:14:02 6.7 C 5.32 g/m*3 6.7 C 0 km/h
2636 02-12-2009 23:26:02 6.6 C 5.36 g/m*3 6.6 C 0 km/h
2637 02-12-2009 23:38:02 6.4 C 5.36 g/m*3 6.4 C 0 km/h
2638 02-12-2009 23:50:02 6.4 C 5.36 g/m*3 6.4 C 0 km/h
2639 03-12-2009 00:02:03 6.6 C 5.44 g/m*3 6.6 C 0 km/h
2640 03-12-2009 00:14:03 6.7 C 5.47 g/m*3 6.7 C 0 km/h
2641 03-12-2009 00:26:03 6.8 C 5.51 g/m*3 6.8 C 0 km/h
2642 03-12-2009 00:38:03 7 C 5.35 g/m*3 7 C 0 km/h
2643 03-12-2009 00:50:03 7.1 C 5.3 g/m*3 7.1 C 0 km/h
2644 03-12-2009 01:02:03 7.1 C 5.3 g/m*3 7.1 C 0 km/h
2645 03-12-2009 01:14:03 7.2 C 5.34 g/m*3 7.2 C 0 km/h
2646 03-12-2009 01:26:03 7.2 C 5.34 g/m*3 7.2 C 0 km/h
2647 03-12-2009 01:38:03 7.1 C 5.3 g/m*3 7.1 C 0 km/h
2648 03-12-2009 01:50:03 7 C 5.19 g/m*3 7 C 0 km/h
2649 03-12-2009 02:02:03 7.1 C 5.23 g/m*3 7.1 C 0 km/h
2650 03-12-2009 02:14:03 7.1 C 5.3 g/m*3 7.1 C 0 km/h
Sensor: Nr:Datum:Temp:Abs-Feuchte:Windchill:Wind:
Aussen-T/F 2651 03-12-2009 02:26:03 7.2 C 5.26 g/m*3 7.2 C 0 km/h
2652 03-12-2009 02:38:03 7.3 C 5.29 g/m*3 7.3 C 0 km/h
2653 03-12-2009 02:50:03 7.5 C 5.28 g/m*3 7.5 C 0 km/h
2654 03-12-2009 03:02:03 7.4 C 5.25 g/m*3 7.4 C 0 km/h
2655 03-12-2009 03:14:03 7.4 C 5.41 g/m*3 7.4 C 0 km/h
2656 03-12-2009 03:26:03 7.3 C 5.45 g/m*3 7.3 C 0 km/h
2657 03-12-2009 03:38:03 7.5 C 5.68 g/m*3 7.5 C 0 km/h
2658 03-12-2009 03:50:03 7.7 C 5.68 g/m*3 7.7 C 0 km/h
2659 03-12-2009 04:02:03 7.8 C 5.79 g/m*3 7.8 C 0 km/h
2660 03-12-2009 04:14:04 7.9 C 5.83 g/m*3 7.9 C 0 km/h
2661 03-12-2009 04:26:04 8.1 C 5.82 g/m*3 8.1 C 0 km/h
2662 03-12-2009 04:38:04 8.1 C 5.82 g/m*3 8.1 C 0 km/h
2663 03-12-2009 04:50:04 7.8 C 5.96 g/m*3 7.8 C 0 km/h
2664 03-12-2009 05:02:04 7.5 C 6.08 g/m*3 7.5 C 0 km/h
2665 03-12-2009 05:14:04 7.3 C 6.24 g/m*3 7.3 C 0 km/h
2666 03-12-2009 05:26:04 7.4 C 6.28 g/m*3 7.4 C 0 km/h
2667 03-12-2009 05:38:04 7.6 C 6.36 g/m*3 7.6 C 0 km/h
2668 03-12-2009 05:50:04 7.6 C 6.36 g/m*3 7.6 C 0 km/h
2669 03-12-2009 06:02:04 7.8 C 6.45 g/m*3 7.8 C 0 km/h
2670 03-12-2009 06:14:04 8 C 6.37 g/m*3 8 C 0 km/h
2671 03-12-2009 06:26:04 7.9 C 6.32 g/m*3 7.9 C 0 km/h
2672 03-12-2009 06:38:04 7.9 C 6.32 g/m*3 7.9 C 0 km/h
2673 03-12-2009 06:50:04 7.7 C 6.24 g/m*3 7.7 C 0 km/h
2674 03-12-2009 07:02:02 7.6 C 6.28 g/m*3 7.6 C 0 km/h
2675 03-12-2009 07:14:02 7.5 C 6.24 g/m*3 7.5 C 0 km/h
Sensor: Nr:Datum:Temp:Abs-Feuchte:Windchill:Wind:
Aussen-T/F 2676 03-12-2009 07:26:01 7.4 C 6.28 g/m*3 7.4 C 0 km/h
2677 03-12-2009 07:38:02 7.5 C 6.32 g/m*3 7.5 C 0 km/h
2678 03-12-2009 07:50:02 7.5 C 6.32 g/m*3 7.5 C 0 km/h
2679 03-12-2009 08:02:02 7.6 C 6.2 g/m*3 7.6 C 0 km/h
2680 03-12-2009 08:14:02 7.7 C 6.32 g/m*3 7.7 C 0 km/h
2681 03-12-2009 08:26:02 7.7 C 6.32 g/m*3 7.7 C 0 km/h
2682 03-12-2009 08:38:02 8 C 6.28 g/m*3 8 C 0 km/h
2683 03-12-2009 08:50:02 8.2 C 6.2 g/m*3 8.2 C 0 km/h
2684 03-12-2009 09:02:02 8.2 C 6.36 g/m*3 8.2 C 0 km/h
2685 03-12-2009 09:14:02 7.9 C 6.41 g/m*3 7.9 C 0 km/h
2686 03-12-2009 09:26:02 7.9 C 6.49 g/m*3 7.9 C 0 km/h
2687 03-12-2009 09:38:02 8.1 C 6.49 g/m*3 8.1 C 0 km/h
2688 03-12-2009 09:50:02 8.4 C 6.53 g/m*3 8.4 C 0 km/h
2689 03-12-2009 10:02:02 8.5 C 6.49 g/m*3 8.5 C 0 km/h
2690 03-12-2009 10:14:02 8.9 C 6.39 g/m*3 8.9 C 0 km/h
2691 03-12-2009 10:26:02 9.2 C 6.43 g/m*3 9.2 C 0 km/h
2692 03-12-2009 10:38:02 9.5 C 6.46 g/m*3 9.5 C 0 km/h
2693 03-12-2009 10:50:02 9.6 C 6.41 g/m*3 9.6 C 0 km/h
2694 03-12-2009 11:02:02 9.8 C 6.4 g/m*3 9.8 C 0 km/h
2695 03-12-2009 11:14:02 10.1 C 6.34 g/m*3 10.1 C 0 km/h
2696 03-12-2009 11:26:02 10.3 C 6.42 g/m*3 10.3 C 0 km/h
2697 03-12-2009 11:38:02 10.3 C 6.32 g/m*3 10.3 C 0 km/h
2698 03-12-2009 11:50:02 10 C 6.2 g/m*3 10 C 0 km/h
2699 03-12-2009 12:02:01 10 C 6.2 g/m*3 10 C 0 km/h
2700 03-12-2009 12:14:01 10.3 C 6.22 g/m*3 10.3 C 0 km/h
Sensor: Nr:Datum:Temp:Abs-Feuchte:Windchill:Wind:
Aussen-T/F 2701 03-12-2009 12:26:02 10.5 C 6.21 g/m*3 10.5 C 0 km/h
2702 03-12-2009 12:38:01 10.6 C 6.25 g/m*3 10.6 C 0 km/h
2703 03-12-2009 12:50:02 10.5 C 6.21 g/m*3 10.5 C 0 km/h
2704 03-12-2009 13:02:01 10.4 C 6.17 g/m*3 10.4 C 0 km/h
2705 03-12-2009 13:14:01 10.6 C 6.25 g/m*3 10.6 C 0 km/h
2706 03-12-2009 13:26:01 10.6 C 6.15 g/m*3 10.6 C 0 km/h
2707 03-12-2009 13:38:02 10.5 C 6.21 g/m*3 10.5 C 0 km/h
2708 03-12-2009 13:50:02 10.6 C 6.15 g/m*3 10.6 C 0 km/h
2709 03-12-2009 14:02:02 10.4 C 6.17 g/m*3 10.4 C 0 km/h
2710 03-12-2009 14:14:02 10.6 C 6.15 g/m*3 10.6 C 0 km/h
2711 03-12-2009 14:26:02 10.6 C 6.15 g/m*3 10.6 C 0 km/h
2712 03-12-2009 14:38:02 10.4 C 6.07 g/m*3 10.4 C 0 km/h
2713 03-12-2009 14:50:01 10.3 C 6.13 g/m*3 10.3 C 0 km/h
2714 03-12-2009 15:02:02 9.9 C 6.35 g/m*3 9.9 C 0 km/h
2715 03-12-2009 15:14:02 9.9 C 6.35 g/m*3 9.9 C 0 km/h
2716 03-12-2009 15:26:01 9.8 C 6.31 g/m*3 9.8 C 0 km/h
2717 03-12-2009 15:38:02 9.6 C 6.23 g/m*3 9.6 C 0 km/h
2718 03-12-2009 15:50:02 9.4 C 6.24 g/m*3 9.4 C 0 km/h
2719 03-12-2009 16:02:02 9.3 C 6.2 g/m*3 9.3 C 0 km/h
2720 03-12-2009 16:14:02 9.3 C 6.2 g/m*3 9.3 C 0 km/h
2721 03-12-2009 16:26:01 9.4 C 6.15 g/m*3 9.4 C 0 km/h
2722 03-12-2009 16:38:02 9.4 C 6.15 g/m*3 9.4 C 0 km/h
2723 03-12-2009 16:50:02 9.5 C 6.19 g/m*3 9.5 C 0 km/h
2724 03-12-2009 17:02:02 9.2 C 6.16 g/m*3 9.2 C 0 km/h
2725 03-12-2009 17:14:02 9.4 C 6.15 g/m*3 9.4 C 0 km/h
Sensor: Nr:Datum:Temp:Abs-Feuchte:Windchill:Wind:
Aussen-T/F 2726 03-12-2009 17:26:01 9.5 C 6.19 g/m*3 9.5 C 0 km/h
2727 03-12-2009 17:38:02 9.5 C 6.19 g/m*3 9.5 C 0 km/h
2728 03-12-2009 17:50:02 8.9 C 6.31 g/m*3 8.9 C 0 km/h
2729 03-12-2009 18:02:02 8.5 C 6.4 g/m*3 8.5 C 0 km/h
2730 03-12-2009 18:14:02 8.7 C 6.49 g/m*3 8.7 C 0 km/h
2731 03-12-2009 18:26:02 8.7 C 6.49 g/m*3 8.7 C 0 km/h
2732 03-12-2009 18:38:02 8.8 C 6.53 g/m*3 8.8 C 0 km/h
2733 03-12-2009 18:50:02 8.9 C 6.48 g/m*3 8.9 C 0 km/h
2734 03-12-2009 19:02:02 8.9 C 6.48 g/m*3 8.9 C 0 km/h
2735 03-12-2009 19:14:02 8.7 C 6.31 g/m*3 8.7 C 0 km/h
2736 03-12-2009 19:26:02 9.1 C 6.21 g/m*3 9.1 C 0 km/h
2737 03-12-2009 19:38:02 9.4 C 6.15 g/m*3 9.4 C 0 km/h
2738 03-12-2009 19:50:02 9.3 C 6.02 g/m*3 9.3 C 0 km/h
2739 03-12-2009 20:02:01 9.2 C 5.98 g/m*3 9.2 C 0 km/h
2740 03-12-2009 20:14:01 9.2 C 5.98 g/m*3 9.2 C 0 km/h
2741 03-12-2009 20:26:02 9.1 C 5.94 g/m*3 9.1 C 0 km/h
2742 03-12-2009 20:38:01 9.2 C 5.98 g/m*3 9.2 C 0 km/h
2743 03-12-2009 20:50:02 9 C 5.91 g/m*3 9 C 0 km/h
2744 03-12-2009 21:02:01 8.8 C 5.92 g/m*3 8.8 C 0 km/h
2745 03-12-2009 21:14:01 8.9 C 5.96 g/m*3 8.9 C 0 km/h
2746 03-12-2009 21:26:02 8.6 C 5.93 g/m*3 8.6 C 0 km/h
2747 03-12-2009 21:38:01 8.3 C 5.9 g/m*3 8.3 C 0 km/h
2748 03-12-2009 21:51:03 8.3 C 5.98 g/m*3 8.3 C 0 km/h
2749 03-12-2009 22:03:03 8.5 C 6.06 g/m*3 8.5 C 0 km/h
2750 03-12-2009 22:15:03 8.2 C 5.95 g/m*3 8.2 C 0 km/h
Sensor: Nr:Datum:Temp:Abs-Feuchte:Windchill:Wind:
Aussen-T/F 2751 03-12-2009 22:27:03 8.2 C 6.03 g/m*3 8.2 C 0 km/h
2752 03-12-2009 22:39:03 8.5 C 6.06 g/m*3 8.5 C 0 km/h
2753 03-12-2009 22:51:03 8 C 6.04 g/m*3 8 C 0 km/h
2754 03-12-2009 23:03:03 7 C 6.04 g/m*3 7 C 0 km/h
2755 03-12-2009 23:15:03 6.8 C 6.12 g/m*3 6.8 C 0 km/h
2756 03-12-2009 23:27:03 6.6 C 6.11 g/m*3 6.6 C 0 km/h
2757 03-12-2009 23:39:03 6.5 C 5.92 g/m*3 6.5 C 0 km/h
2758 03-12-2009 23:51:03 6.5 C 5.77 g/m*3 6.5 C 0 km/h
2759 04-12-2009 00:03:03 6.6 C 5.51 g/m*3 6.6 C 0 km/h
2760 04-12-2009 00:15:03 6.7 C 5.47 g/m*3 6.7 C 0 km/h
2761 04-12-2009 00:27:03 6.8 C 5.43 g/m*3 6.8 C 0 km/h
2762 04-12-2009 00:39:03 6.7 C 5.32 g/m*3 6.7 C 0 km/h
2763 04-12-2009 00:51:03 6.6 C 5.28 g/m*3 6.6 C 0 km/h
2764 04-12-2009 01:03:03 6.4 C 5.22 g/m*3 6.4 C 0 km/h
2765 04-12-2009 01:15:03 6.2 C 5.22 g/m*3 6.2 C 0 km/h
2766 04-12-2009 01:27:03 6.3 C 5.26 g/m*3 6.3 C 0 km/h
2767 04-12-2009 01:39:03 6.2 C 5.07 g/m*3 6.2 C 0 km/h
2768 04-12-2009 01:51:03 6.2 C 4.71 g/m*3 6.2 C 0 km/h
2769 04-12-2009 02:03:04 6.2 C 4.78 g/m*3 6.2 C 0 km/h
2770 04-12-2009 02:15:04 6.2 C 5 g/m*3 6.2 C 0 km/h
2771 04-12-2009 02:27:04 5.6 C 5.16 g/m*3 5.6 C 0 km/h
2772 04-12-2009 02:39:04 5.6 C 5.23 g/m*3 5.6 C 0 km/h
2773 04-12-2009 02:51:04 5.6 C 5.16 g/m*3 5.6 C 0 km/h
2774 04-12-2009 03:03:04 5.6 C 5.16 g/m*3 5.6 C 0 km/h
2775 04-12-2009 03:15:04 5.5 C 5.2 g/m*3 5.5 C 0 km/h
Sensor: Nr:Datum:Temp:Abs-Feuchte:Windchill:Wind:
Aussen-T/F 2776 04-12-2009 03:27:04 5.4 C 5.16 g/m*3 5.4 C 0 km/h
2777 04-12-2009 03:39:04 5.4 C 5.16 g/m*3 5.4 C 0 km/h
2778 04-12-2009 03:51:04 5.4 C 5.16 g/m*3 5.4 C 0 km/h
2779 04-12-2009 04:03:04 5.5 C 5.2 g/m*3 5.5 C 0 km/h
2780 04-12-2009 04:15:04 5.4 C 4.81 g/m*3 5.4 C 0 km/h
2781 04-12-2009 04:27:04 5 C 4.62 g/m*3 5 C 0 km/h
2782 04-12-2009 04:39:04 4.8 C 4.63 g/m*3 4.8 C 0 km/h
2783 04-12-2009 04:51:04 4.6 C 4.5 g/m*3 4.6 C 0 km/h
2784 04-12-2009 05:03:04 4.3 C 4.48 g/m*3 4.3 C 0 km/h
2785 04-12-2009 05:15:04 4 C 4.51 g/m*3 4 C 0 km/h
2786 04-12-2009 05:27:04 3.7 C 4.49 g/m*3 3.7 C 0 km/h
2787 04-12-2009 05:39:04 3.4 C 4.52 g/m*3 3.4 C 0 km/h
2788 04-12-2009 05:51:04 3.1 C 4.49 g/m*3 3.1 C 0 km/h
2789 04-12-2009 06:03:04 3.2 C 4.64 g/m*3 3.2 C 0 km/h
2790 04-12-2009 06:15:02 3.3 C 4.67 g/m*3 3.3 C 0 km/h
2791 04-12-2009 06:27:02 3.1 C 4.61 g/m*3 3.1 C 0 km/h
2792 04-12-2009 06:39:02 3.1 C 4.67 g/m*3 3.1 C 0 km/h
2793 04-12-2009 06:51:02 3.4 C 4.76 g/m*3 3.4 C 0 km/h
2794 04-12-2009 07:03:02 3.9 C 4.74 g/m*3 3.9 C 0 km/h
2795 04-12-2009 07:15:03 4.1 C 4.61 g/m*3 4.1 C 0 km/h
2796 04-12-2009 07:27:03 4.1 C 4.54 g/m*3 4.1 C 0 km/h
2797 04-12-2009 07:39:02 3.4 C 4.46 g/m*3 3.4 C 0 km/h
2798 04-12-2009 07:51:01 3.1 C 4.43 g/m*3 3.1 C 0 km/h
2799 04-12-2009 08:03:01 2.8 C 4.46 g/m*3 2.8 C 0 km/h
2800 04-12-2009 08:15:01 2.7 C 4.49 g/m*3 2.7 C 0 km/h
Sensor: Nr:Datum:Temp:Abs-Feuchte:Windchill:Wind:
Aussen-T/F 2801 04-12-2009 08:27:01 3 C 4.58 g/m*3 3 C 0 km/h
2802 04-12-2009 08:39:00 3.3 C 4.67 g/m*3 3.3 C 0 km/h
2803 04-12-2009 08:51:03 3.6 C 4.7 g/m*3 3.6 C 0 km/h
2804 04-12-2009 09:03:02 3.8 C 4.64 g/m*3 3.8 C 0 km/h
2805 04-12-2009 09:15:02 3.9 C 4.61 g/m*3 3.9 C 0 km/h
2806 04-12-2009 09:27:03 4.1 C 4.54 g/m*3 4.1 C 0 km/h
2807 04-12-2009 09:39:02 4.2 C 4.45 g/m*3 4.2 C 0 km/h
2808 04-12-2009 09:51:02 4.3 C 4.28 g/m*3 4.3 C 0 km/h
2809 04-12-2009 10:03:01 4 C 4.13 g/m*3 4 C 0 km/h
2810 04-12-2009 10:15:02 4 C 4.13 g/m*3 4 C 0 km/h
2811 04-12-2009 10:27:02 4.1 C 4.16 g/m*3 4.1 C 0 km/h
2812 04-12-2009 10:39:02 4.2 C 4.12 g/m*3 4.2 C 0 km/h
2813 04-12-2009 10:51:02 4.2 C 4.12 g/m*3 4.2 C 0 km/h
2814 04-12-2009 11:03:03 4.1 C 4.1 g/m*3 4.1 C 0 km/h
2815 04-12-2009 11:15:02 4.1 C 4.1 g/m*3 4.1 C 0 km/h
2816 04-12-2009 11:27:02 4.2 C 4.06 g/m*3 4.2 C 0 km/h
2817 04-12-2009 11:39:02 4.1 C 4.1 g/m*3 4.1 C 0 km/h
2818 04-12-2009 11:51:01 4.3 C 4.09 g/m*3 4.3 C 0 km/h
2819 04-12-2009 12:03:02 4.6 C 4.17 g/m*3 4.6 C 0 km/h
2820 04-12-2009 12:15:01 5.1 C 4.1 g/m*3 5.1 C 0 km/h
2821 04-12-2009 12:27:01 5.4 C 4.12 g/m*3 5.4 C 0 km/h
2822 04-12-2009 12:39:01 5.5 C 4.07 g/m*3 5.5 C 0 km/h
2823 04-12-2009 12:51:01 5.7 C 4.2 g/m*3 5.7 C 0 km/h
2824 04-12-2009 13:03:02 5.5 C 4 g/m*3 5.5 C 0 km/h
2825 04-12-2009 13:15:01 5 C 3.87 g/m*3 5 C 0 km/h
Sensor: Nr:Datum:Temp:Abs-Feuchte:Windchill:Wind:
Aussen-T/F 2826 04-12-2009 13:27:01 4.9 C 3.92 g/m*3 4.9 C 0 km/h
2827 04-12-2009 13:39:02 4.9 C 3.85 g/m*3 4.9 C 0 km/h
2828 04-12-2009 13:51:02 4.9 C 3.85 g/m*3 4.9 C 0 km/h
2829 04-12-2009 14:03:02 4.8 C 3.82 g/m*3 4.8 C 0 km/h
2830 04-12-2009 14:15:02 4.8 C 3.82 g/m*3 4.8 C 0 km/h
2831 04-12-2009 14:27:02 4.9 C 3.78 g/m*3 4.9 C 0 km/h
2832 04-12-2009 14:39:02 5.1 C 3.69 g/m*3 5.1 C 0 km/h
2833 04-12-2009 14:51:02 4.9 C 3.71 g/m*3 4.9 C 0 km/h
2834 04-12-2009 15:03:03 4.8 C 3.62 g/m*3 4.8 C 0 km/h
2835 04-12-2009 15:15:02 4.7 C 3.6 g/m*3 4.7 C 0 km/h
2836 04-12-2009 15:27:02 4.5 C 3.68 g/m*3 4.5 C 0 km/h
2837 04-12-2009 15:39:03 4.7 C 3.66 g/m*3 4.7 C 0 km/h
2838 04-12-2009 15:51:02 4.9 C 3.65 g/m*3 4.9 C 0 km/h
2839 04-12-2009 16:03:02 4.9 C 3.78 g/m*3 4.9 C 0 km/h
2840 04-12-2009 16:15:03 4.9 C 3.71 g/m*3 4.9 C 0 km/h
2841 04-12-2009 16:27:03 4.9 C 3.78 g/m*3 4.9 C 0 km/h
2842 04-12-2009 16:39:02 4.9 C 3.78 g/m*3 4.9 C 0 km/h
2843 04-12-2009 16:51:03 4.8 C 3.82 g/m*3 4.8 C 0 km/h
2844 04-12-2009 17:03:02 4.8 C 3.89 g/m*3 4.8 C 0 km/h
2845 04-12-2009 17:15:03 4.7 C 3.93 g/m*3 4.7 C 0 km/h
2846 04-12-2009 17:27:03 4.7 C 4 g/m*3 4.7 C 0 km/h
2847 04-12-2009 17:39:02 4.7 C 4.06 g/m*3 4.7 C 0 km/h
2848 04-12-2009 17:51:02 4.8 C 4.09 g/m*3 4.8 C 0 km/h
2849 04-12-2009 18:03:02 4.8 C 4.09 g/m*3 4.8 C 0 km/h
2850 04-12-2009 18:15:02 4.8 C 4.16 g/m*3 4.8 C 0 km/h
Sensor: Nr:Datum:Temp:Abs-Feuchte:Windchill:Wind:
Aussen-T/F 2851 04-12-2009 18:27:02 4.7 C 4.2 g/m*3 4.7 C 0 km/h
2852 04-12-2009 18:39:02 4.9 C 4.19 g/m*3 4.9 C 0 km/h
2853 04-12-2009 18:51:02 5 C 4.08 g/m*3 5 C 0 km/h
2854 04-12-2009 19:03:01 5 C 4.08 g/m*3 5 C 0 km/h
2855 04-12-2009 19:15:02 5 C 4.08 g/m*3 5 C 0 km/h
2856 04-12-2009 19:27:02 5 C 4.14 g/m*3 5 C 0 km/h
2857 04-12-2009 19:39:02 5 C 4.14 g/m*3 5 C 0 km/h
2858 04-12-2009 19:51:01 5.1 C 4.17 g/m*3 5.1 C 0 km/h
2859 04-12-2009 20:03:02 5.1 C 4.17 g/m*3 5.1 C 0 km/h
2860 04-12-2009 20:15:01 5 C 4.21 g/m*3 5 C 0 km/h
2861 04-12-2009 20:27:01 5 C 4.21 g/m*3 5 C 0 km/h
2862 04-12-2009 20:39:02 5 C 4.21 g/m*3 5 C 0 km/h
2863 04-12-2009 20:51:02 5 C 4.28 g/m*3 5 C 0 km/h
2864 04-12-2009 21:03:02 5 C 4.28 g/m*3 5 C 0 km/h
2865 04-12-2009 21:15:01 5.1 C 4.31 g/m*3 5.1 C 0 km/h
2866 04-12-2009 21:27:01 5.1 C 4.31 g/m*3 5.1 C 0 km/h
2867 04-12-2009 21:39:02 5.2 C 4.34 g/m*3 5.2 C 0 km/h
2868 04-12-2009 21:51:02 5.2 C 4.34 g/m*3 5.2 C 0 km/h
2869 04-12-2009 22:04:03 5.2 C 4.34 g/m*3 5.2 C 0 km/h
2870 04-12-2009 22:16:03 5.2 C 4.34 g/m*3 5.2 C 0 km/h
2871 04-12-2009 22:28:03 5.1 C 4.31 g/m*3 5.1 C 0 km/h
2872 04-12-2009 22:40:03 5.1 C 4.17 g/m*3 5.1 C 0 km/h
2873 04-12-2009 22:52:03 5.1 C 4.17 g/m*3 5.1 C 0 km/h
2874 04-12-2009 23:04:03 4.7 C 4.06 g/m*3 4.7 C 0 km/h
2875 04-12-2009 23:16:03 4.1 C 4.03 g/m*3 4.1 C 0 km/h
Sensor: Nr:Datum:Temp:Abs-Feuchte:Windchill:Wind:
Aussen-T/F 2876 04-12-2009 23:28:03 3.6 C 4.15 g/m*3 3.6 C 0 km/h
2877 04-12-2009 23:40:03 3.2 C 4.16 g/m*3 3.2 C 0 km/h
2878 04-12-2009 23:52:03 3 C 4.16 g/m*3 3 C 0 km/h
2879 05-12-2009 00:04:03 2.7 C 4.2 g/m*3 2.7 C 0 km/h
2880 05-12-2009 00:16:03 2.5 C 4.25 g/m*3 2.5 C 0 km/h
2881 05-12-2009 00:28:03 2.3 C 4.2 g/m*3 2.3 C 0 km/h
2882 05-12-2009 00:40:03 2.7 C 4.37 g/m*3 2.7 C 0 km/h
2883 05-12-2009 00:52:03 3.2 C 4.4 g/m*3 3.2 C 0 km/h
2884 05-12-2009 01:04:03 3.3 C 4.43 g/m*3 3.3 C 0 km/h
2885 05-12-2009 01:16:03 2.9 C 4.25 g/m*3 2.9 C 0 km/h
2886 05-12-2009 01:28:04 2.7 C 4.31 g/m*3 2.7 C 0 km/h
2887 05-12-2009 01:40:04 2.8 C 4.4 g/m*3 2.8 C 0 km/h
2888 05-12-2009 01:52:04 3.1 C 4.37 g/m*3 3.1 C 0 km/h
2889 05-12-2009 02:04:04 2.9 C 4.31 g/m*3 2.9 C 0 km/h
2890 05-12-2009 02:16:04 2.8 C 4.28 g/m*3 2.8 C 0 km/h
2891 05-12-2009 02:28:04 2.8 C 4.28 g/m*3 2.8 C 0 km/h
2892 05-12-2009 02:40:04 2.7 C 4.31 g/m*3 2.7 C 0 km/h
2893 05-12-2009 02:52:04 2.7 C 4.31 g/m*3 2.7 C 0 km/h
2894 05-12-2009 03:04:04 2.7 C 4.37 g/m*3 2.7 C 0 km/h
2895 05-12-2009 03:16:04 3 C 4.34 g/m*3 3 C 0 km/h
2896 05-12-2009 03:28:04 2.9 C 4.37 g/m*3 2.9 C 0 km/h
2897 05-12-2009 03:40:04 3.2 C 4.4 g/m*3 3.2 C 0 km/h
2898 05-12-2009 03:52:04 3.3 C 4.37 g/m*3 3.3 C 0 km/h
2899 05-12-2009 04:04:04 3.3 C 4.37 g/m*3 3.3 C 0 km/h
2900 05-12-2009 04:16:04 3.4 C 4.4 g/m*3 3.4 C 0 km/h
Sensor: Nr:Datum:Temp:Abs-Feuchte:Windchill:Wind:
Aussen-T/F 2901 05-12-2009 04:28:04 3.4 C 4.34 g/m*3 3.4 C 0 km/h
2902 05-12-2009 04:40:04 3.2 C 4.28 g/m*3 3.2 C 0 km/h
2903 05-12-2009 04:52:04 3.2 C 4.34 g/m*3 3.2 C 0 km/h
2904 05-12-2009 05:04:04 3.3 C 4.37 g/m*3 3.3 C 0 km/h
2905 05-12-2009 05:16:05 3.3 C 4.31 g/m*3 3.3 C 0 km/h
2906 05-12-2009 05:28:05 3.4 C 4.34 g/m*3 3.4 C 0 km/h
2907 05-12-2009 05:40:05 3.4 C 4.34 g/m*3 3.4 C 0 km/h
2908 05-12-2009 05:52:05 3.4 C 4.28 g/m*3 3.4 C 0 km/h
2909 05-12-2009 06:04:05 3.4 C 4.28 g/m*3 3.4 C 0 km/h
2910 05-12-2009 06:16:05 3.4 C 4.28 g/m*3 3.4 C 0 km/h
2911 05-12-2009 06:28:05 3.5 C 4.24 g/m*3 3.5 C 0 km/h
2912 05-12-2009 06:40:05 3.5 C 4.24 g/m*3 3.5 C 0 km/h
2913 05-12-2009 06:52:05 3.5 C 4.24 g/m*3 3.5 C 0 km/h
2914 05-12-2009 07:04:05 3.5 C 4.18 g/m*3 3.5 C 0 km/h
2915 05-12-2009 07:16:05 3.7 C 4.18 g/m*3 3.7 C 0 km/h
2916 05-12-2009 07:28:05 3.7 C 4.11 g/m*3 3.7 C 0 km/h
2917 05-12-2009 07:40:02 3.8 C 4.08 g/m*3 3.8 C 0 km/h
2918 05-12-2009 07:52:01 3.8 C 4.08 g/m*3 3.8 C 0 km/h
2919 05-12-2009 08:04:01 3.9 C 4.11 g/m*3 3.9 C 0 km/h
2920 05-12-2009 08:16:02 4 C 4.07 g/m*3 4 C 0 km/h
2921 05-12-2009 08:28:02 4 C 4.01 g/m*3 4 C 0 km/h
2922 05-12-2009 08:40:01 4.1 C 4.03 g/m*3 4.1 C 0 km/h
2923 05-12-2009 08:52:03 4.1 C 4.03 g/m*3 4.1 C 0 km/h
2924 05-12-2009 09:04:02 4.2 C 4.06 g/m*3 4.2 C 0 km/h
2925 05-12-2009 09:16:02 4.2 C 4.12 g/m*3 4.2 C 0 km/h
Sensor: Nr:Datum:Temp:Abs-Feuchte:Windchill:Wind:
Aussen-T/F 2926 05-12-2009 09:28:02 4.3 C 4.15 g/m*3 4.3 C 0 km/h
2927 05-12-2009 09:40:02 4.4 C 4.11 g/m*3 4.4 C 0 km/h
2928 05-12-2009 09:52:02 4.6 C 4.17 g/m*3 4.6 C 0 km/h
2929 05-12-2009 10:04:02 4.7 C 4.13 g/m*3 4.7 C 0 km/h
2930 05-12-2009 10:16:02 4.8 C 4.16 g/m*3 4.8 C 0 km/h
2931 05-12-2009 10:28:03 5.1 C 4.17 g/m*3 5.1 C 0 km/h
2932 05-12-2009 10:40:02 5.2 C 4.13 g/m*3 5.2 C 0 km/h
2933 05-12-2009 10:52:02 5.3 C 4.23 g/m*3 5.3 C 0 km/h
2934 05-12-2009 11:04:01 5.3 C 4.3 g/m*3 5.3 C 0 km/h
2935 05-12-2009 11:16:02 5.2 C 4.54 g/m*3 5.2 C 0 km/h
2936 05-12-2009 11:28:02 5.2 C 4.68 g/m*3 5.2 C 0 km/h
2937 05-12-2009 11:40:02 5.6 C 4.81 g/m*3 5.6 C 0 km/h
2938 05-12-2009 11:52:02 5.7 C 4.77 g/m*3 5.7 C 0 km/h
2939 05-12-2009 12:04:02 6 C 4.79 g/m*3 6 C 0 km/h
2940 05-12-2009 12:16:02 6.3 C 4.89 g/m*3 6.3 C 0 km/h
2941 05-12-2009 12:28:02 6.2 C 4.93 g/m*3 6.2 C 0 km/h
2942 05-12-2009 12:40:03 6.4 C 4.99 g/m*3 6.4 C 0 km/h
2943 05-12-2009 12:52:02 6.4 C 5.07 g/m*3 6.4 C 0 km/h
2944 05-12-2009 13:04:02 6.6 C 5.13 g/m*3 6.6 C 0 km/h
2945 05-12-2009 13:16:01 6.8 C 5.2 g/m*3 6.8 C 0 km/h
2946 05-12-2009 13:28:01 6.8 C 5.28 g/m*3 6.8 C 0 km/h
2947 05-12-2009 13:40:02 6.9 C 5.31 g/m*3 6.9 C 0 km/h
2948 05-12-2009 13:52:02 7 C 5.27 g/m*3 7 C 0 km/h
2949 05-12-2009 14:04:02 7.4 C 5.33 g/m*3 7.4 C 0 km/h
2950 05-12-2009 14:16:02 7.2 C 5.34 g/m*3 7.2 C 0 km/h
Sensor: Nr:Datum:Temp:Abs-Feuchte:Windchill:Wind:
Aussen-T/F 2951 05-12-2009 14:28:02 7.1 C 5.46 g/m*3 7.1 C 0 km/h
2952 05-12-2009 14:40:02 6.9 C 5.54 g/m*3 6.9 C 0 km/h
2953 05-12-2009 14:52:02 6.9 C 5.62 g/m*3 6.9 C 0 km/h
2954 05-12-2009 15:04:02 6.8 C 5.66 g/m*3 6.8 C 0 km/h
2955 05-12-2009 15:16:02 6.6 C 5.66 g/m*3 6.6 C 0 km/h
2956 05-12-2009 15:28:02 6.3 C 5.77 g/m*3 6.3 C 0 km/h
2957 05-12-2009 15:40:02 6.3 C 5.85 g/m*3 6.3 C 0 km/h
2958 05-12-2009 15:52:02 6.2 C 5.88 g/m*3 6.2 C 0 km/h
2959 05-12-2009 16:04:02 6.2 C 5.96 g/m*3 6.2 C 0 km/h
2960 05-12-2009 16:16:03 6.1 C 5.99 g/m*3 6.1 C 0 km/h
2961 05-12-2009 16:28:03 6.1 C 6.06 g/m*3 6.1 C 0 km/h
2962 05-12-2009 16:40:02 6.1 C 6.14 g/m*3 6.1 C 0 km/h
2963 05-12-2009 16:52:02 6.2 C 6.18 g/m*3 6.2 C 0 km/h
2964 05-12-2009 17:04:02 6.2 C 6.25 g/m*3 6.2 C 0 km/h
2965 05-12-2009 17:16:03 6.4 C 6.33 g/m*3 6.4 C 0 km/h
2966 05-12-2009 17:28:03 6.5 C 6.37 g/m*3 6.5 C 0 km/h
2967 05-12-2009 17:40:02 6.7 C 6.38 g/m*3 6.7 C 0 km/h
2968 05-12-2009 17:52:03 6.9 C 6.39 g/m*3 6.9 C 0 km/h
2969 05-12-2009 18:04:02 7.1 C 6.24 g/m*3 7.1 C 0 km/h
2970 05-12-2009 18:16:02 7.3 C 6.24 g/m*3 7.3 C 0 km/h
2971 05-12-2009 18:28:02 7.3 C 6.24 g/m*3 7.3 C 0 km/h
2972 05-12-2009 18:40:02 7.3 C 6.24 g/m*3 7.3 C 0 km/h
2973 05-12-2009 18:52:02 7.3 C 6.32 g/m*3 7.3 C 0 km/h
2974 05-12-2009 19:04:02 7.4 C 6.36 g/m*3 7.4 C 0 km/h
2975 05-12-2009 19:16:02 7.3 C 6.32 g/m*3 7.3 C 0 km/h
Sensor: Nr:Datum:Temp:Abs-Feuchte:Windchill:Wind:
Aussen-T/F 2976 05-12-2009 19:28:02 7.4 C 6.36 g/m*3 7.4 C 0 km/h
2977 05-12-2009 19:40:02 7.4 C 6.36 g/m*3 7.4 C 0 km/h
2978 05-12-2009 19:52:02 7.5 C 6.48 g/m*3 7.5 C 0 km/h
2979 05-12-2009 20:04:01 7.6 C 6.61 g/m*3 7.6 C 0 km/h
2980 05-12-2009 20:16:02 7.6 C 6.53 g/m*3 7.6 C 0 km/h
2981 05-12-2009 20:28:02 7.6 C 6.61 g/m*3 7.6 C 0 km/h
2982 05-12-2009 20:40:02 7.8 C 6.69 g/m*3 7.8 C 0 km/h
2983 05-12-2009 20:52:02 7.8 C 6.69 g/m*3 7.8 C 0 km/h
2984 05-12-2009 21:04:02 7.9 C 6.74 g/m*3 7.9 C 0 km/h
2985 05-12-2009 21:16:02 7.9 C 6.74 g/m*3 7.9 C 0 km/h
2986 05-12-2009 21:28:02 7.8 C 6.69 g/m*3 7.8 C 0 km/h
2987 05-12-2009 21:40:03 7.9 C 6.82 g/m*3 7.9 C 0 km/h
2988 05-12-2009 21:53:02 7.8 C 6.77 g/m*3 7.8 C 0 km/h
2989 05-12-2009 22:05:02 7.8 C 6.77 g/m*3 7.8 C 0 km/h
2990 05-12-2009 22:17:02 7.9 C 6.82 g/m*3 7.9 C 0 km/h
2991 05-12-2009 22:29:02 7.9 C 6.82 g/m*3 7.9 C 0 km/h
2992 05-12-2009 22:41:02 7.8 C 6.77 g/m*3 7.8 C 0 km/h
2993 05-12-2009 22:53:02 7.9 C 6.82 g/m*3 7.9 C 0 km/h
2994 05-12-2009 23:05:02 8 C 6.86 g/m*3 8 C 0 km/h
2995 05-12-2009 23:17:03 8 C 6.86 g/m*3 8 C 0 km/h
2996 05-12-2009 23:29:03 8.1 C 6.82 g/m*3 8.1 C 0 km/h
2997 05-12-2009 23:41:03 8.2 C 6.95 g/m*3 8.2 C 0 km/h
2998 05-12-2009 23:53:03 8.4 C 6.96 g/m*3 8.4 C 0 km/h
2999 06-12-2009 00:05:03 8.6 C 7.05 g/m*3 8.6 C 0 km/h
3000 06-12-2009 00:17:03 8.9 C 7.1 g/m*3 8.9 C 0 km/h
Sensor: Nr:Datum:Temp:Abs-Feuchte:Windchill:Wind:
Aussen-T/F 3001 06-12-2009 00:29:03 9 C 6.96 g/m*3 9 C 0 km/h
3002 06-12-2009 00:41:03 9.1 C 7.01 g/m*3 9.1 C 0 km/h
3003 06-12-2009 00:53:03 9.2 C 7.05 g/m*3 9.2 C 0 km/h
3004 06-12-2009 01:05:03 9.3 C 7.1 g/m*3 9.3 C 0 km/h
3005 06-12-2009 01:17:03 9.4 C 7.15 g/m*3 9.4 C 0 km/h
3006 06-12-2009 01:29:03 9.3 C 7.1 g/m*3 9.3 C 0 km/h
3007 06-12-2009 01:41:03 9.5 C 7.19 g/m*3 9.5 C 0 km/h
3008 06-12-2009 01:53:03 9.4 C 7.15 g/m*3 9.4 C 0 km/h
3009 06-12-2009 02:05:03 9.5 C 7.19 g/m*3 9.5 C 0 km/h
3010 06-12-2009 02:17:03 9.6 C 7.15 g/m*3 9.6 C 0 km/h
3011 06-12-2009 02:29:03 9.6 C 7.15 g/m*3 9.6 C 0 km/h
3012 06-12-2009 02:41:03 9.7 C 7.19 g/m*3 9.7 C 0 km/h
3013 06-12-2009 02:53:03 9.8 C 7.14 g/m*3 9.8 C 0 km/h
3014 06-12-2009 03:05:04 9.7 C 7.1 g/m*3 9.7 C 0 km/h
3015 06-12-2009 03:17:04 10 C 7.05 g/m*3 10 C 0 km/h
3016 06-12-2009 03:29:04 10 C 7.05 g/m*3 10 C 0 km/h
3017 06-12-2009 03:41:04 9.9 C 7.19 g/m*3 9.9 C 0 km/h
3018 06-12-2009 03:53:04 9.9 C 7.19 g/m*3 9.9 C 0 km/h
3019 06-12-2009 04:05:04 10 C 7.14 g/m*3 10 C 0 km/h
3020 06-12-2009 04:17:04 10 C 7.05 g/m*3 10 C 0 km/h
3021 06-12-2009 04:29:04 10 C 7.14 g/m*3 10 C 0 km/h
3022 06-12-2009 04:41:04 9.9 C 7.19 g/m*3 9.9 C 0 km/h
3023 06-12-2009 04:53:04 9.7 C 7.19 g/m*3 9.7 C 0 km/h
3024 06-12-2009 05:05:04 9.9 C 7.28 g/m*3 9.9 C 0 km/h
3025 06-12-2009 05:17:04 10.2 C 7.23 g/m*3 10.2 C 0 km/h
Sensor: Nr:Datum:Temp:Abs-Feuchte:Windchill:Wind:
Aussen-T/F 3026 06-12-2009 05:29:04 9.8 C 7.33 g/m*3 9.8 C 0 km/h
3027 06-12-2009 05:41:04 9.4 C 7.33 g/m*3 9.4 C 0 km/h
3028 06-12-2009 05:53:04 9.3 C 7.37 g/m*3 9.3 C 0 km/h
3029 06-12-2009 06:05:04 9.4 C 7.42 g/m*3 9.4 C 0 km/h
3030 06-12-2009 06:17:04 9.6 C 7.42 g/m*3 9.6 C 0 km/h
3031 06-12-2009 06:29:04 9.2 C 7.41 g/m*3 9.2 C 0 km/h
3032 06-12-2009 06:41:04 8.8 C 7.49 g/m*3 8.8 C 0 km/h
3033 06-12-2009 06:53:05 8.9 C 7.71 g/m*3 8.9 C 0 km/h
3034 06-12-2009 07:05:05 8.8 C 7.66 g/m*3 8.8 C 0 km/h
3035 06-12-2009 07:17:05 8.6 C 7.56 g/m*3 8.6 C 0 km/h
3036 06-12-2009 07:29:05 8.4 C 7.55 g/m*3 8.4 C 0 km/h
3037 06-12-2009 07:41:02 8.4 C 7.55 g/m*3 8.4 C 0 km/h
3038 06-12-2009 07:53:02 8.3 C 7.5 g/m*3 8.3 C 0 km/h
3039 06-12-2009 08:05:03 8.2 C 7.54 g/m*3 8.2 C 0 km/h
3040 06-12-2009 08:17:02 8.2 C 7.54 g/m*3 8.2 C 0 km/h
3041 06-12-2009 08:29:02 8.2 C 7.62 g/m*3 8.2 C 0 km/h
3042 06-12-2009 08:41:03 8.2 C 7.62 g/m*3 8.2 C 0 km/h
3043 06-12-2009 08:53:02 8.2 C 7.62 g/m*3 8.2 C 0 km/h
3044 06-12-2009 09:05:01 8.2 C 7.62 g/m*3 8.2 C 0 km/h
3045 06-12-2009 09:17:02 8.4 C 7.72 g/m*3 8.4 C 0 km/h
3046 06-12-2009 09:29:02 8.4 C 7.8 g/m*3 8.4 C 0 km/h
3047 06-12-2009 09:41:02 8.6 C 7.91 g/m*3 8.6 C 0 km/h
3048 06-12-2009 09:53:02 8.7 C 7.87 g/m*3 8.7 C 0 km/h
3049 06-12-2009 10:05:02 8.8 C 7.83 g/m*3 8.8 C 0 km/h
3050 06-12-2009 10:17:02 8.9 C 7.8 g/m*3 8.9 C 0 km/h
Sensor: Nr:Datum:Temp:Abs-Feuchte:Windchill:Wind:
Aussen-T/F 3051 06-12-2009 10:29:02 9.2 C 7.86 g/m*3 9.2 C 0 km/h
3052 06-12-2009 10:41:02 9.3 C 7.91 g/m*3 9.3 C 0 km/h
3053 06-12-2009 10:53:02 9.6 C 8.06 g/m*3 9.6 C 0 km/h
3054 06-12-2009 11:05:02 9.7 C 8.11 g/m*3 9.7 C 0 km/h
3055 06-12-2009 11:17:02 9.8 C 8.07 g/m*3 9.8 C 0 km/h
3056 06-12-2009 11:29:03 9.7 C 7.93 g/m*3 9.7 C 0 km/h
3057 06-12-2009 11:41:02 9.8 C 7.89 g/m*3 9.8 C 0 km/h
3058 06-12-2009 11:53:02 9.8 C 7.61 g/m*3 9.8 C 0 km/h
3059 06-12-2009 12:05:02 10 C 7.52 g/m*3 10 C 0 km/h
3060 06-12-2009 12:17:02 10.2 C 7.61 g/m*3 10.2 C 0 km/h
3061 06-12-2009 12:29:03 10.2 C 7.71 g/m*3 10.2 C 0 km/h
3062 06-12-2009 12:41:02 10.2 C 7.71 g/m*3 10.2 C 0 km/h
3063 06-12-2009 12:53:02 10.2 C 7.8 g/m*3 10.2 C 0 km/h
3064 06-12-2009 13:05:02 10.1 C 7.75 g/m*3 10.1 C 0 km/h
3065 06-12-2009 13:17:01 10.3 C 7.57 g/m*3 10.3 C 0 km/h
3066 06-12-2009 13:29:01 10.7 C 7.27 g/m*3 10.7 C 0 km/h
3067 06-12-2009 13:41:02 10.9 C 6.96 g/m*3 10.9 C 0 km/h
3068 06-12-2009 13:53:02 11.1 C 7.05 g/m*3 11.1 C 0 km/h
3069 06-12-2009 14:05:02 11.6 C 7.17 g/m*3 11.6 C 0 km/h
3070 06-12-2009 14:17:02 11.9 C 7.1 g/m*3 11.9 C 0 km/h
3071 06-12-2009 14:29:02 12 C 6.93 g/m*3 12 C 0 km/h
3072 06-12-2009 14:41:02 11.8 C 7.05 g/m*3 11.8 C 0 km/h
3073 06-12-2009 14:53:01 11.6 C 7.17 g/m*3 11.6 C 0 km/h
3074 06-12-2009 15:05:01 11.6 C 7.28 g/m*3 11.6 C 0 km/h
3075 06-12-2009 15:17:02 11.4 C 7.29 g/m*3 11.4 C 0 km/h
Sensor: Nr:Datum:Temp:Abs-Feuchte:Windchill:Wind:
Aussen-T/F 3076 06-12-2009 15:29:02 11.2 C 7.5 g/m*3 11.2 C 0 km/h
3077 06-12-2009 15:41:01 11.1 C 7.45 g/m*3 11.1 C 0 km/h
3078 06-12-2009 15:53:02 11.1 C 7.45 g/m*3 11.1 C 0 km/h
3079 06-12-2009 16:05:02 11.2 C 7.4 g/m*3 11.2 C 0 km/h
3080 06-12-2009 16:17:02 11.1 C 7.35 g/m*3 11.1 C 0 km/h
3081 06-12-2009 16:29:02 11.1 C 7.35 g/m*3 11.1 C 0 km/h
3082 06-12-2009 16:41:02 11.1 C 7.35 g/m*3 11.1 C 0 km/h
3083 06-12-2009 16:53:01 11 C 7.41 g/m*3 11 C 0 km/h
3084 06-12-2009 17:05:02 11 C 7.41 g/m*3 11 C 0 km/h
3085 06-12-2009 17:17:02 10.9 C 7.46 g/m*3 10.9 C 0 km/h
3086 06-12-2009 17:29:02 10.9 C 7.66 g/m*3 10.9 C 0 km/h
3087 06-12-2009 17:41:01 11 C 7.71 g/m*3 11 C 0 km/h
3088 06-12-2009 17:53:02 10.8 C 7.71 g/m*3 10.8 C 0 km/h
3089 06-12-2009 18:05:07 11 C 7.71 g/m*3 11 C 0 km/h
3090 06-12-2009 18:17:05 11 C 7.71 g/m*3 11 C 0 km/h
3091 06-12-2009 18:29:05 11 C 7.71 g/m*3 11 C 0 km/h
3092 06-12-2009 18:41:05 11 C 7.71 g/m*3 11 C 0 km/h
3093 06-12-2009 18:53:05 11 C 7.71 g/m*3 11 C 0 km/h
3094 06-12-2009 19:05:05 11.2 C 7.7 g/m*3 11.2 C 0 km/h
3095 06-12-2009 19:17:06 11.4 C 7.8 g/m*3 11.4 C 0 km/h
3096 06-12-2009 19:29:06 11.4 C 7.8 g/m*3 11.4 C 0 km/h
3097 06-12-2009 19:41:06 11.4 C 7.9 g/m*3 11.4 C 0 km/h
3098 06-12-2009 19:53:02 11 C 8.01 g/m*3 11 C 0 km/h
3099 06-12-2009 20:05:02 11 C 8.31 g/m*3 11 C 0 km/h
3100 06-12-2009 20:17:02 10.7 C 8.25 g/m*3 10.7 C 0 km/h
Sensor: Nr:Datum:Temp:Abs-Feuchte:Windchill:Wind:
Aussen-T/F 3101 06-12-2009 20:29:02 10.6 C 8.2 g/m*3 10.6 C 0 km/h
3102 06-12-2009 20:41:02 10.5 C 8.24 g/m*3 10.5 C 0 km/h
3103 06-12-2009 20:53:02 10.4 C 8.19 g/m*3 10.4 C 0 km/h
3104 06-12-2009 21:05:02 10.4 C 8.19 g/m*3 10.4 C 0 km/h
3105 06-12-2009 21:17:02 10 C 7.99 g/m*3 10 C 0 km/h
3106 06-12-2009 21:29:02 9.6 C 7.88 g/m*3 9.6 C 0 km/h
3107 06-12-2009 21:41:02 9.3 C 7.82 g/m*3 9.3 C 0 km/h
3108 06-12-2009 21:54:02 9.2 C 7.77 g/m*3 9.2 C 0 km/h
3109 06-12-2009 22:06:02 9 C 7.76 g/m*3 9 C 0 km/h
3110 06-12-2009 22:18:02 8.9 C 7.8 g/m*3 8.9 C 0 km/h
3111 06-12-2009 22:30:03 8.9 C 7.88 g/m*3 8.9 C 0 km/h
3112 06-12-2009 22:42:03 8.9 C 7.88 g/m*3 8.9 C 0 km/h
3113 06-12-2009 22:54:03 8.6 C 7.65 g/m*3 8.6 C 0 km/h
3114 06-12-2009 23:06:03 8.4 C 7.47 g/m*3 8.4 C 0 km/h
3115 06-12-2009 23:18:03 8 C 7.19 g/m*3 8 C 0 km/h
3116 06-12-2009 23:30:03 7.7 C 7.14 g/m*3 7.7 C 0 km/h
3117 06-12-2009 23:42:03 7.6 C 6.93 g/m*3 7.6 C 0 km/h
3118 06-12-2009 23:54:03 7.3 C 6.72 g/m*3 7.3 C 0 km/h
3119 07-12-2009 00:06:03 6.9 C 6.62 g/m*3 6.9 C 0 km/h
3120 07-12-2009 00:18:03 6.7 C 6.46 g/m*3 6.7 C 0 km/h
3121 07-12-2009 00:30:03 7 C 6.43 g/m*3 7 C 0 km/h
3122 07-12-2009 00:42:03 6.7 C 6.31 g/m*3 6.7 C 0 km/h
3123 07-12-2009 00:54:03 6.6 C 6.34 g/m*3 6.6 C 0 km/h
3124 07-12-2009 01:06:03 6.6 C 6.42 g/m*3 6.6 C 0 km/h
3125 07-12-2009 01:18:03 6.8 C 6.5 g/m*3 6.8 C 0 km/h
Sensor: Nr:Datum:Temp:Abs-Feuchte:Windchill:Wind:
Aussen-T/F 3126 07-12-2009 01:30:03 6.6 C 6.42 g/m*3 6.6 C 0 km/h
3127 07-12-2009 01:42:03 6.5 C 6.45 g/m*3 6.5 C 0 km/h
3128 07-12-2009 01:54:03 5.9 C 6.27 g/m*3 5.9 C 0 km/h
3129 07-12-2009 02:06:03 5.4 C 6.07 g/m*3 5.4 C 0 km/h
3130 07-12-2009 02:18:03 4.9 C 5.94 g/m*3 4.9 C 0 km/h
3131 07-12-2009 02:30:04 4.7 C 5.93 g/m*3 4.7 C 0 km/h
3132 07-12-2009 02:42:04 4.7 C 5.93 g/m*3 4.7 C 0 km/h
3133 07-12-2009 02:54:04 4.5 C 5.85 g/m*3 4.5 C 0 km/h
3134 07-12-2009 03:06:04 4.3 C 5.84 g/m*3 4.3 C 0 km/h
3135 07-12-2009 03:18:04 4.3 C 5.84 g/m*3 4.3 C 0 km/h
3136 07-12-2009 03:30:04 4.4 C 5.94 g/m*3 4.4 C 0 km/h
3137 07-12-2009 03:42:04 4 C 5.79 g/m*3 4 C 0 km/h
3138 07-12-2009 03:54:04 3.9 C 5.81 g/m*3 3.9 C 0 km/h
3139 07-12-2009 04:06:04 3.7 C 5.73 g/m*3 3.7 C 0 km/h
3140 07-12-2009 04:18:04 3.6 C 5.69 g/m*3 3.6 C 0 km/h
3141 07-12-2009 04:30:04 3.5 C 5.66 g/m*3 3.5 C 0 km/h
3142 07-12-2009 04:42:04 3.3 C 5.58 g/m*3 3.3 C 0 km/h
3143 07-12-2009 04:54:04 3 C 5.47 g/m*3 3 C 0 km/h
3144 07-12-2009 05:06:04 3 C 5.53 g/m*3 3 C 0 km/h
3145 07-12-2009 05:18:04 2.9 C 5.55 g/m*3 2.9 C 0 km/h
3146 07-12-2009 05:30:04 2.6 C 5.44 g/m*3 2.6 C 0 km/h
3147 07-12-2009 05:42:04 2.3 C 5.33 g/m*3 2.3 C 0 km/h
3148 07-12-2009 05:54:04 2.2 C 5.29 g/m*3 2.2 C 0 km/h
3149 07-12-2009 06:06:04 2.3 C 5.33 g/m*3 2.3 C 0 km/h
3150 07-12-2009 06:18:04 2.4 C 5.37 g/m*3 2.4 C 0 km/h
Sensor: Nr:Datum:Temp:Abs-Feuchte:Windchill:Wind:
Aussen-T/F 3151 07-12-2009 06:30:04 2.3 C 5.33 g/m*3 2.3 C 0 km/h
3152 07-12-2009 06:42:05 2.5 C 5.46 g/m*3 2.5 C 0 km/h
3153 07-12-2009 06:54:05 3 C 5.65 g/m*3 3 C 0 km/h
3154 07-12-2009 07:06:02 3 C 5.65 g/m*3 3 C 0 km/h
3155 07-12-2009 07:18:02 3 C 5.65 g/m*3 3 C 0 km/h
3156 07-12-2009 07:30:02 2.8 C 5.57 g/m*3 2.8 C 0 km/h
3157 07-12-2009 07:42:02 2.9 C 5.61 g/m*3 2.9 C 0 km/h
3158 07-12-2009 07:54:02 2.7 C 5.54 g/m*3 2.7 C 0 km/h
3159 07-12-2009 08:06:02 2.8 C 5.57 g/m*3 2.8 C 0 km/h
3160 07-12-2009 08:18:02 3.3 C 5.76 g/m*3 3.3 C 0 km/h
3161 07-12-2009 08:30:02 3.3 C 5.76 g/m*3 3.3 C 0 km/h
3162 07-12-2009 08:42:02 3.3 C 5.76 g/m*3 3.3 C 0 km/h
3163 07-12-2009 08:54:01 2.9 C 5.61 g/m*3 2.9 C 0 km/h
3164 07-12-2009 09:06:02 2.9 C 5.61 g/m*3 2.9 C 0 km/h
3165 07-12-2009 09:18:02 3 C 5.65 g/m*3 3 C 0 km/h
3166 07-12-2009 09:30:02 3.4 C 5.8 g/m*3 3.4 C 0 km/h
3167 07-12-2009 09:42:01 4.5 C 6.24 g/m*3 4.5 C 0 km/h
3168 07-12-2009 09:54:01 5.2 C 6.54 g/m*3 5.2 C 0 km/h
3169 07-12-2009 10:06:02 5.4 C 6.63 g/m*3 5.4 C 0 km/h
3170 07-12-2009 10:18:01 5.5 C 6.6 g/m*3 5.5 C 0 km/h
3171 07-12-2009 10:30:01 5.8 C 6.52 g/m*3 5.8 C 0 km/h
3172 07-12-2009 10:42:01 5.9 C 6.42 g/m*3 5.9 C 0 km/h
3173 07-12-2009 10:54:02 6.3 C 6.29 g/m*3 6.3 C 0 km/h
3174 07-12-2009 11:06:02 6.5 C 6.3 g/m*3 6.5 C 0 km/h
3175 07-12-2009 11:18:03 6.7 C 6.23 g/m*3 6.7 C 0 km/h
Sensor: Nr:Datum:Temp:Abs-Feuchte:Windchill:Wind:
Aussen-T/F 3176 07-12-2009 11:30:03 6.8 C 6.27 g/m*3 6.8 C 0 km/h
3177 07-12-2009 11:42:02 7 C 6.28 g/m*3 7 C 0 km/h
3178 07-12-2009 11:54:02 7.1 C 6.01 g/m*3 7.1 C 0 km/h
3179 07-12-2009 12:06:01 7.1 C 6.01 g/m*3 7.1 C 0 km/h
3180 07-12-2009 12:18:02 7.4 C 5.88 g/m*3 7.4 C 0 km/h
3181 07-12-2009 12:30:03 7.5 C 5.84 g/m*3 7.5 C 0 km/h
3182 07-12-2009 12:42:01 7.7 C 6.16 g/m*3 7.7 C 0 km/h
3183 07-12-2009 12:54:02 7.9 C 6.16 g/m*3 7.9 C 0 km/h
3184 07-12-2009 13:06:02 7.7 C 6 g/m*3 7.7 C 0 km/h
3185 07-12-2009 13:18:02 7.8 C 5.96 g/m*3 7.8 C 0 km/h
3186 07-12-2009 13:30:02 7.9 C 5.67 g/m*3 7.9 C 0 km/h
3187 07-12-2009 13:42:03 7.7 C 5.59 g/m*3 7.7 C 0 km/h
3188 07-12-2009 13:54:02 7.5 C 5.68 g/m*3 7.5 C 0 km/h
3189 07-12-2009 14:06:02 7.8 C 5.71 g/m*3 7.8 C 0 km/h
3190 07-12-2009 14:18:02 8 C 5.62 g/m*3 8 C 0 km/h
3191 07-12-2009 14:30:02 8 C 5.21 g/m*3 8 C 0 km/h
3192 07-12-2009 14:42:02 8 C 5.13 g/m*3 8 C 0 km/h
3193 07-12-2009 14:54:01 7.6 C 5.24 g/m*3 7.6 C 0 km/h
3194 07-12-2009 15:06:02 7.4 C 5.25 g/m*3 7.4 C 0 km/h
3195 07-12-2009 15:18:01 7.2 C 5.26 g/m*3 7.2 C 0 km/h
3196 07-12-2009 15:30:01 7.1 C 5.23 g/m*3 7.1 C 0 km/h
3197 07-12-2009 15:42:02 7.1 C 5.3 g/m*3 7.1 C 0 km/h
3198 07-12-2009 15:54:02 7.2 C 5.26 g/m*3 7.2 C 0 km/h
3199 07-12-2009 16:06:02 6.9 C 5.31 g/m*3 6.9 C 0 km/h
3200 07-12-2009 16:18:01 6.7 C 5.32 g/m*3 6.7 C 0 km/h
Sensor: Nr:Datum:Temp:Abs-Feuchte:Windchill:Wind:
Aussen-T/F 3201 07-12-2009 16:30:01 6.6 C 5.36 g/m*3 6.6 C 0 km/h
3202 07-12-2009 16:42:02 6.4 C 5.36 g/m*3 6.4 C 0 km/h
3203 07-12-2009 16:54:02 6.3 C 5.55 g/m*3 6.3 C 0 km/h
3204 07-12-2009 17:06:02 6.2 C 5.66 g/m*3 6.2 C 0 km/h
3205 07-12-2009 17:18:02 6.3 C 5.77 g/m*3 6.3 C 0 km/h
3206 07-12-2009 17:30:02 6.3 C 5.85 g/m*3 6.3 C 0 km/h
3207 07-12-2009 17:42:02 6.4 C 5.96 g/m*3 6.4 C 0 km/h
3208 07-12-2009 17:54:01 6.5 C 6 g/m*3 6.5 C 0 km/h
3209 07-12-2009 18:06:02 6.5 C 6 g/m*3 6.5 C 0 km/h
3210 07-12-2009 18:18:02 6.6 C 6.04 g/m*3 6.6 C 0 km/h
3211 07-12-2009 18:30:02 6.7 C 6.15 g/m*3 6.7 C 0 km/h
3212 07-12-2009 18:42:02 6.6 C 6.11 g/m*3 6.6 C 0 km/h
3213 07-12-2009 18:54:02 6.3 C 6 g/m*3 6.3 C 0 km/h
3214 07-12-2009 19:06:02 6.3 C 6.07 g/m*3 6.3 C 0 km/h
3215 07-12-2009 19:18:02 6.4 C 6.18 g/m*3 6.4 C 0 km/h
3216 07-12-2009 19:30:03 6.4 C 6.18 g/m*3 6.4 C 0 km/h
3217 07-12-2009 19:42:02 6.4 C 6.18 g/m*3 6.4 C 0 km/h
3218 07-12-2009 19:54:02 6.2 C 6.1 g/m*3 6.2 C 0 km/h
3219 07-12-2009 20:06:02 6.2 C 6.18 g/m*3 6.2 C 0 km/h
3220 07-12-2009 20:18:02 6.3 C 6.29 g/m*3 6.3 C 0 km/h
3221 07-12-2009 20:30:02 6.4 C 6.41 g/m*3 6.4 C 0 km/h
3222 07-12-2009 20:42:03 6.3 C 6.44 g/m*3 6.3 C 0 km/h
3223 07-12-2009 20:54:01 6.3 C 6.51 g/m*3 6.3 C 0 km/h
3224 07-12-2009 21:06:02 6.3 C 6.59 g/m*3 6.3 C 0 km/h
3225 07-12-2009 21:18:01 6.4 C 6.71 g/m*3 6.4 C 0 km/h
Sensor: Nr:Datum:Temp:Abs-Feuchte:Windchill:Wind:
Aussen-T/F 3226 07-12-2009 21:30:01 6.4 C 6.71 g/m*3 6.4 C 0 km/h
3227 07-12-2009 21:42:02 6.3 C 6.74 g/m*3 6.3 C 0 km/h
3228 07-12-2009 21:55:03 6.4 C 6.85 g/m*3 6.4 C 0 km/h
3229 07-12-2009 22:07:03 6.4 C 6.85 g/m*3 6.4 C 0 km/h
3230 07-12-2009 22:19:03 6.2 C 6.77 g/m*3 6.2 C 0 km/h
3231 07-12-2009 22:31:03 5.9 C 6.71 g/m*3 5.9 C 0 km/h
3232 07-12-2009 22:43:03 5.8 C 6.66 g/m*3 5.8 C 0 km/h
3233 07-12-2009 22:55:03 6 C 6.75 g/m*3 6 C 0 km/h
3234 07-12-2009 23:07:03 6.1 C 6.87 g/m*3 6.1 C 0 km/h
3235 07-12-2009 23:19:03 6.2 C 6.91 g/m*3 6.2 C 0 km/h
3236 07-12-2009 23:31:03 6.5 C 7.05 g/m*3 6.5 C 0 km/h
3237 07-12-2009 23:43:03 6.4 C 7.08 g/m*3 6.4 C 0 km/h
3238 07-12-2009 23:55:03 6.5 C 7.12 g/m*3 6.5 C 0 km/h
323